<?xml version="1.0" encoding="UTF-8" standalone="no" ?>
<gpx xmlns="http://www.topografix.com/GPX/1/1" xmlns:xsi="http://www.w3.org/2001/XMLSchema-instance" xsi:schemaLocation="http://www.topografix.com/GPX/1/1 http://www.topografix.com/GPX/1/1/gpx.xsd" version="1.1" creator="VisuGPX - https://www.visugpx.com">
  <metadata>
    <name>12 lacs du Carlit</name>
    <desc><![CDATA[randonnée au-dessus de 2000m, dite "circuit des 12 lacs du Carlit", totalement balisée; ambiance haute montagne, dominée par le Carlit, sur sentiers très bien marqués, en partie en forêt, sous le signe de l'eau: lacs et torrents, accès facilité par la navette depuis le parking du Pla Barrès, ou le télésiège de la Calme depuis Font-Romeu (voir dates); seul le départ est moins facile avec un passage sur rochers.]]></desc>
  </metadata>
  <trk>
    <name><![CDATA[Bouillouses 12 lacs]]></name>
    <cmt><![CDATA[5 juil. 2019 à 10:43:44]]></cmt>
    <trkseg>
      <trkpt lat="42.55943" lon="2.00333">
        <ele>2011</ele>
        <time>2019-07-05T08:43:45Z</time>
      </trkpt>
      <trkpt lat="42.55943" lon="2.00333">
        <ele>2011</ele>
        <time>2019-07-05T08:43:46Z</time>
      </trkpt>
      <trkpt lat="42.55946" lon="2.00342">
        <ele>2010</ele>
        <time>2019-07-05T08:43:56Z</time>
      </trkpt>
      <trkpt lat="42.55951" lon="2.00347">
        <ele>2011</ele>
        <time>2019-07-05T08:44:08Z</time>
      </trkpt>
      <trkpt lat="42.5596" lon="2.00357">
        <ele>2011</ele>
        <time>2019-07-05T08:44:23Z</time>
      </trkpt>
      <trkpt lat="42.55963" lon="2.00366">
        <ele>2011</ele>
        <time>2019-07-05T08:44:32Z</time>
      </trkpt>
      <trkpt lat="42.55967" lon="2.00371">
        <ele>2012</ele>
        <time>2019-07-05T08:44:37Z</time>
      </trkpt>
      <trkpt lat="42.55972" lon="2.00368">
        <ele>2012</ele>
        <time>2019-07-05T08:44:43Z</time>
      </trkpt>
      <trkpt lat="42.55977" lon="2.00367">
        <ele>2012</ele>
        <time>2019-07-05T08:45:15Z</time>
      </trkpt>
      <trkpt lat="42.55984" lon="2.00378">
        <ele>2012</ele>
        <time>2019-07-05T08:45:22Z</time>
      </trkpt>
      <trkpt lat="42.55993" lon="2.00379">
        <ele>2013</ele>
        <time>2019-07-05T08:45:31Z</time>
      </trkpt>
      <trkpt lat="42.55999" lon="2.00379">
        <ele>2014</ele>
        <time>2019-07-05T08:45:39Z</time>
      </trkpt>
      <trkpt lat="42.56006" lon="2.00372">
        <ele>2014</ele>
        <time>2019-07-05T08:45:48Z</time>
      </trkpt>
      <trkpt lat="42.56008" lon="2.00362">
        <ele>2014</ele>
        <time>2019-07-05T08:45:57Z</time>
      </trkpt>
      <trkpt lat="42.56009" lon="2.00356">
        <ele>2014</ele>
        <time>2019-07-05T08:46:00Z</time>
      </trkpt>
      <trkpt lat="42.56016" lon="2.00341">
        <ele>2014</ele>
        <time>2019-07-05T08:46:13Z</time>
      </trkpt>
      <trkpt lat="42.5602" lon="2.00337">
        <ele>2014</ele>
        <time>2019-07-05T08:46:16Z</time>
      </trkpt>
      <trkpt lat="42.56024" lon="2.00332">
        <ele>2014</ele>
        <time>2019-07-05T08:46:24Z</time>
      </trkpt>
      <trkpt lat="42.56029" lon="2.00333">
        <ele>2014</ele>
        <time>2019-07-05T08:46:29Z</time>
      </trkpt>
      <trkpt lat="42.56034" lon="2.00336">
        <ele>2014</ele>
        <time>2019-07-05T08:46:33Z</time>
      </trkpt>
      <trkpt lat="42.56044" lon="2.00335">
        <ele>2014</ele>
        <time>2019-07-05T08:46:40Z</time>
      </trkpt>
      <trkpt lat="42.56047" lon="2.00329">
        <ele>2015</ele>
        <time>2019-07-05T08:46:48Z</time>
      </trkpt>
      <trkpt lat="42.56044" lon="2.00311">
        <ele>2017</ele>
        <time>2019-07-05T08:47:01Z</time>
      </trkpt>
      <trkpt lat="42.56043" lon="2.00298">
        <ele>2017</ele>
        <time>2019-07-05T08:47:10Z</time>
      </trkpt>
      <trkpt lat="42.56037" lon="2.00269">
        <ele>2017</ele>
        <time>2019-07-05T08:47:30Z</time>
      </trkpt>
      <trkpt lat="42.56035" lon="2.00263">
        <ele>2017</ele>
        <time>2019-07-05T08:47:34Z</time>
      </trkpt>
      <trkpt lat="42.56036" lon="2.00256">
        <ele>2017</ele>
        <time>2019-07-05T08:47:38Z</time>
      </trkpt>
      <trkpt lat="42.56034" lon="2.00251">
        <ele>2017</ele>
        <time>2019-07-05T08:47:42Z</time>
      </trkpt>
      <trkpt lat="42.56035" lon="2.00244">
        <ele>2017</ele>
        <time>2019-07-05T08:47:46Z</time>
      </trkpt>
      <trkpt lat="42.56033" lon="2.00239">
        <ele>2017</ele>
        <time>2019-07-05T08:47:50Z</time>
      </trkpt>
      <trkpt lat="42.56031" lon="2.00227">
        <ele>2017</ele>
        <time>2019-07-05T08:47:58Z</time>
      </trkpt>
      <trkpt lat="42.56029" lon="2.0022">
        <ele>2016</ele>
        <time>2019-07-05T08:48:02Z</time>
      </trkpt>
      <trkpt lat="42.56026" lon="2.00205">
        <ele>2017</ele>
        <time>2019-07-05T08:48:21Z</time>
      </trkpt>
      <trkpt lat="42.56022" lon="2.00184">
        <ele>2016</ele>
        <time>2019-07-05T08:48:40Z</time>
      </trkpt>
      <trkpt lat="42.5602" lon="2.00179">
        <ele>2016</ele>
        <time>2019-07-05T08:48:43Z</time>
      </trkpt>
      <trkpt lat="42.5602" lon="2.00172">
        <ele>2017</ele>
        <time>2019-07-05T08:48:47Z</time>
      </trkpt>
      <trkpt lat="42.56019" lon="2.00161">
        <ele>2016</ele>
        <time>2019-07-05T08:48:54Z</time>
      </trkpt>
      <trkpt lat="42.56017" lon="2.00155">
        <ele>2016</ele>
        <time>2019-07-05T08:48:57Z</time>
      </trkpt>
      <trkpt lat="42.56017" lon="2.00149">
        <ele>2016</ele>
        <time>2019-07-05T08:49:01Z</time>
      </trkpt>
      <trkpt lat="42.56015" lon="2.00144">
        <ele>2016</ele>
        <time>2019-07-05T08:49:04Z</time>
      </trkpt>
      <trkpt lat="42.56009" lon="2.00099">
        <ele>2016</ele>
        <time>2019-07-05T08:49:31Z</time>
      </trkpt>
      <trkpt lat="42.56007" lon="2.00093">
        <ele>2016</ele>
        <time>2019-07-05T08:49:35Z</time>
      </trkpt>
      <trkpt lat="42.56007" lon="2.00087">
        <ele>2016</ele>
        <time>2019-07-05T08:49:39Z</time>
      </trkpt>
      <trkpt lat="42.56006" lon="2.00081">
        <ele>2016</ele>
        <time>2019-07-05T08:49:43Z</time>
      </trkpt>
      <trkpt lat="42.56005" lon="2.00075">
        <ele>2016</ele>
        <time>2019-07-05T08:49:47Z</time>
      </trkpt>
      <trkpt lat="42.56004" lon="2.00069">
        <ele>2016</ele>
        <time>2019-07-05T08:49:51Z</time>
      </trkpt>
      <trkpt lat="42.56002" lon="2.00057">
        <ele>2016</ele>
        <time>2019-07-05T08:49:59Z</time>
      </trkpt>
      <trkpt lat="42.56001" lon="2.00052">
        <ele>2016</ele>
        <time>2019-07-05T08:50:02Z</time>
      </trkpt>
      <trkpt lat="42.55996" lon="2.00023">
        <ele>2016</ele>
        <time>2019-07-05T08:50:21Z</time>
      </trkpt>
      <trkpt lat="42.55995" lon="2.00004">
        <ele>2016</ele>
        <time>2019-07-05T08:50:33Z</time>
      </trkpt>
      <trkpt lat="42.55991" lon="1.99993">
        <ele>2016</ele>
        <time>2019-07-05T08:50:40Z</time>
      </trkpt>
      <trkpt lat="42.5599" lon="1.99987">
        <ele>2016</ele>
        <time>2019-07-05T08:50:44Z</time>
      </trkpt>
      <trkpt lat="42.55987" lon="1.99975">
        <ele>2015</ele>
        <time>2019-07-05T08:50:52Z</time>
      </trkpt>
      <trkpt lat="42.55987" lon="1.99969">
        <ele>2015</ele>
        <time>2019-07-05T08:50:56Z</time>
      </trkpt>
      <trkpt lat="42.55985" lon="1.99962">
        <ele>2015</ele>
        <time>2019-07-05T08:51:00Z</time>
      </trkpt>
      <trkpt lat="42.55984" lon="1.99956">
        <ele>2015</ele>
        <time>2019-07-05T08:51:04Z</time>
      </trkpt>
      <trkpt lat="42.55984" lon="1.9995">
        <ele>2015</ele>
        <time>2019-07-05T08:51:07Z</time>
      </trkpt>
      <trkpt lat="42.55984" lon="1.99943">
        <ele>2015</ele>
        <time>2019-07-05T08:51:11Z</time>
      </trkpt>
      <trkpt lat="42.55982" lon="1.99937">
        <ele>2015</ele>
        <time>2019-07-05T08:51:15Z</time>
      </trkpt>
      <trkpt lat="42.55979" lon="1.99915">
        <ele>2015</ele>
        <time>2019-07-05T08:51:30Z</time>
      </trkpt>
      <trkpt lat="42.55978" lon="1.99909">
        <ele>2015</ele>
        <time>2019-07-05T08:51:34Z</time>
      </trkpt>
      <trkpt lat="42.55976" lon="1.99904">
        <ele>2015</ele>
        <time>2019-07-05T08:51:38Z</time>
      </trkpt>
      <trkpt lat="42.55972" lon="1.99903">
        <ele>2015</ele>
        <time>2019-07-05T08:51:42Z</time>
      </trkpt>
      <trkpt lat="42.55974" lon="1.99929">
        <ele>2014</ele>
        <time>2019-07-05T08:52:03Z</time>
      </trkpt>
      <trkpt lat="42.55971" lon="1.99939">
        <ele>2012</ele>
        <time>2019-07-05T08:52:13Z</time>
      </trkpt>
      <trkpt lat="42.55968" lon="1.99944">
        <ele>2012</ele>
        <time>2019-07-05T08:52:17Z</time>
      </trkpt>
      <trkpt lat="42.55964" lon="1.99944">
        <ele>2012</ele>
        <time>2019-07-05T08:52:21Z</time>
      </trkpt>
      <trkpt lat="42.55956" lon="1.99947">
        <ele>2012</ele>
        <time>2019-07-05T08:52:30Z</time>
      </trkpt>
      <trkpt lat="42.55952" lon="1.99957">
        <ele>2013</ele>
        <time>2019-07-05T08:54:47Z</time>
      </trkpt>
      <trkpt lat="42.55951" lon="1.99966">
        <ele>2013</ele>
        <time>2019-07-05T08:54:53Z</time>
      </trkpt>
      <trkpt lat="42.55953" lon="1.99963">
        <ele>2013</ele>
        <time>2019-07-05T08:55:20Z</time>
      </trkpt>
      <trkpt lat="42.55959" lon="1.9996">
        <ele>2013</ele>
        <time>2019-07-05T08:55:23Z</time>
      </trkpt>
      <trkpt lat="42.55958" lon="1.99955">
        <ele>2013</ele>
        <time>2019-07-05T08:55:49Z</time>
      </trkpt>
      <trkpt lat="42.55964" lon="1.99956">
        <ele>2013</ele>
        <time>2019-07-05T08:55:56Z</time>
      </trkpt>
      <trkpt lat="42.55969" lon="1.99949">
        <ele>2013</ele>
        <time>2019-07-05T08:56:06Z</time>
      </trkpt>
      <trkpt lat="42.5597" lon="1.99944">
        <ele>2014</ele>
        <time>2019-07-05T08:56:14Z</time>
      </trkpt>
      <trkpt lat="42.55964" lon="1.99927">
        <ele>2015</ele>
        <time>2019-07-05T08:56:25Z</time>
      </trkpt>
      <trkpt lat="42.55964" lon="1.99922">
        <ele>2016</ele>
        <time>2019-07-05T08:56:30Z</time>
      </trkpt>
      <trkpt lat="42.55968" lon="1.99919">
        <ele>2016</ele>
        <time>2019-07-05T08:57:07Z</time>
      </trkpt>
      <trkpt lat="42.55971" lon="1.99912">
        <ele>2017</ele>
        <time>2019-07-05T08:57:14Z</time>
      </trkpt>
      <trkpt lat="42.55972" lon="1.99902">
        <ele>2018</ele>
        <time>2019-07-05T08:57:21Z</time>
      </trkpt>
      <trkpt lat="42.55972" lon="1.99893">
        <ele>2018</ele>
        <time>2019-07-05T08:57:27Z</time>
      </trkpt>
      <trkpt lat="42.55974" lon="1.99889">
        <ele>2019</ele>
        <time>2019-07-05T08:57:31Z</time>
      </trkpt>
      <trkpt lat="42.55973" lon="1.99884">
        <ele>2020</ele>
        <time>2019-07-05T08:57:38Z</time>
      </trkpt>
      <trkpt lat="42.55974" lon="1.99878">
        <ele>2020</ele>
        <time>2019-07-05T08:57:47Z</time>
      </trkpt>
      <trkpt lat="42.55975" lon="1.99872">
        <ele>2020</ele>
        <time>2019-07-05T08:57:52Z</time>
      </trkpt>
      <trkpt lat="42.55977" lon="1.99867">
        <ele>2021</ele>
        <time>2019-07-05T08:57:55Z</time>
      </trkpt>
      <trkpt lat="42.55981" lon="1.99864">
        <ele>2021</ele>
        <time>2019-07-05T08:58:02Z</time>
      </trkpt>
      <trkpt lat="42.55986" lon="1.99859">
        <ele>2021</ele>
        <time>2019-07-05T08:58:12Z</time>
      </trkpt>
      <trkpt lat="42.55991" lon="1.99858">
        <ele>2021</ele>
        <time>2019-07-05T08:58:16Z</time>
      </trkpt>
      <trkpt lat="42.55995" lon="1.99857">
        <ele>2021</ele>
        <time>2019-07-05T08:58:19Z</time>
      </trkpt>
      <trkpt lat="42.56" lon="1.99852">
        <ele>2021</ele>
        <time>2019-07-05T08:58:25Z</time>
      </trkpt>
      <trkpt lat="42.56004" lon="1.99851">
        <ele>2021</ele>
        <time>2019-07-05T08:58:29Z</time>
      </trkpt>
      <trkpt lat="42.56008" lon="1.99848">
        <ele>2021</ele>
        <time>2019-07-05T08:58:34Z</time>
      </trkpt>
      <trkpt lat="42.56019" lon="1.99832">
        <ele>2020</ele>
        <time>2019-07-05T08:58:48Z</time>
      </trkpt>
      <trkpt lat="42.56022" lon="1.99822">
        <ele>2021</ele>
        <time>2019-07-05T08:58:54Z</time>
      </trkpt>
      <trkpt lat="42.56027" lon="1.99813">
        <ele>2021</ele>
        <time>2019-07-05T08:59:01Z</time>
      </trkpt>
      <trkpt lat="42.56029" lon="1.99808">
        <ele>2021</ele>
        <time>2019-07-05T08:59:05Z</time>
      </trkpt>
      <trkpt lat="42.5604" lon="1.99799">
        <ele>2022</ele>
        <time>2019-07-05T08:59:16Z</time>
      </trkpt>
      <trkpt lat="42.5604" lon="1.99791">
        <ele>2023</ele>
        <time>2019-07-05T08:59:22Z</time>
      </trkpt>
      <trkpt lat="42.56036" lon="1.99781">
        <ele>2023</ele>
        <time>2019-07-05T08:59:28Z</time>
      </trkpt>
      <trkpt lat="42.56036" lon="1.99773">
        <ele>2023</ele>
        <time>2019-07-05T08:59:36Z</time>
      </trkpt>
      <trkpt lat="42.56036" lon="1.99763">
        <ele>2023</ele>
        <time>2019-07-05T08:59:44Z</time>
      </trkpt>
      <trkpt lat="42.56035" lon="1.99759">
        <ele>2024</ele>
        <time>2019-07-05T08:59:48Z</time>
      </trkpt>
      <trkpt lat="42.56033" lon="1.99754">
        <ele>2025</ele>
        <time>2019-07-05T08:59:51Z</time>
      </trkpt>
      <trkpt lat="42.5603" lon="1.99752">
        <ele>2025</ele>
        <time>2019-07-05T08:59:55Z</time>
      </trkpt>
      <trkpt lat="42.56022" lon="1.99745">
        <ele>2025</ele>
        <time>2019-07-05T09:00:02Z</time>
      </trkpt>
      <trkpt lat="42.56008" lon="1.99741">
        <ele>2026</ele>
        <time>2019-07-05T09:00:15Z</time>
      </trkpt>
      <trkpt lat="42.55987" lon="1.99739">
        <ele>2028</ele>
        <time>2019-07-05T09:00:35Z</time>
      </trkpt>
      <trkpt lat="42.55983" lon="1.99735">
        <ele>2028</ele>
        <time>2019-07-05T09:00:39Z</time>
      </trkpt>
      <trkpt lat="42.55981" lon="1.99731">
        <ele>2028</ele>
        <time>2019-07-05T09:00:42Z</time>
      </trkpt>
      <trkpt lat="42.5598" lon="1.99725">
        <ele>2029</ele>
        <time>2019-07-05T09:00:46Z</time>
      </trkpt>
      <trkpt lat="42.5598" lon="1.99719">
        <ele>2029</ele>
        <time>2019-07-05T09:00:50Z</time>
      </trkpt>
      <trkpt lat="42.55978" lon="1.99708">
        <ele>2029</ele>
        <time>2019-07-05T09:00:56Z</time>
      </trkpt>
      <trkpt lat="42.55969" lon="1.99685">
        <ele>2028</ele>
        <time>2019-07-05T09:01:11Z</time>
      </trkpt>
      <trkpt lat="42.5597" lon="1.99679">
        <ele>2029</ele>
        <time>2019-07-05T09:01:15Z</time>
      </trkpt>
      <trkpt lat="42.5598" lon="1.9966">
        <ele>2029</ele>
        <time>2019-07-05T09:01:27Z</time>
      </trkpt>
      <trkpt lat="42.55987" lon="1.99646">
        <ele>2030</ele>
        <time>2019-07-05T09:01:39Z</time>
      </trkpt>
      <trkpt lat="42.55988" lon="1.99641">
        <ele>2030</ele>
        <time>2019-07-05T09:01:43Z</time>
      </trkpt>
      <trkpt lat="42.55993" lon="1.99631">
        <ele>2030</ele>
        <time>2019-07-05T09:01:51Z</time>
      </trkpt>
      <trkpt lat="42.55995" lon="1.99609">
        <ele>2032</ele>
        <time>2019-07-05T09:02:22Z</time>
      </trkpt>
      <trkpt lat="42.55998" lon="1.99615">
        <ele>2033</ele>
        <time>2019-07-05T09:02:37Z</time>
      </trkpt>
      <trkpt lat="42.55999" lon="1.99593">
        <ele>2034</ele>
        <time>2019-07-05T09:02:54Z</time>
      </trkpt>
      <trkpt lat="42.56005" lon="1.99576">
        <ele>2036</ele>
        <time>2019-07-05T09:03:14Z</time>
      </trkpt>
      <trkpt lat="42.56006" lon="1.99561">
        <ele>2038</ele>
        <time>2019-07-05T09:03:26Z</time>
      </trkpt>
      <trkpt lat="42.56006" lon="1.99549">
        <ele>2038</ele>
        <time>2019-07-05T09:03:35Z</time>
      </trkpt>
      <trkpt lat="42.56009" lon="1.99539">
        <ele>2039</ele>
        <time>2019-07-05T09:03:44Z</time>
      </trkpt>
      <trkpt lat="42.56015" lon="1.99532">
        <ele>2040</ele>
        <time>2019-07-05T09:03:53Z</time>
      </trkpt>
      <trkpt lat="42.5602" lon="1.9951">
        <ele>2043</ele>
        <time>2019-07-05T09:04:16Z</time>
      </trkpt>
      <trkpt lat="42.56027" lon="1.99495">
        <ele>2046</ele>
        <time>2019-07-05T09:04:41Z</time>
      </trkpt>
      <trkpt lat="42.56029" lon="1.99484">
        <ele>2048</ele>
        <time>2019-07-05T09:04:52Z</time>
      </trkpt>
      <trkpt lat="42.56028" lon="1.99477">
        <ele>2048</ele>
        <time>2019-07-05T09:04:57Z</time>
      </trkpt>
      <trkpt lat="42.56025" lon="1.99468">
        <ele>2048</ele>
        <time>2019-07-05T09:05:05Z</time>
      </trkpt>
      <trkpt lat="42.56029" lon="1.99457">
        <ele>2052</ele>
        <time>2019-07-05T09:05:36Z</time>
      </trkpt>
      <trkpt lat="42.56026" lon="1.99449">
        <ele>2054</ele>
        <time>2019-07-05T09:05:51Z</time>
      </trkpt>
      <trkpt lat="42.56032" lon="1.99442">
        <ele>2056</ele>
        <time>2019-07-05T09:06:06Z</time>
      </trkpt>
      <trkpt lat="42.56031" lon="1.99434">
        <ele>2058</ele>
        <time>2019-07-05T09:06:26Z</time>
      </trkpt>
      <trkpt lat="42.56027" lon="1.99424">
        <ele>2060</ele>
        <time>2019-07-05T09:06:38Z</time>
      </trkpt>
      <trkpt lat="42.56019" lon="1.99418">
        <ele>2061</ele>
        <time>2019-07-05T09:06:53Z</time>
      </trkpt>
      <trkpt lat="42.56015" lon="1.99413">
        <ele>2062</ele>
        <time>2019-07-05T09:07:08Z</time>
      </trkpt>
      <trkpt lat="42.56011" lon="1.99407">
        <ele>2063</ele>
        <time>2019-07-05T09:07:28Z</time>
      </trkpt>
      <trkpt lat="42.56008" lon="1.99401">
        <ele>2065</ele>
        <time>2019-07-05T09:07:48Z</time>
      </trkpt>
      <trkpt lat="42.56007" lon="1.99392">
        <ele>2065</ele>
        <time>2019-07-05T09:08:03Z</time>
      </trkpt>
      <trkpt lat="42.56009" lon="1.99364">
        <ele>2071</ele>
        <time>2019-07-05T09:08:48Z</time>
      </trkpt>
      <trkpt lat="42.56008" lon="1.99354">
        <ele>2070</ele>
        <time>2019-07-05T09:08:58Z</time>
      </trkpt>
      <trkpt lat="42.56002" lon="1.9933">
        <ele>2068</ele>
        <time>2019-07-05T09:09:25Z</time>
      </trkpt>
      <trkpt lat="42.56" lon="1.99315">
        <ele>2069</ele>
        <time>2019-07-05T09:09:52Z</time>
      </trkpt>
      <trkpt lat="42.55997" lon="1.99307">
        <ele>2069</ele>
        <time>2019-07-05T09:10:04Z</time>
      </trkpt>
      <trkpt lat="42.55996" lon="1.99298">
        <ele>2069</ele>
        <time>2019-07-05T09:10:10Z</time>
      </trkpt>
      <trkpt lat="42.55997" lon="1.99288">
        <ele>2069</ele>
        <time>2019-07-05T09:10:18Z</time>
      </trkpt>
      <trkpt lat="42.55992" lon="1.99267">
        <ele>2068</ele>
        <time>2019-07-05T09:10:37Z</time>
      </trkpt>
      <trkpt lat="42.55988" lon="1.99258">
        <ele>2068</ele>
        <time>2019-07-05T09:10:56Z</time>
      </trkpt>
      <trkpt lat="42.5599" lon="1.99248">
        <ele>2069</ele>
        <time>2019-07-05T09:11:12Z</time>
      </trkpt>
      <trkpt lat="42.55992" lon="1.99238">
        <ele>2069</ele>
        <time>2019-07-05T09:11:22Z</time>
      </trkpt>
      <trkpt lat="42.55998" lon="1.99198">
        <ele>2068</ele>
        <time>2019-07-05T09:11:55Z</time>
      </trkpt>
      <trkpt lat="42.56001" lon="1.99185">
        <ele>2068</ele>
        <time>2019-07-05T09:12:05Z</time>
      </trkpt>
      <trkpt lat="42.56008" lon="1.99171">
        <ele>2068</ele>
        <time>2019-07-05T09:12:17Z</time>
      </trkpt>
      <trkpt lat="42.56008" lon="1.99158">
        <ele>2070</ele>
        <time>2019-07-05T09:13:17Z</time>
      </trkpt>
      <trkpt lat="42.56017" lon="1.99136">
        <ele>2072</ele>
        <time>2019-07-05T09:13:44Z</time>
      </trkpt>
      <trkpt lat="42.56018" lon="1.99118">
        <ele>2076</ele>
        <time>2019-07-05T09:14:04Z</time>
      </trkpt>
      <trkpt lat="42.56017" lon="1.99109">
        <ele>2077</ele>
        <time>2019-07-05T09:14:11Z</time>
      </trkpt>
      <trkpt lat="42.56015" lon="1.991">
        <ele>2078</ele>
        <time>2019-07-05T09:14:21Z</time>
      </trkpt>
      <trkpt lat="42.5602" lon="1.99087">
        <ele>2082</ele>
        <time>2019-07-05T09:14:41Z</time>
      </trkpt>
      <trkpt lat="42.56024" lon="1.99079">
        <ele>2082</ele>
        <time>2019-07-05T09:14:51Z</time>
      </trkpt>
      <trkpt lat="42.56023" lon="1.9907">
        <ele>2081</ele>
        <time>2019-07-05T09:14:57Z</time>
      </trkpt>
      <trkpt lat="42.56027" lon="1.99063">
        <ele>2081</ele>
        <time>2019-07-05T09:15:09Z</time>
      </trkpt>
      <trkpt lat="42.56037" lon="1.9906">
        <ele>2081</ele>
        <time>2019-07-05T09:15:20Z</time>
      </trkpt>
      <trkpt lat="42.56046" lon="1.99047">
        <ele>2081</ele>
        <time>2019-07-05T09:15:34Z</time>
      </trkpt>
      <trkpt lat="42.56051" lon="1.99029">
        <ele>2083</ele>
        <time>2019-07-05T09:15:47Z</time>
      </trkpt>
      <trkpt lat="42.56061" lon="1.99028">
        <ele>2083</ele>
        <time>2019-07-05T09:15:57Z</time>
      </trkpt>
      <trkpt lat="42.56069" lon="1.99021">
        <ele>2084</ele>
        <time>2019-07-05T09:16:04Z</time>
      </trkpt>
      <trkpt lat="42.56075" lon="1.99015">
        <ele>2084</ele>
        <time>2019-07-05T09:16:09Z</time>
      </trkpt>
      <trkpt lat="42.56085" lon="1.99008">
        <ele>2084</ele>
        <time>2019-07-05T09:16:22Z</time>
      </trkpt>
      <trkpt lat="42.56085" lon="1.98995">
        <ele>2085</ele>
        <time>2019-07-05T09:16:31Z</time>
      </trkpt>
      <trkpt lat="42.56087" lon="1.98985">
        <ele>2085</ele>
        <time>2019-07-05T09:16:37Z</time>
      </trkpt>
      <trkpt lat="42.56093" lon="1.98978">
        <ele>2085</ele>
        <time>2019-07-05T09:16:45Z</time>
      </trkpt>
      <trkpt lat="42.56096" lon="1.98964">
        <ele>2086</ele>
        <time>2019-07-05T09:16:58Z</time>
      </trkpt>
      <trkpt lat="42.56095" lon="1.98952">
        <ele>2086</ele>
        <time>2019-07-05T09:17:10Z</time>
      </trkpt>
      <trkpt lat="42.56101" lon="1.98941">
        <ele>2087</ele>
        <time>2019-07-05T09:17:30Z</time>
      </trkpt>
      <trkpt lat="42.56109" lon="1.98939">
        <ele>2089</ele>
        <time>2019-07-05T09:17:43Z</time>
      </trkpt>
      <trkpt lat="42.56125" lon="1.9892">
        <ele>2091</ele>
        <time>2019-07-05T09:18:02Z</time>
      </trkpt>
      <trkpt lat="42.5613" lon="1.98904">
        <ele>2091</ele>
        <time>2019-07-05T09:18:18Z</time>
      </trkpt>
      <trkpt lat="42.5614" lon="1.98902">
        <ele>2091</ele>
        <time>2019-07-05T09:18:26Z</time>
      </trkpt>
      <trkpt lat="42.56148" lon="1.98897">
        <ele>2092</ele>
        <time>2019-07-05T09:18:35Z</time>
      </trkpt>
      <trkpt lat="42.56153" lon="1.98888">
        <ele>2092</ele>
        <time>2019-07-05T09:18:44Z</time>
      </trkpt>
      <trkpt lat="42.56154" lon="1.98876">
        <ele>2093</ele>
        <time>2019-07-05T09:18:57Z</time>
      </trkpt>
      <trkpt lat="42.56156" lon="1.98867">
        <ele>2095</ele>
        <time>2019-07-05T09:19:18Z</time>
      </trkpt>
      <trkpt lat="42.56164" lon="1.98857">
        <ele>2098</ele>
        <time>2019-07-05T09:19:34Z</time>
      </trkpt>
      <trkpt lat="42.56169" lon="1.98848">
        <ele>2101</ele>
        <time>2019-07-05T09:19:54Z</time>
      </trkpt>
      <trkpt lat="42.56174" lon="1.98841">
        <ele>2103</ele>
        <time>2019-07-05T09:20:14Z</time>
      </trkpt>
      <trkpt lat="42.56181" lon="1.98841">
        <ele>2104</ele>
        <time>2019-07-05T09:20:25Z</time>
      </trkpt>
      <trkpt lat="42.56185" lon="1.98838">
        <ele>2104</ele>
        <time>2019-07-05T09:20:30Z</time>
      </trkpt>
      <trkpt lat="42.56187" lon="1.98828">
        <ele>2104</ele>
        <time>2019-07-05T09:20:42Z</time>
      </trkpt>
      <trkpt lat="42.5619" lon="1.98822">
        <ele>2104</ele>
        <time>2019-07-05T09:20:58Z</time>
      </trkpt>
      <trkpt lat="42.56189" lon="1.98815">
        <ele>2105</ele>
        <time>2019-07-05T09:21:56Z</time>
      </trkpt>
      <trkpt lat="42.56198" lon="1.98816">
        <ele>2106</ele>
        <time>2019-07-05T09:22:03Z</time>
      </trkpt>
      <trkpt lat="42.56202" lon="1.98817">
        <ele>2106</ele>
        <time>2019-07-05T09:22:10Z</time>
      </trkpt>
      <trkpt lat="42.5621" lon="1.98813">
        <ele>2105</ele>
        <time>2019-07-05T09:22:24Z</time>
      </trkpt>
      <trkpt lat="42.56216" lon="1.98806">
        <ele>2106</ele>
        <time>2019-07-05T09:22:36Z</time>
      </trkpt>
      <trkpt lat="42.56222" lon="1.98801">
        <ele>2105</ele>
        <time>2019-07-05T09:22:43Z</time>
      </trkpt>
      <trkpt lat="42.56226" lon="1.98796">
        <ele>2105</ele>
        <time>2019-07-05T09:22:49Z</time>
      </trkpt>
      <trkpt lat="42.56235" lon="1.9879">
        <ele>2105</ele>
        <time>2019-07-05T09:23:00Z</time>
      </trkpt>
      <trkpt lat="42.56241" lon="1.98786">
        <ele>2107</ele>
        <time>2019-07-05T09:23:10Z</time>
      </trkpt>
      <trkpt lat="42.56245" lon="1.98779">
        <ele>2107</ele>
        <time>2019-07-05T09:23:16Z</time>
      </trkpt>
      <trkpt lat="42.56251" lon="1.9878">
        <ele>2107</ele>
        <time>2019-07-05T09:23:24Z</time>
      </trkpt>
      <trkpt lat="42.56258" lon="1.98776">
        <ele>2107</ele>
        <time>2019-07-05T09:23:46Z</time>
      </trkpt>
      <trkpt lat="42.56257" lon="1.98769">
        <ele>2108</ele>
        <time>2019-07-05T09:23:56Z</time>
      </trkpt>
      <trkpt lat="42.56255" lon="1.98758">
        <ele>2110</ele>
        <time>2019-07-05T09:24:12Z</time>
      </trkpt>
      <trkpt lat="42.56262" lon="1.98755">
        <ele>2112</ele>
        <time>2019-07-05T09:24:24Z</time>
      </trkpt>
      <trkpt lat="42.56262" lon="1.98748">
        <ele>2112</ele>
        <time>2019-07-05T09:24:30Z</time>
      </trkpt>
      <trkpt lat="42.56261" lon="1.9874">
        <ele>2114</ele>
        <time>2019-07-05T09:24:42Z</time>
      </trkpt>
      <trkpt lat="42.56267" lon="1.98738">
        <ele>2115</ele>
        <time>2019-07-05T09:24:53Z</time>
      </trkpt>
      <trkpt lat="42.56274" lon="1.98736">
        <ele>2116</ele>
        <time>2019-07-05T09:25:04Z</time>
      </trkpt>
      <trkpt lat="42.56272" lon="1.98724">
        <ele>2118</ele>
        <time>2019-07-05T09:25:14Z</time>
      </trkpt>
      <trkpt lat="42.56277" lon="1.9872">
        <ele>2118</ele>
        <time>2019-07-05T09:25:20Z</time>
      </trkpt>
      <trkpt lat="42.56297" lon="1.98725">
        <ele>2119</ele>
        <time>2019-07-05T09:25:34Z</time>
      </trkpt>
      <trkpt lat="42.56302" lon="1.98725">
        <ele>2119</ele>
        <time>2019-07-05T09:25:38Z</time>
      </trkpt>
      <trkpt lat="42.56307" lon="1.98722">
        <ele>2119</ele>
        <time>2019-07-05T09:25:42Z</time>
      </trkpt>
      <trkpt lat="42.56311" lon="1.98718">
        <ele>2119</ele>
        <time>2019-07-05T09:25:47Z</time>
      </trkpt>
      <trkpt lat="42.56316" lon="1.9871">
        <ele>2119</ele>
        <time>2019-07-05T09:25:57Z</time>
      </trkpt>
      <trkpt lat="42.56319" lon="1.98704">
        <ele>2120</ele>
        <time>2019-07-05T09:26:07Z</time>
      </trkpt>
      <trkpt lat="42.56326" lon="1.98698">
        <ele>2121</ele>
        <time>2019-07-05T09:26:27Z</time>
      </trkpt>
      <trkpt lat="42.56321" lon="1.98693">
        <ele>2121</ele>
        <time>2019-07-05T09:26:32Z</time>
      </trkpt>
      <trkpt lat="42.56326" lon="1.98686">
        <ele>2123</ele>
        <time>2019-07-05T09:26:44Z</time>
      </trkpt>
      <trkpt lat="42.5633" lon="1.98681">
        <ele>2123</ele>
        <time>2019-07-05T09:26:50Z</time>
      </trkpt>
      <trkpt lat="42.56329" lon="1.9867">
        <ele>2125</ele>
        <time>2019-07-05T09:27:04Z</time>
      </trkpt>
      <trkpt lat="42.56335" lon="1.98668">
        <ele>2126</ele>
        <time>2019-07-05T09:27:15Z</time>
      </trkpt>
      <trkpt lat="42.56337" lon="1.98662">
        <ele>2127</ele>
        <time>2019-07-05T09:27:25Z</time>
      </trkpt>
      <trkpt lat="42.56334" lon="1.98651">
        <ele>2128</ele>
        <time>2019-07-05T09:27:36Z</time>
      </trkpt>
      <trkpt lat="42.56336" lon="1.98645">
        <ele>2129</ele>
        <time>2019-07-05T09:27:42Z</time>
      </trkpt>
      <trkpt lat="42.5634" lon="1.98639">
        <ele>2130</ele>
        <time>2019-07-05T09:27:57Z</time>
      </trkpt>
      <trkpt lat="42.56348" lon="1.98633">
        <ele>2130</ele>
        <time>2019-07-05T09:28:14Z</time>
      </trkpt>
      <trkpt lat="42.5636" lon="1.98618">
        <ele>2133</ele>
        <time>2019-07-05T09:28:35Z</time>
      </trkpt>
      <trkpt lat="42.56369" lon="1.98612">
        <ele>2134</ele>
        <time>2019-07-05T09:28:46Z</time>
      </trkpt>
      <trkpt lat="42.56374" lon="1.98605">
        <ele>2136</ele>
        <time>2019-07-05T09:29:04Z</time>
      </trkpt>
      <trkpt lat="42.5638" lon="1.98602">
        <ele>2137</ele>
        <time>2019-07-05T09:29:14Z</time>
      </trkpt>
      <trkpt lat="42.56385" lon="1.98602">
        <ele>2137</ele>
        <time>2019-07-05T09:29:20Z</time>
      </trkpt>
      <trkpt lat="42.56391" lon="1.98596">
        <ele>2137</ele>
        <time>2019-07-05T09:29:30Z</time>
      </trkpt>
      <trkpt lat="42.56394" lon="1.9859">
        <ele>2138</ele>
        <time>2019-07-05T09:29:43Z</time>
      </trkpt>
      <trkpt lat="42.56397" lon="1.98589">
        <ele>2138</ele>
        <time>2019-07-05T09:30:44Z</time>
      </trkpt>
      <trkpt lat="42.56405" lon="1.98587">
        <ele>2138</ele>
        <time>2019-07-05T09:30:50Z</time>
      </trkpt>
      <trkpt lat="42.56411" lon="1.98585">
        <ele>2139</ele>
        <time>2019-07-05T09:30:55Z</time>
      </trkpt>
      <trkpt lat="42.56415" lon="1.9858">
        <ele>2139</ele>
        <time>2019-07-05T09:31:41Z</time>
      </trkpt>
      <trkpt lat="42.56419" lon="1.98574">
        <ele>2139</ele>
        <time>2019-07-05T09:31:46Z</time>
      </trkpt>
      <trkpt lat="42.56433" lon="1.98566">
        <ele>2140</ele>
        <time>2019-07-05T09:32:00Z</time>
      </trkpt>
      <trkpt lat="42.56438" lon="1.98558">
        <ele>2141</ele>
        <time>2019-07-05T09:32:12Z</time>
      </trkpt>
      <trkpt lat="42.56435" lon="1.9855">
        <ele>2142</ele>
        <time>2019-07-05T09:32:19Z</time>
      </trkpt>
      <trkpt lat="42.56433" lon="1.98542">
        <ele>2143</ele>
        <time>2019-07-05T09:32:23Z</time>
      </trkpt>
      <trkpt lat="42.56435" lon="1.98527">
        <ele>2144</ele>
        <time>2019-07-05T09:32:39Z</time>
      </trkpt>
      <trkpt lat="42.56435" lon="1.98518">
        <ele>2145</ele>
        <time>2019-07-05T09:32:45Z</time>
      </trkpt>
      <trkpt lat="42.56441" lon="1.9852">
        <ele>2145</ele>
        <time>2019-07-05T09:33:01Z</time>
      </trkpt>
      <trkpt lat="42.56447" lon="1.98513">
        <ele>2146</ele>
        <time>2019-07-05T09:33:26Z</time>
      </trkpt>
      <trkpt lat="42.5645" lon="1.98505">
        <ele>2146</ele>
        <time>2019-07-05T09:33:32Z</time>
      </trkpt>
      <trkpt lat="42.56456" lon="1.98502">
        <ele>2146</ele>
        <time>2019-07-05T09:33:37Z</time>
      </trkpt>
      <trkpt lat="42.56462" lon="1.98501">
        <ele>2145</ele>
        <time>2019-07-05T09:33:42Z</time>
      </trkpt>
      <trkpt lat="42.56469" lon="1.98499">
        <ele>2146</ele>
        <time>2019-07-05T09:33:50Z</time>
      </trkpt>
      <trkpt lat="42.56475" lon="1.98494">
        <ele>2145</ele>
        <time>2019-07-05T09:34:07Z</time>
      </trkpt>
      <trkpt lat="42.56484" lon="1.98489">
        <ele>2145</ele>
        <time>2019-07-05T09:34:19Z</time>
      </trkpt>
      <trkpt lat="42.56484" lon="1.98484">
        <ele>2146</ele>
        <time>2019-07-05T09:35:57Z</time>
      </trkpt>
      <trkpt lat="42.56481" lon="1.98475">
        <ele>2146</ele>
        <time>2019-07-05T09:36:17Z</time>
      </trkpt>
      <trkpt lat="42.56499" lon="1.98483">
        <ele>2147</ele>
        <time>2019-07-05T09:39:14Z</time>
      </trkpt>
      <trkpt lat="42.56489" lon="1.98485">
        <ele>2148</ele>
        <time>2019-07-05T09:39:22Z</time>
      </trkpt>
      <trkpt lat="42.56473" lon="1.98478">
        <ele>2149</ele>
        <time>2019-07-05T09:39:36Z</time>
      </trkpt>
      <trkpt lat="42.56468" lon="1.98485">
        <ele>2149</ele>
        <time>2019-07-05T09:39:40Z</time>
      </trkpt>
      <trkpt lat="42.56458" lon="1.98491">
        <ele>2148</ele>
        <time>2019-07-05T09:39:49Z</time>
      </trkpt>
      <trkpt lat="42.56454" lon="1.98497">
        <ele>2149</ele>
        <time>2019-07-05T09:39:55Z</time>
      </trkpt>
      <trkpt lat="42.56451" lon="1.98506">
        <ele>2149</ele>
        <time>2019-07-05T09:40:07Z</time>
      </trkpt>
      <trkpt lat="42.56442" lon="1.98514">
        <ele>2149</ele>
        <time>2019-07-05T09:40:17Z</time>
      </trkpt>
      <trkpt lat="42.56436" lon="1.98518">
        <ele>2149</ele>
        <time>2019-07-05T09:40:22Z</time>
      </trkpt>
      <trkpt lat="42.56433" lon="1.9851">
        <ele>2150</ele>
        <time>2019-07-05T09:40:32Z</time>
      </trkpt>
      <trkpt lat="42.56432" lon="1.98503">
        <ele>2150</ele>
        <time>2019-07-05T09:40:38Z</time>
      </trkpt>
      <trkpt lat="42.56434" lon="1.98494">
        <ele>2150</ele>
        <time>2019-07-05T09:40:45Z</time>
      </trkpt>
      <trkpt lat="42.56426" lon="1.98485">
        <ele>2151</ele>
        <time>2019-07-05T09:40:58Z</time>
      </trkpt>
      <trkpt lat="42.56423" lon="1.98478">
        <ele>2151</ele>
        <time>2019-07-05T09:41:04Z</time>
      </trkpt>
      <trkpt lat="42.56421" lon="1.9847">
        <ele>2151</ele>
        <time>2019-07-05T09:41:09Z</time>
      </trkpt>
      <trkpt lat="42.56422" lon="1.98454">
        <ele>2151</ele>
        <time>2019-07-05T09:41:17Z</time>
      </trkpt>
      <trkpt lat="42.56417" lon="1.98428">
        <ele>2152</ele>
        <time>2019-07-05T09:41:39Z</time>
      </trkpt>
      <trkpt lat="42.56415" lon="1.98418">
        <ele>2152</ele>
        <time>2019-07-05T09:42:04Z</time>
      </trkpt>
      <trkpt lat="42.56417" lon="1.98408">
        <ele>2153</ele>
        <time>2019-07-05T09:42:14Z</time>
      </trkpt>
      <trkpt lat="42.56416" lon="1.98399">
        <ele>2153</ele>
        <time>2019-07-05T09:42:20Z</time>
      </trkpt>
      <trkpt lat="42.56417" lon="1.98392">
        <ele>2153</ele>
        <time>2019-07-05T09:42:24Z</time>
      </trkpt>
      <trkpt lat="42.56419" lon="1.98384">
        <ele>2153</ele>
        <time>2019-07-05T09:42:29Z</time>
      </trkpt>
      <trkpt lat="42.5642" lon="1.98377">
        <ele>2153</ele>
        <time>2019-07-05T09:42:33Z</time>
      </trkpt>
      <trkpt lat="42.56418" lon="1.9836">
        <ele>2153</ele>
        <time>2019-07-05T09:42:43Z</time>
      </trkpt>
      <trkpt lat="42.5642" lon="1.98345">
        <ele>2154</ele>
        <time>2019-07-05T09:42:52Z</time>
      </trkpt>
      <trkpt lat="42.56425" lon="1.98336">
        <ele>2154</ele>
        <time>2019-07-05T09:42:59Z</time>
      </trkpt>
      <trkpt lat="42.56429" lon="1.98332">
        <ele>2155</ele>
        <time>2019-07-05T09:43:03Z</time>
      </trkpt>
      <trkpt lat="42.56432" lon="1.98325">
        <ele>2154</ele>
        <time>2019-07-05T09:43:08Z</time>
      </trkpt>
      <trkpt lat="42.56439" lon="1.98321">
        <ele>2155</ele>
        <time>2019-07-05T09:43:14Z</time>
      </trkpt>
      <trkpt lat="42.56444" lon="1.98317">
        <ele>2154</ele>
        <time>2019-07-05T09:43:20Z</time>
      </trkpt>
      <trkpt lat="42.56449" lon="1.98309">
        <ele>2154</ele>
        <time>2019-07-05T09:43:29Z</time>
      </trkpt>
      <trkpt lat="42.56451" lon="1.98293">
        <ele>2155</ele>
        <time>2019-07-05T09:43:42Z</time>
      </trkpt>
      <trkpt lat="42.5646" lon="1.98295">
        <ele>2156</ele>
        <time>2019-07-05T09:43:51Z</time>
      </trkpt>
      <trkpt lat="42.56466" lon="1.98294">
        <ele>2156</ele>
        <time>2019-07-05T09:43:55Z</time>
      </trkpt>
      <trkpt lat="42.56472" lon="1.98291">
        <ele>2155</ele>
        <time>2019-07-05T09:43:59Z</time>
      </trkpt>
      <trkpt lat="42.56474" lon="1.98283">
        <ele>2155</ele>
        <time>2019-07-05T09:44:04Z</time>
      </trkpt>
      <trkpt lat="42.56478" lon="1.98277">
        <ele>2156</ele>
        <time>2019-07-05T09:44:10Z</time>
      </trkpt>
      <trkpt lat="42.56484" lon="1.98277">
        <ele>2156</ele>
        <time>2019-07-05T09:44:16Z</time>
      </trkpt>
      <trkpt lat="42.56493" lon="1.98272">
        <ele>2156</ele>
        <time>2019-07-05T09:44:24Z</time>
      </trkpt>
      <trkpt lat="42.56494" lon="1.98265">
        <ele>2156</ele>
        <time>2019-07-05T09:44:32Z</time>
      </trkpt>
      <trkpt lat="42.56497" lon="1.98256">
        <ele>2157</ele>
        <time>2019-07-05T09:44:47Z</time>
      </trkpt>
      <trkpt lat="42.56502" lon="1.98249">
        <ele>2159</ele>
        <time>2019-07-05T09:45:02Z</time>
      </trkpt>
      <trkpt lat="42.56508" lon="1.98244">
        <ele>2160</ele>
        <time>2019-07-05T09:45:13Z</time>
      </trkpt>
      <trkpt lat="42.56517" lon="1.98244">
        <ele>2160</ele>
        <time>2019-07-05T09:45:35Z</time>
      </trkpt>
      <trkpt lat="42.56522" lon="1.9824">
        <ele>2160</ele>
        <time>2019-07-05T09:45:40Z</time>
      </trkpt>
      <trkpt lat="42.56527" lon="1.98229">
        <ele>2160</ele>
        <time>2019-07-05T09:46:05Z</time>
      </trkpt>
      <trkpt lat="42.56529" lon="1.98221">
        <ele>2162</ele>
        <time>2019-07-05T09:46:16Z</time>
      </trkpt>
      <trkpt lat="42.56541" lon="1.9821">
        <ele>2163</ele>
        <time>2019-07-05T09:46:33Z</time>
      </trkpt>
      <trkpt lat="42.56545" lon="1.98204">
        <ele>2163</ele>
        <time>2019-07-05T09:46:39Z</time>
      </trkpt>
      <trkpt lat="42.56547" lon="1.98197">
        <ele>2164</ele>
        <time>2019-07-05T09:46:46Z</time>
      </trkpt>
      <trkpt lat="42.56547" lon="1.9818">
        <ele>2167</ele>
        <time>2019-07-05T09:47:04Z</time>
      </trkpt>
      <trkpt lat="42.56545" lon="1.98171">
        <ele>2167</ele>
        <time>2019-07-05T09:47:14Z</time>
      </trkpt>
      <trkpt lat="42.56539" lon="1.98164">
        <ele>2167</ele>
        <time>2019-07-05T09:47:19Z</time>
      </trkpt>
      <trkpt lat="42.56536" lon="1.98155">
        <ele>2168</ele>
        <time>2019-07-05T09:47:33Z</time>
      </trkpt>
      <trkpt lat="42.56532" lon="1.98149">
        <ele>2168</ele>
        <time>2019-07-05T09:47:39Z</time>
      </trkpt>
      <trkpt lat="42.56525" lon="1.98135">
        <ele>2168</ele>
        <time>2019-07-05T09:47:48Z</time>
      </trkpt>
      <trkpt lat="42.56522" lon="1.98119">
        <ele>2169</ele>
        <time>2019-07-05T09:47:58Z</time>
      </trkpt>
      <trkpt lat="42.56519" lon="1.98111">
        <ele>2170</ele>
        <time>2019-07-05T09:48:14Z</time>
      </trkpt>
      <trkpt lat="42.56513" lon="1.98106">
        <ele>2170</ele>
        <time>2019-07-05T09:48:24Z</time>
      </trkpt>
      <trkpt lat="42.56512" lon="1.98099">
        <ele>2170</ele>
        <time>2019-07-05T09:48:34Z</time>
      </trkpt>
      <trkpt lat="42.56509" lon="1.9809">
        <ele>2170</ele>
        <time>2019-07-05T09:48:59Z</time>
      </trkpt>
      <trkpt lat="42.56508" lon="1.98071">
        <ele>2169</ele>
        <time>2019-07-05T09:49:29Z</time>
      </trkpt>
      <trkpt lat="42.56504" lon="1.98064">
        <ele>2168</ele>
        <time>2019-07-05T09:49:34Z</time>
      </trkpt>
      <trkpt lat="42.565" lon="1.98054">
        <ele>2168</ele>
        <time>2019-07-05T09:49:43Z</time>
      </trkpt>
      <trkpt lat="42.56498" lon="1.98029">
        <ele>2168</ele>
        <time>2019-07-05T09:49:55Z</time>
      </trkpt>
      <trkpt lat="42.56495" lon="1.98021">
        <ele>2169</ele>
        <time>2019-07-05T09:50:04Z</time>
      </trkpt>
      <trkpt lat="42.56493" lon="1.98011">
        <ele>2170</ele>
        <time>2019-07-05T09:50:14Z</time>
      </trkpt>
      <trkpt lat="42.56493" lon="1.98001">
        <ele>2170</ele>
        <time>2019-07-05T09:50:24Z</time>
      </trkpt>
      <trkpt lat="42.56492" lon="1.97988">
        <ele>2170</ele>
        <time>2019-07-05T09:50:36Z</time>
      </trkpt>
      <trkpt lat="42.5649" lon="1.97982">
        <ele>2170</ele>
        <time>2019-07-05T09:50:41Z</time>
      </trkpt>
      <trkpt lat="42.56489" lon="1.97969">
        <ele>2170</ele>
        <time>2019-07-05T09:50:53Z</time>
      </trkpt>
      <trkpt lat="42.56486" lon="1.97964">
        <ele>2170</ele>
        <time>2019-07-05T09:51:00Z</time>
      </trkpt>
      <trkpt lat="42.56484" lon="1.97949">
        <ele>2170</ele>
        <time>2019-07-05T09:51:11Z</time>
      </trkpt>
      <trkpt lat="42.56491" lon="1.97942">
        <ele>2170</ele>
        <time>2019-07-05T09:51:20Z</time>
      </trkpt>
      <trkpt lat="42.56496" lon="1.97931">
        <ele>2171</ele>
        <time>2019-07-05T09:51:31Z</time>
      </trkpt>
      <trkpt lat="42.565" lon="1.97925">
        <ele>2171</ele>
        <time>2019-07-05T09:51:37Z</time>
      </trkpt>
      <trkpt lat="42.56503" lon="1.97914">
        <ele>2170</ele>
        <time>2019-07-05T09:51:47Z</time>
      </trkpt>
      <trkpt lat="42.56503" lon="1.97907">
        <ele>2170</ele>
        <time>2019-07-05T09:51:59Z</time>
      </trkpt>
      <trkpt lat="42.56498" lon="1.97892">
        <ele>2169</ele>
        <time>2019-07-05T09:52:16Z</time>
      </trkpt>
      <trkpt lat="42.56496" lon="1.97893">
        <ele>2168</ele>
        <time>2019-07-05T09:53:16Z</time>
      </trkpt>
      <trkpt lat="42.56497" lon="1.97897">
        <ele>2168</ele>
        <time>2019-07-05T09:55:09Z</time>
      </trkpt>
      <trkpt lat="42.56499" lon="1.97905">
        <ele>2168</ele>
        <time>2019-07-05T09:55:16Z</time>
      </trkpt>
      <trkpt lat="42.56503" lon="1.97912">
        <ele>2169</ele>
        <time>2019-07-05T09:55:21Z</time>
      </trkpt>
      <trkpt lat="42.56501" lon="1.9792">
        <ele>2169</ele>
        <time>2019-07-05T09:55:27Z</time>
      </trkpt>
      <trkpt lat="42.56498" lon="1.97927">
        <ele>2170</ele>
        <time>2019-07-05T09:55:32Z</time>
      </trkpt>
      <trkpt lat="42.56495" lon="1.97944">
        <ele>2170</ele>
        <time>2019-07-05T09:55:46Z</time>
      </trkpt>
      <trkpt lat="42.56491" lon="1.97949">
        <ele>2170</ele>
        <time>2019-07-05T09:55:53Z</time>
      </trkpt>
      <trkpt lat="42.56486" lon="1.97946">
        <ele>2170</ele>
        <time>2019-07-05T09:56:00Z</time>
      </trkpt>
      <trkpt lat="42.56481" lon="1.97938">
        <ele>2171</ele>
        <time>2019-07-05T09:56:10Z</time>
      </trkpt>
      <trkpt lat="42.56476" lon="1.97933">
        <ele>2172</ele>
        <time>2019-07-05T09:56:17Z</time>
      </trkpt>
      <trkpt lat="42.56472" lon="1.97929">
        <ele>2171</ele>
        <time>2019-07-05T09:56:21Z</time>
      </trkpt>
      <trkpt lat="42.56464" lon="1.97928">
        <ele>2172</ele>
        <time>2019-07-05T09:56:30Z</time>
      </trkpt>
      <trkpt lat="42.5646" lon="1.97925">
        <ele>2172</ele>
        <time>2019-07-05T09:56:35Z</time>
      </trkpt>
      <trkpt lat="42.56458" lon="1.97919">
        <ele>2172</ele>
        <time>2019-07-05T09:56:40Z</time>
      </trkpt>
      <trkpt lat="42.5646" lon="1.97908">
        <ele>2172</ele>
        <time>2019-07-05T09:56:50Z</time>
      </trkpt>
      <trkpt lat="42.56465" lon="1.97903">
        <ele>2171</ele>
        <time>2019-07-05T09:56:55Z</time>
      </trkpt>
      <trkpt lat="42.56464" lon="1.97893">
        <ele>2170</ele>
        <time>2019-07-05T09:57:03Z</time>
      </trkpt>
      <trkpt lat="42.56463" lon="1.97884">
        <ele>2170</ele>
        <time>2019-07-05T09:57:10Z</time>
      </trkpt>
      <trkpt lat="42.56467" lon="1.97878">
        <ele>2170</ele>
        <time>2019-07-05T09:57:16Z</time>
      </trkpt>
      <trkpt lat="42.56471" lon="1.97874">
        <ele>2170</ele>
        <time>2019-07-05T09:57:31Z</time>
      </trkpt>
      <trkpt lat="42.56466" lon="1.97877">
        <ele>2169</ele>
        <time>2019-07-05T09:58:26Z</time>
      </trkpt>
      <trkpt lat="42.56458" lon="1.97856">
        <ele>2170</ele>
        <time>2019-07-05T09:58:48Z</time>
      </trkpt>
      <trkpt lat="42.56461" lon="1.97849">
        <ele>2170</ele>
        <time>2019-07-05T09:58:55Z</time>
      </trkpt>
      <trkpt lat="42.56464" lon="1.97832">
        <ele>2169</ele>
        <time>2019-07-05T09:59:10Z</time>
      </trkpt>
      <trkpt lat="42.56461" lon="1.97825">
        <ele>2169</ele>
        <time>2019-07-05T09:59:14Z</time>
      </trkpt>
      <trkpt lat="42.5646" lon="1.97815">
        <ele>2169</ele>
        <time>2019-07-05T09:59:21Z</time>
      </trkpt>
      <trkpt lat="42.56458" lon="1.97809">
        <ele>2168</ele>
        <time>2019-07-05T09:59:26Z</time>
      </trkpt>
      <trkpt lat="42.56455" lon="1.97798">
        <ele>2168</ele>
        <time>2019-07-05T09:59:37Z</time>
      </trkpt>
      <trkpt lat="42.56453" lon="1.97791">
        <ele>2168</ele>
        <time>2019-07-05T09:59:43Z</time>
      </trkpt>
      <trkpt lat="42.56451" lon="1.97781">
        <ele>2167</ele>
        <time>2019-07-05T09:59:53Z</time>
      </trkpt>
      <trkpt lat="42.56458" lon="1.97777">
        <ele>2167</ele>
        <time>2019-07-05T10:00:24Z</time>
      </trkpt>
      <trkpt lat="42.56462" lon="1.97771">
        <ele>2167</ele>
        <time>2019-07-05T10:00:28Z</time>
      </trkpt>
      <trkpt lat="42.5646" lon="1.97763">
        <ele>2166</ele>
        <time>2019-07-05T10:00:33Z</time>
      </trkpt>
      <trkpt lat="42.56456" lon="1.97757">
        <ele>2166</ele>
        <time>2019-07-05T10:00:40Z</time>
      </trkpt>
      <trkpt lat="42.56453" lon="1.97752">
        <ele>2166</ele>
        <time>2019-07-05T10:00:44Z</time>
      </trkpt>
      <trkpt lat="42.56447" lon="1.9775">
        <ele>2165</ele>
        <time>2019-07-05T10:01:08Z</time>
      </trkpt>
      <trkpt lat="42.56447" lon="1.97739">
        <ele>2165</ele>
        <time>2019-07-05T10:01:19Z</time>
      </trkpt>
      <trkpt lat="42.56447" lon="1.97731">
        <ele>2166</ele>
        <time>2019-07-05T10:01:29Z</time>
      </trkpt>
      <trkpt lat="42.56446" lon="1.97716">
        <ele>2167</ele>
        <time>2019-07-05T10:01:42Z</time>
      </trkpt>
      <trkpt lat="42.56447" lon="1.97708">
        <ele>2167</ele>
        <time>2019-07-05T10:01:48Z</time>
      </trkpt>
      <trkpt lat="42.56451" lon="1.977">
        <ele>2167</ele>
        <time>2019-07-05T10:01:53Z</time>
      </trkpt>
      <trkpt lat="42.56455" lon="1.97695">
        <ele>2167</ele>
        <time>2019-07-05T10:01:58Z</time>
      </trkpt>
      <trkpt lat="42.56455" lon="1.97684">
        <ele>2168</ele>
        <time>2019-07-05T10:02:10Z</time>
      </trkpt>
      <trkpt lat="42.56456" lon="1.97663">
        <ele>2169</ele>
        <time>2019-07-05T10:02:31Z</time>
      </trkpt>
      <trkpt lat="42.56461" lon="1.9765">
        <ele>2168</ele>
        <time>2019-07-05T10:02:53Z</time>
      </trkpt>
      <trkpt lat="42.56463" lon="1.9764">
        <ele>2167</ele>
        <time>2019-07-05T10:03:09Z</time>
      </trkpt>
      <trkpt lat="42.56468" lon="1.97632">
        <ele>2167</ele>
        <time>2019-07-05T10:03:27Z</time>
      </trkpt>
      <trkpt lat="42.56477" lon="1.97628">
        <ele>2167</ele>
        <time>2019-07-05T10:03:37Z</time>
      </trkpt>
      <trkpt lat="42.56476" lon="1.97619">
        <ele>2166</ele>
        <time>2019-07-05T10:03:47Z</time>
      </trkpt>
      <trkpt lat="42.56483" lon="1.97604">
        <ele>2166</ele>
        <time>2019-07-05T10:03:55Z</time>
      </trkpt>
      <trkpt lat="42.56482" lon="1.97583">
        <ele>2165</ele>
        <time>2019-07-05T10:04:15Z</time>
      </trkpt>
      <trkpt lat="42.56486" lon="1.97575">
        <ele>2166</ele>
        <time>2019-07-05T10:04:21Z</time>
      </trkpt>
      <trkpt lat="42.56491" lon="1.97571">
        <ele>2168</ele>
        <time>2019-07-05T10:04:35Z</time>
      </trkpt>
      <trkpt lat="42.56511" lon="1.97556">
        <ele>2170</ele>
        <time>2019-07-05T10:05:11Z</time>
      </trkpt>
      <trkpt lat="42.56516" lon="1.9755">
        <ele>2171</ele>
        <time>2019-07-05T10:05:18Z</time>
      </trkpt>
      <trkpt lat="42.56519" lon="1.9754">
        <ele>2170</ele>
        <time>2019-07-05T10:05:33Z</time>
      </trkpt>
      <trkpt lat="42.56525" lon="1.97524">
        <ele>2168</ele>
        <time>2019-07-05T10:05:46Z</time>
      </trkpt>
      <trkpt lat="42.56531" lon="1.97514">
        <ele>2168</ele>
        <time>2019-07-05T10:05:58Z</time>
      </trkpt>
      <trkpt lat="42.56534" lon="1.97507">
        <ele>2169</ele>
        <time>2019-07-05T10:06:05Z</time>
      </trkpt>
      <trkpt lat="42.56533" lon="1.97498">
        <ele>2169</ele>
        <time>2019-07-05T10:06:15Z</time>
      </trkpt>
      <trkpt lat="42.5653" lon="1.97489">
        <ele>2170</ele>
        <time>2019-07-05T10:06:23Z</time>
      </trkpt>
      <trkpt lat="42.56532" lon="1.97478">
        <ele>2170</ele>
        <time>2019-07-05T10:06:36Z</time>
      </trkpt>
      <trkpt lat="42.5652" lon="1.97469">
        <ele>2170</ele>
        <time>2019-07-05T10:06:50Z</time>
      </trkpt>
      <trkpt lat="42.56515" lon="1.97468">
        <ele>2172</ele>
        <time>2019-07-05T10:07:01Z</time>
      </trkpt>
      <trkpt lat="42.56511" lon="1.97463">
        <ele>2174</ele>
        <time>2019-07-05T10:07:11Z</time>
      </trkpt>
      <trkpt lat="42.56508" lon="1.97458">
        <ele>2176</ele>
        <time>2019-07-05T10:07:21Z</time>
      </trkpt>
      <trkpt lat="42.56508" lon="1.97449">
        <ele>2178</ele>
        <time>2019-07-05T10:07:32Z</time>
      </trkpt>
      <trkpt lat="42.56513" lon="1.97445">
        <ele>2178</ele>
        <time>2019-07-05T10:07:43Z</time>
      </trkpt>
      <trkpt lat="42.56517" lon="1.97435">
        <ele>2179</ele>
        <time>2019-07-05T10:07:55Z</time>
      </trkpt>
      <trkpt lat="42.56522" lon="1.97435">
        <ele>2180</ele>
        <time>2019-07-05T10:08:01Z</time>
      </trkpt>
      <trkpt lat="42.56534" lon="1.97427">
        <ele>2183</ele>
        <time>2019-07-05T10:08:23Z</time>
      </trkpt>
      <trkpt lat="42.5654" lon="1.97428">
        <ele>2182</ele>
        <time>2019-07-05T10:08:29Z</time>
      </trkpt>
      <trkpt lat="42.56547" lon="1.97424">
        <ele>2182</ele>
        <time>2019-07-05T10:08:37Z</time>
      </trkpt>
      <trkpt lat="42.56552" lon="1.9742">
        <ele>2183</ele>
        <time>2019-07-05T10:08:42Z</time>
      </trkpt>
      <trkpt lat="42.56558" lon="1.97418">
        <ele>2183</ele>
        <time>2019-07-05T10:08:47Z</time>
      </trkpt>
      <trkpt lat="42.56569" lon="1.97419">
        <ele>2182</ele>
        <time>2019-07-05T10:08:57Z</time>
      </trkpt>
      <trkpt lat="42.56574" lon="1.97417">
        <ele>2182</ele>
        <time>2019-07-05T10:09:02Z</time>
      </trkpt>
      <trkpt lat="42.56581" lon="1.97411">
        <ele>2182</ele>
        <time>2019-07-05T10:09:33Z</time>
      </trkpt>
      <trkpt lat="42.56586" lon="1.97408">
        <ele>2182</ele>
        <time>2019-07-05T10:09:37Z</time>
      </trkpt>
      <trkpt lat="42.56601" lon="1.97391">
        <ele>2183</ele>
        <time>2019-07-05T10:09:56Z</time>
      </trkpt>
      <trkpt lat="42.56606" lon="1.97391">
        <ele>2183</ele>
        <time>2019-07-05T10:10:01Z</time>
      </trkpt>
      <trkpt lat="42.56618" lon="1.97387">
        <ele>2183</ele>
        <time>2019-07-05T10:10:13Z</time>
      </trkpt>
      <trkpt lat="42.56634" lon="1.97378">
        <ele>2184</ele>
        <time>2019-07-05T10:10:26Z</time>
      </trkpt>
      <trkpt lat="42.56638" lon="1.97373">
        <ele>2184</ele>
        <time>2019-07-05T10:10:31Z</time>
      </trkpt>
      <trkpt lat="42.56654" lon="1.97362">
        <ele>2185</ele>
        <time>2019-07-05T10:10:47Z</time>
      </trkpt>
      <trkpt lat="42.5666" lon="1.97361">
        <ele>2185</ele>
        <time>2019-07-05T10:10:52Z</time>
      </trkpt>
      <trkpt lat="42.56665" lon="1.97358">
        <ele>2185</ele>
        <time>2019-07-05T10:10:58Z</time>
      </trkpt>
      <trkpt lat="42.56679" lon="1.97356">
        <ele>2187</ele>
        <time>2019-07-05T10:11:13Z</time>
      </trkpt>
      <trkpt lat="42.56683" lon="1.97347">
        <ele>2188</ele>
        <time>2019-07-05T10:11:22Z</time>
      </trkpt>
      <trkpt lat="42.56692" lon="1.97344">
        <ele>2190</ele>
        <time>2019-07-05T10:11:33Z</time>
      </trkpt>
      <trkpt lat="42.56699" lon="1.97343">
        <ele>2191</ele>
        <time>2019-07-05T10:11:42Z</time>
      </trkpt>
      <trkpt lat="42.56706" lon="1.97337">
        <ele>2192</ele>
        <time>2019-07-05T10:11:52Z</time>
      </trkpt>
      <trkpt lat="42.56712" lon="1.97337">
        <ele>2192</ele>
        <time>2019-07-05T10:11:58Z</time>
      </trkpt>
      <trkpt lat="42.56716" lon="1.97334">
        <ele>2193</ele>
        <time>2019-07-05T10:12:03Z</time>
      </trkpt>
      <trkpt lat="42.56725" lon="1.97322">
        <ele>2196</ele>
        <time>2019-07-05T10:12:20Z</time>
      </trkpt>
      <trkpt lat="42.56733" lon="1.97321">
        <ele>2197</ele>
        <time>2019-07-05T10:12:32Z</time>
      </trkpt>
      <trkpt lat="42.56737" lon="1.97316">
        <ele>2197</ele>
        <time>2019-07-05T10:12:36Z</time>
      </trkpt>
      <trkpt lat="42.5674" lon="1.97309">
        <ele>2197</ele>
        <time>2019-07-05T10:12:41Z</time>
      </trkpt>
      <trkpt lat="42.56742" lon="1.97299">
        <ele>2198</ele>
        <time>2019-07-05T10:12:50Z</time>
      </trkpt>
      <trkpt lat="42.56758" lon="1.97291">
        <ele>2199</ele>
        <time>2019-07-05T10:13:13Z</time>
      </trkpt>
      <trkpt lat="42.56766" lon="1.97284">
        <ele>2200</ele>
        <time>2019-07-05T10:13:25Z</time>
      </trkpt>
      <trkpt lat="42.56783" lon="1.9727">
        <ele>2202</ele>
        <time>2019-07-05T10:13:51Z</time>
      </trkpt>
      <trkpt lat="42.56786" lon="1.97263">
        <ele>2202</ele>
        <time>2019-07-05T10:13:56Z</time>
      </trkpt>
      <trkpt lat="42.56788" lon="1.97256">
        <ele>2202</ele>
        <time>2019-07-05T10:14:05Z</time>
      </trkpt>
      <trkpt lat="42.56793" lon="1.97249">
        <ele>2203</ele>
        <time>2019-07-05T10:14:15Z</time>
      </trkpt>
      <trkpt lat="42.56796" lon="1.97241">
        <ele>2204</ele>
        <time>2019-07-05T10:14:20Z</time>
      </trkpt>
      <trkpt lat="42.56801" lon="1.97241">
        <ele>2204</ele>
        <time>2019-07-05T10:14:28Z</time>
      </trkpt>
      <trkpt lat="42.56801" lon="1.97233">
        <ele>2204</ele>
        <time>2019-07-05T10:14:57Z</time>
      </trkpt>
      <trkpt lat="42.56806" lon="1.97231">
        <ele>2205</ele>
        <time>2019-07-05T10:15:02Z</time>
      </trkpt>
      <trkpt lat="42.56812" lon="1.9723">
        <ele>2205</ele>
        <time>2019-07-05T10:15:07Z</time>
      </trkpt>
      <trkpt lat="42.56816" lon="1.97227">
        <ele>2205</ele>
        <time>2019-07-05T10:15:12Z</time>
      </trkpt>
      <trkpt lat="42.56821" lon="1.97219">
        <ele>2206</ele>
        <time>2019-07-05T10:15:20Z</time>
      </trkpt>
      <trkpt lat="42.56824" lon="1.97214">
        <ele>2207</ele>
        <time>2019-07-05T10:15:29Z</time>
      </trkpt>
      <trkpt lat="42.56827" lon="1.97209">
        <ele>2208</ele>
        <time>2019-07-05T10:15:35Z</time>
      </trkpt>
      <trkpt lat="42.56844" lon="1.97199">
        <ele>2210</ele>
        <time>2019-07-05T10:15:54Z</time>
      </trkpt>
      <trkpt lat="42.56851" lon="1.97195">
        <ele>2211</ele>
        <time>2019-07-05T10:16:03Z</time>
      </trkpt>
      <trkpt lat="42.56858" lon="1.97195">
        <ele>2212</ele>
        <time>2019-07-05T10:16:12Z</time>
      </trkpt>
      <trkpt lat="42.56868" lon="1.9719">
        <ele>2213</ele>
        <time>2019-07-05T10:16:21Z</time>
      </trkpt>
      <trkpt lat="42.56872" lon="1.9719">
        <ele>2214</ele>
        <time>2019-07-05T10:16:28Z</time>
      </trkpt>
      <trkpt lat="42.56875" lon="1.97185">
        <ele>2214</ele>
        <time>2019-07-05T10:16:33Z</time>
      </trkpt>
      <trkpt lat="42.56879" lon="1.97182">
        <ele>2215</ele>
        <time>2019-07-05T10:16:40Z</time>
      </trkpt>
      <trkpt lat="42.56885" lon="1.97174">
        <ele>2216</ele>
        <time>2019-07-05T10:16:49Z</time>
      </trkpt>
      <trkpt lat="42.56891" lon="1.9717">
        <ele>2217</ele>
        <time>2019-07-05T10:16:57Z</time>
      </trkpt>
      <trkpt lat="42.56899" lon="1.97168">
        <ele>2218</ele>
        <time>2019-07-05T10:17:07Z</time>
      </trkpt>
      <trkpt lat="42.56907" lon="1.97156">
        <ele>2220</ele>
        <time>2019-07-05T10:17:21Z</time>
      </trkpt>
      <trkpt lat="42.5692" lon="1.97143">
        <ele>2222</ele>
        <time>2019-07-05T10:17:42Z</time>
      </trkpt>
      <trkpt lat="42.56925" lon="1.97137">
        <ele>2223</ele>
        <time>2019-07-05T10:17:50Z</time>
      </trkpt>
      <trkpt lat="42.56932" lon="1.97132">
        <ele>2224</ele>
        <time>2019-07-05T10:18:00Z</time>
      </trkpt>
      <trkpt lat="42.56937" lon="1.9713">
        <ele>2225</ele>
        <time>2019-07-05T10:18:30Z</time>
      </trkpt>
      <trkpt lat="42.56943" lon="1.97124">
        <ele>2227</ele>
        <time>2019-07-05T10:18:40Z</time>
      </trkpt>
      <trkpt lat="42.56959" lon="1.97119">
        <ele>2229</ele>
        <time>2019-07-05T10:18:56Z</time>
      </trkpt>
      <trkpt lat="42.56965" lon="1.97116">
        <ele>2229</ele>
        <time>2019-07-05T10:19:03Z</time>
      </trkpt>
      <trkpt lat="42.56974" lon="1.97114">
        <ele>2230</ele>
        <time>2019-07-05T10:19:11Z</time>
      </trkpt>
      <trkpt lat="42.56982" lon="1.97105">
        <ele>2232</ele>
        <time>2019-07-05T10:19:23Z</time>
      </trkpt>
      <trkpt lat="42.56991" lon="1.97105">
        <ele>2233</ele>
        <time>2019-07-05T10:19:35Z</time>
      </trkpt>
      <trkpt lat="42.56996" lon="1.97103">
        <ele>2234</ele>
        <time>2019-07-05T10:19:40Z</time>
      </trkpt>
      <trkpt lat="42.57002" lon="1.97102">
        <ele>2234</ele>
        <time>2019-07-05T10:19:45Z</time>
      </trkpt>
      <trkpt lat="42.57007" lon="1.97099">
        <ele>2234</ele>
        <time>2019-07-05T10:19:49Z</time>
      </trkpt>
      <trkpt lat="42.57042" lon="1.97088">
        <ele>2237</ele>
        <time>2019-07-05T10:20:27Z</time>
      </trkpt>
      <trkpt lat="42.57047" lon="1.97089">
        <ele>2238</ele>
        <time>2019-07-05T10:20:32Z</time>
      </trkpt>
      <trkpt lat="42.57058" lon="1.97082">
        <ele>2238</ele>
        <time>2019-07-05T10:20:44Z</time>
      </trkpt>
      <trkpt lat="42.57063" lon="1.97079">
        <ele>2239</ele>
        <time>2019-07-05T10:20:48Z</time>
      </trkpt>
      <trkpt lat="42.57079" lon="1.97079">
        <ele>2238</ele>
        <time>2019-07-05T10:21:03Z</time>
      </trkpt>
      <trkpt lat="42.57096" lon="1.97072">
        <ele>2239</ele>
        <time>2019-07-05T10:21:18Z</time>
      </trkpt>
      <trkpt lat="42.57107" lon="1.97069">
        <ele>2239</ele>
        <time>2019-07-05T10:21:29Z</time>
      </trkpt>
      <trkpt lat="42.57122" lon="1.9706">
        <ele>2240</ele>
        <time>2019-07-05T10:21:44Z</time>
      </trkpt>
      <trkpt lat="42.57127" lon="1.97061">
        <ele>2240</ele>
        <time>2019-07-05T10:21:48Z</time>
      </trkpt>
      <trkpt lat="42.57136" lon="1.9705">
        <ele>2239</ele>
        <time>2019-07-05T10:22:01Z</time>
      </trkpt>
      <trkpt lat="42.57152" lon="1.97042">
        <ele>2240</ele>
        <time>2019-07-05T10:22:16Z</time>
      </trkpt>
      <trkpt lat="42.57158" lon="1.97033">
        <ele>2241</ele>
        <time>2019-07-05T10:22:26Z</time>
      </trkpt>
      <trkpt lat="42.57163" lon="1.97027">
        <ele>2241</ele>
        <time>2019-07-05T10:22:36Z</time>
      </trkpt>
      <trkpt lat="42.57173" lon="1.97015">
        <ele>2242</ele>
        <time>2019-07-05T10:22:49Z</time>
      </trkpt>
      <trkpt lat="42.57177" lon="1.97011">
        <ele>2242</ele>
        <time>2019-07-05T10:22:54Z</time>
      </trkpt>
      <trkpt lat="42.57181" lon="1.97006">
        <ele>2242</ele>
        <time>2019-07-05T10:23:01Z</time>
      </trkpt>
      <trkpt lat="42.57188" lon="1.96998">
        <ele>2242</ele>
        <time>2019-07-05T10:23:09Z</time>
      </trkpt>
      <trkpt lat="42.57195" lon="1.96989">
        <ele>2242</ele>
        <time>2019-07-05T10:23:18Z</time>
      </trkpt>
      <trkpt lat="42.57199" lon="1.96986">
        <ele>2242</ele>
        <time>2019-07-05T10:23:22Z</time>
      </trkpt>
      <trkpt lat="42.57204" lon="1.9698">
        <ele>2241</ele>
        <time>2019-07-05T10:23:30Z</time>
      </trkpt>
      <trkpt lat="42.57228" lon="1.96956">
        <ele>2239</ele>
        <time>2019-07-05T10:24:04Z</time>
      </trkpt>
      <trkpt lat="42.57243" lon="1.96939">
        <ele>2237</ele>
        <time>2019-07-05T10:24:37Z</time>
      </trkpt>
      <trkpt lat="42.57263" lon="1.9693">
        <ele>2234</ele>
        <time>2019-07-05T10:25:16Z</time>
      </trkpt>
      <trkpt lat="42.5727" lon="1.96925">
        <ele>2233</ele>
        <time>2019-07-05T10:25:25Z</time>
      </trkpt>
      <trkpt lat="42.57275" lon="1.96926">
        <ele>2233</ele>
        <time>2019-07-05T10:25:30Z</time>
      </trkpt>
      <trkpt lat="42.57279" lon="1.96918">
        <ele>2232</ele>
        <time>2019-07-05T10:25:39Z</time>
      </trkpt>
      <trkpt lat="42.57288" lon="1.96911">
        <ele>2231</ele>
        <time>2019-07-05T10:25:49Z</time>
      </trkpt>
      <trkpt lat="42.5729" lon="1.96905">
        <ele>2230</ele>
        <time>2019-07-05T10:26:03Z</time>
      </trkpt>
      <trkpt lat="42.57296" lon="1.96898">
        <ele>2229</ele>
        <time>2019-07-05T10:26:17Z</time>
      </trkpt>
      <trkpt lat="42.57301" lon="1.96896">
        <ele>2228</ele>
        <time>2019-07-05T10:26:21Z</time>
      </trkpt>
      <trkpt lat="42.573" lon="1.96904">
        <ele>2227</ele>
        <time>2019-07-05T10:26:29Z</time>
      </trkpt>
      <trkpt lat="42.57301" lon="1.96911">
        <ele>2227</ele>
        <time>2019-07-05T10:26:36Z</time>
      </trkpt>
      <trkpt lat="42.57309" lon="1.96905">
        <ele>2226</ele>
        <time>2019-07-05T10:26:53Z</time>
      </trkpt>
      <trkpt lat="42.57307" lon="1.96914">
        <ele>2226</ele>
        <time>2019-07-05T10:27:13Z</time>
      </trkpt>
      <trkpt lat="42.57306" lon="1.96922">
        <ele>2226</ele>
        <time>2019-07-05T10:27:18Z</time>
      </trkpt>
      <trkpt lat="42.57303" lon="1.96927">
        <ele>2226</ele>
        <time>2019-07-05T10:27:41Z</time>
      </trkpt>
      <trkpt lat="42.57292" lon="1.96923">
        <ele>2226</ele>
        <time>2019-07-05T10:27:53Z</time>
      </trkpt>
      <trkpt lat="42.57296" lon="1.9691">
        <ele>2228</ele>
        <time>2019-07-05T10:28:41Z</time>
      </trkpt>
      <trkpt lat="42.57304" lon="1.96917">
        <ele>2228</ele>
        <time>2019-07-05T10:29:18Z</time>
      </trkpt>
      <trkpt lat="42.573" lon="1.96926">
        <ele>2228</ele>
        <time>2019-07-05T10:30:28Z</time>
      </trkpt>
      <trkpt lat="42.57302" lon="1.96919">
        <ele>2228</ele>
        <time>2019-07-05T10:30:55Z</time>
      </trkpt>
      <trkpt lat="42.57298" lon="1.96913">
        <ele>2228</ele>
        <time>2019-07-05T10:31:02Z</time>
      </trkpt>
      <trkpt lat="42.57304" lon="1.96915">
        <ele>2228</ele>
        <time>2019-07-05T10:35:14Z</time>
      </trkpt>
      <trkpt lat="42.57297" lon="1.96924">
        <ele>2226</ele>
        <time>2019-07-05T10:35:42Z</time>
      </trkpt>
      <trkpt lat="42.57298" lon="1.96924">
        <ele>2228</ele>
        <time>2019-07-05T10:36:19Z</time>
      </trkpt>
      <trkpt lat="42.57298" lon="1.96925">
        <ele>2227</ele>
        <time>2019-07-05T10:38:16Z</time>
      </trkpt>
      <trkpt lat="42.57297" lon="1.9692">
        <ele>2228</ele>
        <time>2019-07-05T10:39:05Z</time>
      </trkpt>
      <trkpt lat="42.573" lon="1.96926">
        <ele>2228</ele>
        <time>2019-07-05T10:40:39Z</time>
      </trkpt>
      <trkpt lat="42.57303" lon="1.96926">
        <ele>2228</ele>
        <time>2019-07-05T10:42:07Z</time>
      </trkpt>
      <trkpt lat="42.57308" lon="1.96923">
        <ele>2227</ele>
        <time>2019-07-05T10:43:10Z</time>
      </trkpt>
      <trkpt lat="42.57318" lon="1.96922">
        <ele>2227</ele>
        <time>2019-07-05T10:43:14Z</time>
      </trkpt>
      <trkpt lat="42.57325" lon="1.96927">
        <ele>2226</ele>
        <time>2019-07-05T10:45:10Z</time>
      </trkpt>
      <trkpt lat="42.57319" lon="1.96926">
        <ele>2226</ele>
        <time>2019-07-05T10:45:18Z</time>
      </trkpt>
      <trkpt lat="42.57314" lon="1.96926">
        <ele>2226</ele>
        <time>2019-07-05T10:45:22Z</time>
      </trkpt>
      <trkpt lat="42.57317" lon="1.96929">
        <ele>2227</ele>
        <time>2019-07-05T10:46:08Z</time>
      </trkpt>
      <trkpt lat="42.5733" lon="1.96926">
        <ele>2227</ele>
        <time>2019-07-05T10:46:21Z</time>
      </trkpt>
      <trkpt lat="42.57335" lon="1.96926">
        <ele>2227</ele>
        <time>2019-07-05T10:47:07Z</time>
      </trkpt>
      <trkpt lat="42.57333" lon="1.96923">
        <ele>2228</ele>
        <time>2019-07-05T10:47:55Z</time>
      </trkpt>
      <trkpt lat="42.57311" lon="1.96928">
        <ele>2228</ele>
        <time>2019-07-05T10:48:09Z</time>
      </trkpt>
      <trkpt lat="42.57312" lon="1.96923">
        <ele>2228</ele>
        <time>2019-07-05T10:48:43Z</time>
      </trkpt>
      <trkpt lat="42.57319" lon="1.96923">
        <ele>2228</ele>
        <time>2019-07-05T10:48:56Z</time>
      </trkpt>
      <trkpt lat="42.5733" lon="1.96925">
        <ele>2228</ele>
        <time>2019-07-05T10:49:09Z</time>
      </trkpt>
      <trkpt lat="42.5734" lon="1.96925">
        <ele>2228</ele>
        <time>2019-07-05T10:49:13Z</time>
      </trkpt>
      <trkpt lat="42.57333" lon="1.96924">
        <ele>2228</ele>
        <time>2019-07-05T10:49:53Z</time>
      </trkpt>
      <trkpt lat="42.57323" lon="1.96924">
        <ele>2228</ele>
        <time>2019-07-05T10:50:06Z</time>
      </trkpt>
      <trkpt lat="42.5733" lon="1.96921">
        <ele>2227</ele>
        <time>2019-07-05T10:52:04Z</time>
      </trkpt>
      <trkpt lat="42.57326" lon="1.96922">
        <ele>2228</ele>
        <time>2019-07-05T10:52:49Z</time>
      </trkpt>
      <trkpt lat="42.57327" lon="1.96921">
        <ele>2227</ele>
        <time>2019-07-05T10:55:05Z</time>
      </trkpt>
      <trkpt lat="42.57328" lon="1.96917">
        <ele>2228</ele>
        <time>2019-07-05T10:56:16Z</time>
      </trkpt>
      <trkpt lat="42.57323" lon="1.9692">
        <ele>2227</ele>
        <time>2019-07-05T10:56:47Z</time>
      </trkpt>
      <trkpt lat="42.573" lon="1.96927">
        <ele>2227</ele>
        <time>2019-07-05T10:56:58Z</time>
      </trkpt>
      <trkpt lat="42.5731" lon="1.96916">
        <ele>2227</ele>
        <time>2019-07-05T10:57:21Z</time>
      </trkpt>
      <trkpt lat="42.57304" lon="1.96925">
        <ele>2226</ele>
        <time>2019-07-05T10:58:15Z</time>
      </trkpt>
      <trkpt lat="42.57305" lon="1.96921">
        <ele>2226</ele>
        <time>2019-07-05T10:58:49Z</time>
      </trkpt>
      <trkpt lat="42.57313" lon="1.96919">
        <ele>2226</ele>
        <time>2019-07-05T10:58:58Z</time>
      </trkpt>
      <trkpt lat="42.57325" lon="1.96909">
        <ele>2227</ele>
        <time>2019-07-05T10:59:38Z</time>
      </trkpt>
      <trkpt lat="42.57325" lon="1.96913">
        <ele>2227</ele>
        <time>2019-07-05T11:00:37Z</time>
      </trkpt>
      <trkpt lat="42.57316" lon="1.96915">
        <ele>2227</ele>
        <time>2019-07-05T11:00:47Z</time>
      </trkpt>
      <trkpt lat="42.57308" lon="1.96919">
        <ele>2227</ele>
        <time>2019-07-05T11:00:56Z</time>
      </trkpt>
      <trkpt lat="42.57309" lon="1.9692">
        <ele>2227</ele>
        <time>2019-07-05T11:01:57Z</time>
      </trkpt>
      <trkpt lat="42.57323" lon="1.96925">
        <ele>2227</ele>
        <time>2019-07-05T11:02:37Z</time>
      </trkpt>
      <trkpt lat="42.57337" lon="1.96915">
        <ele>2227</ele>
        <time>2019-07-05T11:02:57Z</time>
      </trkpt>
      <trkpt lat="42.5733" lon="1.96921">
        <ele>2227</ele>
        <time>2019-07-05T11:04:04Z</time>
      </trkpt>
      <trkpt lat="42.57322" lon="1.96921">
        <ele>2228</ele>
        <time>2019-07-05T11:04:17Z</time>
      </trkpt>
      <trkpt lat="42.57313" lon="1.96923">
        <ele>2228</ele>
        <time>2019-07-05T11:05:11Z</time>
      </trkpt>
      <trkpt lat="42.57315" lon="1.96921">
        <ele>2227</ele>
        <time>2019-07-05T11:05:43Z</time>
      </trkpt>
      <trkpt lat="42.57324" lon="1.9692">
        <ele>2227</ele>
        <time>2019-07-05T11:05:48Z</time>
      </trkpt>
      <trkpt lat="42.57338" lon="1.96904">
        <ele>2227</ele>
        <time>2019-07-05T11:06:18Z</time>
      </trkpt>
      <trkpt lat="42.57344" lon="1.96908">
        <ele>2228</ele>
        <time>2019-07-05T11:06:43Z</time>
      </trkpt>
      <trkpt lat="42.57343" lon="1.96903">
        <ele>2228</ele>
        <time>2019-07-05T11:08:49Z</time>
      </trkpt>
      <trkpt lat="42.57335" lon="1.96909">
        <ele>2228</ele>
        <time>2019-07-05T11:08:56Z</time>
      </trkpt>
      <trkpt lat="42.57339" lon="1.96927">
        <ele>2228</ele>
        <time>2019-07-05T11:09:44Z</time>
      </trkpt>
      <trkpt lat="42.57353" lon="1.96922">
        <ele>2228</ele>
        <time>2019-07-05T11:10:11Z</time>
      </trkpt>
      <trkpt lat="42.57355" lon="1.96923">
        <ele>2228</ele>
        <time>2019-07-05T11:10:43Z</time>
      </trkpt>
      <trkpt lat="42.57365" lon="1.9692">
        <ele>2229</ele>
        <time>2019-07-05T11:10:49Z</time>
      </trkpt>
      <trkpt lat="42.57361" lon="1.96925">
        <ele>2229</ele>
        <time>2019-07-05T11:11:53Z</time>
      </trkpt>
      <trkpt lat="42.57339" lon="1.96921">
        <ele>2229</ele>
        <time>2019-07-05T11:12:05Z</time>
      </trkpt>
      <trkpt lat="42.57341" lon="1.96909">
        <ele>2230</ele>
        <time>2019-07-05T11:13:10Z</time>
      </trkpt>
      <trkpt lat="42.57323" lon="1.9692">
        <ele>2230</ele>
        <time>2019-07-05T11:13:32Z</time>
      </trkpt>
      <trkpt lat="42.57313" lon="1.96924">
        <ele>2230</ele>
        <time>2019-07-05T11:13:57Z</time>
      </trkpt>
      <trkpt lat="42.57305" lon="1.96927">
        <ele>2230</ele>
        <time>2019-07-05T11:14:07Z</time>
      </trkpt>
      <trkpt lat="42.57296" lon="1.96924">
        <ele>2230</ele>
        <time>2019-07-05T11:14:37Z</time>
      </trkpt>
      <trkpt lat="42.57299" lon="1.96927">
        <ele>2229</ele>
        <time>2019-07-05T11:30:56Z</time>
      </trkpt>
      <trkpt lat="42.573" lon="1.96921">
        <ele>2227</ele>
        <time>2019-07-05T11:31:59Z</time>
      </trkpt>
      <trkpt lat="42.57303" lon="1.96914">
        <ele>2227</ele>
        <time>2019-07-05T11:32:05Z</time>
      </trkpt>
      <trkpt lat="42.57302" lon="1.96913">
        <ele>2226</ele>
        <time>2019-07-05T11:33:14Z</time>
      </trkpt>
      <trkpt lat="42.573" lon="1.96906">
        <ele>2227</ele>
        <time>2019-07-05T11:33:21Z</time>
      </trkpt>
      <trkpt lat="42.57302" lon="1.96895">
        <ele>2226</ele>
        <time>2019-07-05T11:33:31Z</time>
      </trkpt>
      <trkpt lat="42.57295" lon="1.96877">
        <ele>2225</ele>
        <time>2019-07-05T11:33:47Z</time>
      </trkpt>
      <trkpt lat="42.57297" lon="1.96872">
        <ele>2224</ele>
        <time>2019-07-05T11:35:52Z</time>
      </trkpt>
      <trkpt lat="42.57301" lon="1.96867">
        <ele>2224</ele>
        <time>2019-07-05T11:36:07Z</time>
      </trkpt>
      <trkpt lat="42.57302" lon="1.96861">
        <ele>2224</ele>
        <time>2019-07-05T11:36:12Z</time>
      </trkpt>
      <trkpt lat="42.57301" lon="1.96853">
        <ele>2224</ele>
        <time>2019-07-05T11:36:19Z</time>
      </trkpt>
      <trkpt lat="42.57301" lon="1.96847">
        <ele>2223</ele>
        <time>2019-07-05T11:36:23Z</time>
      </trkpt>
      <trkpt lat="42.57305" lon="1.96838">
        <ele>2224</ele>
        <time>2019-07-05T11:36:37Z</time>
      </trkpt>
      <trkpt lat="42.57303" lon="1.96833">
        <ele>2225</ele>
        <time>2019-07-05T11:36:43Z</time>
      </trkpt>
      <trkpt lat="42.57307" lon="1.96822">
        <ele>2226</ele>
        <time>2019-07-05T11:36:59Z</time>
      </trkpt>
      <trkpt lat="42.57308" lon="1.96815">
        <ele>2226</ele>
        <time>2019-07-05T11:37:04Z</time>
      </trkpt>
      <trkpt lat="42.57311" lon="1.96811">
        <ele>2226</ele>
        <time>2019-07-05T11:37:09Z</time>
      </trkpt>
      <trkpt lat="42.57306" lon="1.96802">
        <ele>2226</ele>
        <time>2019-07-05T11:37:18Z</time>
      </trkpt>
      <trkpt lat="42.57304" lon="1.96797">
        <ele>2225</ele>
        <time>2019-07-05T11:37:25Z</time>
      </trkpt>
      <trkpt lat="42.57305" lon="1.96784">
        <ele>2225</ele>
        <time>2019-07-05T11:37:35Z</time>
      </trkpt>
      <trkpt lat="42.57306" lon="1.96776">
        <ele>2226</ele>
        <time>2019-07-05T11:37:42Z</time>
      </trkpt>
      <trkpt lat="42.57308" lon="1.96765">
        <ele>2226</ele>
        <time>2019-07-05T11:37:51Z</time>
      </trkpt>
      <trkpt lat="42.57308" lon="1.96744">
        <ele>2226</ele>
        <time>2019-07-05T11:38:06Z</time>
      </trkpt>
      <trkpt lat="42.57311" lon="1.96738">
        <ele>2227</ele>
        <time>2019-07-05T11:38:13Z</time>
      </trkpt>
      <trkpt lat="42.57312" lon="1.96713">
        <ele>2228</ele>
        <time>2019-07-05T11:38:34Z</time>
      </trkpt>
      <trkpt lat="42.57311" lon="1.96692">
        <ele>2230</ele>
        <time>2019-07-05T11:38:54Z</time>
      </trkpt>
      <trkpt lat="42.57307" lon="1.9668">
        <ele>2230</ele>
        <time>2019-07-05T11:39:02Z</time>
      </trkpt>
      <trkpt lat="42.57305" lon="1.96673">
        <ele>2230</ele>
        <time>2019-07-05T11:39:07Z</time>
      </trkpt>
      <trkpt lat="42.57304" lon="1.96667">
        <ele>2230</ele>
        <time>2019-07-05T11:39:12Z</time>
      </trkpt>
      <trkpt lat="42.57299" lon="1.96661">
        <ele>2231</ele>
        <time>2019-07-05T11:39:24Z</time>
      </trkpt>
      <trkpt lat="42.57292" lon="1.96651">
        <ele>2234</ele>
        <time>2019-07-05T11:39:36Z</time>
      </trkpt>
      <trkpt lat="42.57288" lon="1.96648">
        <ele>2234</ele>
        <time>2019-07-05T11:39:41Z</time>
      </trkpt>
      <trkpt lat="42.57282" lon="1.96641">
        <ele>2235</ele>
        <time>2019-07-05T11:39:53Z</time>
      </trkpt>
      <trkpt lat="42.57277" lon="1.96641">
        <ele>2236</ele>
        <time>2019-07-05T11:40:00Z</time>
      </trkpt>
      <trkpt lat="42.57273" lon="1.96632">
        <ele>2238</ele>
        <time>2019-07-05T11:40:15Z</time>
      </trkpt>
      <trkpt lat="42.57268" lon="1.96628">
        <ele>2239</ele>
        <time>2019-07-05T11:40:25Z</time>
      </trkpt>
      <trkpt lat="42.57263" lon="1.96628">
        <ele>2240</ele>
        <time>2019-07-05T11:40:31Z</time>
      </trkpt>
      <trkpt lat="42.5726" lon="1.96624">
        <ele>2240</ele>
        <time>2019-07-05T11:40:39Z</time>
      </trkpt>
      <trkpt lat="42.57263" lon="1.96616">
        <ele>2241</ele>
        <time>2019-07-05T11:40:49Z</time>
      </trkpt>
      <trkpt lat="42.57266" lon="1.96612">
        <ele>2243</ele>
        <time>2019-07-05T11:40:59Z</time>
      </trkpt>
      <trkpt lat="42.57264" lon="1.96605">
        <ele>2243</ele>
        <time>2019-07-05T11:41:05Z</time>
      </trkpt>
      <trkpt lat="42.57264" lon="1.96598">
        <ele>2244</ele>
        <time>2019-07-05T11:41:13Z</time>
      </trkpt>
      <trkpt lat="42.57263" lon="1.96592">
        <ele>2246</ele>
        <time>2019-07-05T11:41:23Z</time>
      </trkpt>
      <trkpt lat="42.57274" lon="1.96591">
        <ele>2247</ele>
        <time>2019-07-05T11:41:40Z</time>
      </trkpt>
      <trkpt lat="42.57276" lon="1.96589">
        <ele>2247</ele>
        <time>2019-07-05T11:41:56Z</time>
      </trkpt>
      <trkpt lat="42.57274" lon="1.96583">
        <ele>2248</ele>
        <time>2019-07-05T11:42:01Z</time>
      </trkpt>
      <trkpt lat="42.57271" lon="1.96577">
        <ele>2248</ele>
        <time>2019-07-05T11:42:06Z</time>
      </trkpt>
      <trkpt lat="42.57268" lon="1.96574">
        <ele>2248</ele>
        <time>2019-07-05T11:42:11Z</time>
      </trkpt>
      <trkpt lat="42.57272" lon="1.96568">
        <ele>2249</ele>
        <time>2019-07-05T11:42:41Z</time>
      </trkpt>
      <trkpt lat="42.57274" lon="1.96563">
        <ele>2250</ele>
        <time>2019-07-05T11:42:51Z</time>
      </trkpt>
      <trkpt lat="42.5727" lon="1.96558">
        <ele>2251</ele>
        <time>2019-07-05T11:43:56Z</time>
      </trkpt>
      <trkpt lat="42.57268" lon="1.96549">
        <ele>2252</ele>
        <time>2019-07-05T11:44:06Z</time>
      </trkpt>
      <trkpt lat="42.57252" lon="1.96522">
        <ele>2254</ele>
        <time>2019-07-05T11:44:44Z</time>
      </trkpt>
      <trkpt lat="42.5725" lon="1.96516">
        <ele>2255</ele>
        <time>2019-07-05T11:44:49Z</time>
      </trkpt>
      <trkpt lat="42.57253" lon="1.96508">
        <ele>2257</ele>
        <time>2019-07-05T11:45:01Z</time>
      </trkpt>
      <trkpt lat="42.57257" lon="1.96503">
        <ele>2257</ele>
        <time>2019-07-05T11:45:08Z</time>
      </trkpt>
      <trkpt lat="42.57258" lon="1.96481">
        <ele>2260</ele>
        <time>2019-07-05T11:45:31Z</time>
      </trkpt>
      <trkpt lat="42.57251" lon="1.96469">
        <ele>2263</ele>
        <time>2019-07-05T11:45:46Z</time>
      </trkpt>
      <trkpt lat="42.57251" lon="1.96462">
        <ele>2264</ele>
        <time>2019-07-05T11:45:56Z</time>
      </trkpt>
      <trkpt lat="42.57248" lon="1.96456">
        <ele>2266</ele>
        <time>2019-07-05T11:46:07Z</time>
      </trkpt>
      <trkpt lat="42.57246" lon="1.96448">
        <ele>2267</ele>
        <time>2019-07-05T11:46:17Z</time>
      </trkpt>
      <trkpt lat="42.57244" lon="1.96441">
        <ele>2268</ele>
        <time>2019-07-05T11:46:27Z</time>
      </trkpt>
      <trkpt lat="42.57243" lon="1.96433">
        <ele>2270</ele>
        <time>2019-07-05T11:46:37Z</time>
      </trkpt>
      <trkpt lat="42.57242" lon="1.96422">
        <ele>2271</ele>
        <time>2019-07-05T11:46:46Z</time>
      </trkpt>
      <trkpt lat="42.57236" lon="1.96409">
        <ele>2273</ele>
        <time>2019-07-05T11:47:01Z</time>
      </trkpt>
      <trkpt lat="42.57235" lon="1.96398">
        <ele>2275</ele>
        <time>2019-07-05T11:47:12Z</time>
      </trkpt>
      <trkpt lat="42.57233" lon="1.96392">
        <ele>2276</ele>
        <time>2019-07-05T11:47:19Z</time>
      </trkpt>
      <trkpt lat="42.57234" lon="1.96386">
        <ele>2277</ele>
        <time>2019-07-05T11:47:29Z</time>
      </trkpt>
      <trkpt lat="42.57235" lon="1.96377">
        <ele>2277</ele>
        <time>2019-07-05T11:47:39Z</time>
      </trkpt>
      <trkpt lat="42.57233" lon="1.96369">
        <ele>2278</ele>
        <time>2019-07-05T11:47:49Z</time>
      </trkpt>
      <trkpt lat="42.57231" lon="1.96364">
        <ele>2279</ele>
        <time>2019-07-05T11:47:59Z</time>
      </trkpt>
      <trkpt lat="42.57231" lon="1.96356">
        <ele>2278</ele>
        <time>2019-07-05T11:48:09Z</time>
      </trkpt>
      <trkpt lat="42.57228" lon="1.9635">
        <ele>2277</ele>
        <time>2019-07-05T11:48:19Z</time>
      </trkpt>
      <trkpt lat="42.57228" lon="1.96343">
        <ele>2278</ele>
        <time>2019-07-05T11:48:24Z</time>
      </trkpt>
      <trkpt lat="42.57231" lon="1.96338">
        <ele>2278</ele>
        <time>2019-07-05T11:48:29Z</time>
      </trkpt>
      <trkpt lat="42.57233" lon="1.96329">
        <ele>2277</ele>
        <time>2019-07-05T11:48:38Z</time>
      </trkpt>
      <trkpt lat="42.57231" lon="1.96322">
        <ele>2276</ele>
        <time>2019-07-05T11:48:45Z</time>
      </trkpt>
      <trkpt lat="42.57226" lon="1.96311">
        <ele>2275</ele>
        <time>2019-07-05T11:48:56Z</time>
      </trkpt>
      <trkpt lat="42.57223" lon="1.96302">
        <ele>2275</ele>
        <time>2019-07-05T11:49:08Z</time>
      </trkpt>
      <trkpt lat="42.57219" lon="1.96298">
        <ele>2276</ele>
        <time>2019-07-05T11:49:18Z</time>
      </trkpt>
      <trkpt lat="42.57218" lon="1.96284">
        <ele>2276</ele>
        <time>2019-07-05T11:49:28Z</time>
      </trkpt>
      <trkpt lat="42.57215" lon="1.9628">
        <ele>2276</ele>
        <time>2019-07-05T11:49:32Z</time>
      </trkpt>
      <trkpt lat="42.57212" lon="1.96275">
        <ele>2277</ele>
        <time>2019-07-05T11:49:44Z</time>
      </trkpt>
      <trkpt lat="42.57215" lon="1.96265">
        <ele>2278</ele>
        <time>2019-07-05T11:49:55Z</time>
      </trkpt>
      <trkpt lat="42.57215" lon="1.96245">
        <ele>2280</ele>
        <time>2019-07-05T11:50:15Z</time>
      </trkpt>
      <trkpt lat="42.57212" lon="1.96235">
        <ele>2281</ele>
        <time>2019-07-05T11:50:27Z</time>
      </trkpt>
      <trkpt lat="42.57209" lon="1.96227">
        <ele>2282</ele>
        <time>2019-07-05T11:50:37Z</time>
      </trkpt>
      <trkpt lat="42.5721" lon="1.96216">
        <ele>2282</ele>
        <time>2019-07-05T11:50:47Z</time>
      </trkpt>
      <trkpt lat="42.57207" lon="1.96208">
        <ele>2284</ele>
        <time>2019-07-05T11:50:59Z</time>
      </trkpt>
      <trkpt lat="42.57202" lon="1.96202">
        <ele>2285</ele>
        <time>2019-07-05T11:51:09Z</time>
      </trkpt>
      <trkpt lat="42.57202" lon="1.96192">
        <ele>2286</ele>
        <time>2019-07-05T11:51:21Z</time>
      </trkpt>
      <trkpt lat="42.57199" lon="1.96181">
        <ele>2287</ele>
        <time>2019-07-05T11:51:36Z</time>
      </trkpt>
      <trkpt lat="42.572" lon="1.96175">
        <ele>2287</ele>
        <time>2019-07-05T11:51:41Z</time>
      </trkpt>
      <trkpt lat="42.57202" lon="1.96168">
        <ele>2288</ele>
        <time>2019-07-05T11:51:52Z</time>
      </trkpt>
      <trkpt lat="42.57202" lon="1.96161">
        <ele>2289</ele>
        <time>2019-07-05T11:52:02Z</time>
      </trkpt>
      <trkpt lat="42.57202" lon="1.96152">
        <ele>2290</ele>
        <time>2019-07-05T11:52:12Z</time>
      </trkpt>
      <trkpt lat="42.57207" lon="1.96145">
        <ele>2291</ele>
        <time>2019-07-05T11:52:22Z</time>
      </trkpt>
      <trkpt lat="42.57204" lon="1.96138">
        <ele>2292</ele>
        <time>2019-07-05T11:52:28Z</time>
      </trkpt>
      <trkpt lat="42.57207" lon="1.96132">
        <ele>2294</ele>
        <time>2019-07-05T11:52:40Z</time>
      </trkpt>
      <trkpt lat="42.57212" lon="1.96122">
        <ele>2296</ele>
        <time>2019-07-05T11:52:55Z</time>
      </trkpt>
      <trkpt lat="42.57213" lon="1.96108">
        <ele>2298</ele>
        <time>2019-07-05T11:53:17Z</time>
      </trkpt>
      <trkpt lat="42.5722" lon="1.96107">
        <ele>2300</ele>
        <time>2019-07-05T11:53:29Z</time>
      </trkpt>
      <trkpt lat="42.57222" lon="1.96098">
        <ele>2302</ele>
        <time>2019-07-05T11:53:42Z</time>
      </trkpt>
      <trkpt lat="42.57218" lon="1.9609">
        <ele>2303</ele>
        <time>2019-07-05T11:53:53Z</time>
      </trkpt>
      <trkpt lat="42.57215" lon="1.96069">
        <ele>2307</ele>
        <time>2019-07-05T11:54:24Z</time>
      </trkpt>
      <trkpt lat="42.57212" lon="1.9606">
        <ele>2309</ele>
        <time>2019-07-05T11:54:34Z</time>
      </trkpt>
      <trkpt lat="42.57213" lon="1.96052">
        <ele>2310</ele>
        <time>2019-07-05T11:54:44Z</time>
      </trkpt>
      <trkpt lat="42.57214" lon="1.96045">
        <ele>2311</ele>
        <time>2019-07-05T11:54:59Z</time>
      </trkpt>
      <trkpt lat="42.5722" lon="1.96041">
        <ele>2312</ele>
        <time>2019-07-05T11:55:07Z</time>
      </trkpt>
      <trkpt lat="42.5722" lon="1.96034">
        <ele>2314</ele>
        <time>2019-07-05T11:55:19Z</time>
      </trkpt>
      <trkpt lat="42.57223" lon="1.96021">
        <ele>2315</ele>
        <time>2019-07-05T11:55:30Z</time>
      </trkpt>
      <trkpt lat="42.57223" lon="1.96014">
        <ele>2316</ele>
        <time>2019-07-05T11:55:35Z</time>
      </trkpt>
      <trkpt lat="42.57238" lon="1.95997">
        <ele>2317</ele>
        <time>2019-07-05T11:56:00Z</time>
      </trkpt>
      <trkpt lat="42.5724" lon="1.95987">
        <ele>2318</ele>
        <time>2019-07-05T11:56:10Z</time>
      </trkpt>
      <trkpt lat="42.5724" lon="1.95975">
        <ele>2318</ele>
        <time>2019-07-05T11:56:21Z</time>
      </trkpt>
      <trkpt lat="42.57241" lon="1.95958">
        <ele>2320</ele>
        <time>2019-07-05T11:56:39Z</time>
      </trkpt>
      <trkpt lat="42.57237" lon="1.95955">
        <ele>2320</ele>
        <time>2019-07-05T11:56:56Z</time>
      </trkpt>
      <trkpt lat="42.5724" lon="1.95939">
        <ele>2321</ele>
        <time>2019-07-05T11:57:09Z</time>
      </trkpt>
      <trkpt lat="42.57247" lon="1.95922">
        <ele>2324</ele>
        <time>2019-07-05T11:57:30Z</time>
      </trkpt>
      <trkpt lat="42.57248" lon="1.95914">
        <ele>2324</ele>
        <time>2019-07-05T11:57:40Z</time>
      </trkpt>
      <trkpt lat="42.57245" lon="1.95887">
        <ele>2329</ele>
        <time>2019-07-05T11:58:16Z</time>
      </trkpt>
      <trkpt lat="42.5725" lon="1.95882">
        <ele>2329</ele>
        <time>2019-07-05T11:58:31Z</time>
      </trkpt>
      <trkpt lat="42.5725" lon="1.95875">
        <ele>2330</ele>
        <time>2019-07-05T11:58:46Z</time>
      </trkpt>
      <trkpt lat="42.57248" lon="1.95867">
        <ele>2331</ele>
        <time>2019-07-05T11:58:56Z</time>
      </trkpt>
      <trkpt lat="42.57252" lon="1.95855">
        <ele>2333</ele>
        <time>2019-07-05T11:59:10Z</time>
      </trkpt>
      <trkpt lat="42.57251" lon="1.95846">
        <ele>2334</ele>
        <time>2019-07-05T11:59:19Z</time>
      </trkpt>
      <trkpt lat="42.5725" lon="1.95836">
        <ele>2335</ele>
        <time>2019-07-05T11:59:29Z</time>
      </trkpt>
      <trkpt lat="42.57253" lon="1.95826">
        <ele>2337</ele>
        <time>2019-07-05T11:59:45Z</time>
      </trkpt>
      <trkpt lat="42.57247" lon="1.9582">
        <ele>2338</ele>
        <time>2019-07-05T11:59:55Z</time>
      </trkpt>
      <trkpt lat="42.57249" lon="1.95809">
        <ele>2340</ele>
        <time>2019-07-05T12:00:11Z</time>
      </trkpt>
      <trkpt lat="42.57247" lon="1.95802">
        <ele>2341</ele>
        <time>2019-07-05T12:00:21Z</time>
      </trkpt>
      <trkpt lat="42.57246" lon="1.95795">
        <ele>2343</ele>
        <time>2019-07-05T12:00:31Z</time>
      </trkpt>
      <trkpt lat="42.57237" lon="1.95781">
        <ele>2347</ele>
        <time>2019-07-05T12:00:58Z</time>
      </trkpt>
      <trkpt lat="42.57232" lon="1.95773">
        <ele>2347</ele>
        <time>2019-07-05T12:01:10Z</time>
      </trkpt>
      <trkpt lat="42.57232" lon="1.9578">
        <ele>2347</ele>
        <time>2019-07-05T12:01:25Z</time>
      </trkpt>
      <trkpt lat="42.57237" lon="1.9578">
        <ele>2347</ele>
        <time>2019-07-05T12:01:35Z</time>
      </trkpt>
      <trkpt lat="42.57238" lon="1.9579">
        <ele>2347</ele>
        <time>2019-07-05T12:02:10Z</time>
      </trkpt>
      <trkpt lat="42.57237" lon="1.95787">
        <ele>2347</ele>
        <time>2019-07-05T12:02:37Z</time>
      </trkpt>
      <trkpt lat="42.57232" lon="1.95783">
        <ele>2348</ele>
        <time>2019-07-05T12:02:52Z</time>
      </trkpt>
      <trkpt lat="42.57228" lon="1.95774">
        <ele>2348</ele>
        <time>2019-07-05T12:03:02Z</time>
      </trkpt>
      <trkpt lat="42.5722" lon="1.95771">
        <ele>2347</ele>
        <time>2019-07-05T12:03:29Z</time>
      </trkpt>
      <trkpt lat="42.57214" lon="1.95767">
        <ele>2349</ele>
        <time>2019-07-05T12:03:39Z</time>
      </trkpt>
      <trkpt lat="42.57206" lon="1.95746">
        <ele>2351</ele>
        <time>2019-07-05T12:03:58Z</time>
      </trkpt>
      <trkpt lat="42.57198" lon="1.95741">
        <ele>2350</ele>
        <time>2019-07-05T12:04:10Z</time>
      </trkpt>
      <trkpt lat="42.5719" lon="1.95736">
        <ele>2351</ele>
        <time>2019-07-05T12:04:22Z</time>
      </trkpt>
      <trkpt lat="42.57185" lon="1.95729">
        <ele>2351</ele>
        <time>2019-07-05T12:04:32Z</time>
      </trkpt>
      <trkpt lat="42.57182" lon="1.95721">
        <ele>2351</ele>
        <time>2019-07-05T12:04:37Z</time>
      </trkpt>
      <trkpt lat="42.57173" lon="1.95716">
        <ele>2352</ele>
        <time>2019-07-05T12:04:49Z</time>
      </trkpt>
      <trkpt lat="42.57169" lon="1.95709">
        <ele>2353</ele>
        <time>2019-07-05T12:04:57Z</time>
      </trkpt>
      <trkpt lat="42.57167" lon="1.95702">
        <ele>2353</ele>
        <time>2019-07-05T12:05:03Z</time>
      </trkpt>
      <trkpt lat="42.57162" lon="1.95698">
        <ele>2353</ele>
        <time>2019-07-05T12:05:08Z</time>
      </trkpt>
      <trkpt lat="42.57159" lon="1.95685">
        <ele>2353</ele>
        <time>2019-07-05T12:05:18Z</time>
      </trkpt>
      <trkpt lat="42.5715" lon="1.95672">
        <ele>2353</ele>
        <time>2019-07-05T12:05:33Z</time>
      </trkpt>
      <trkpt lat="42.57151" lon="1.95664">
        <ele>2354</ele>
        <time>2019-07-05T12:05:44Z</time>
      </trkpt>
      <trkpt lat="42.57151" lon="1.95651">
        <ele>2355</ele>
        <time>2019-07-05T12:05:54Z</time>
      </trkpt>
      <trkpt lat="42.57148" lon="1.9564">
        <ele>2355</ele>
        <time>2019-07-05T12:06:04Z</time>
      </trkpt>
      <trkpt lat="42.57149" lon="1.95638">
        <ele>2355</ele>
        <time>2019-07-05T12:06:29Z</time>
      </trkpt>
      <trkpt lat="42.57145" lon="1.95631">
        <ele>2356</ele>
        <time>2019-07-05T12:06:39Z</time>
      </trkpt>
      <trkpt lat="42.57142" lon="1.95625">
        <ele>2356</ele>
        <time>2019-07-05T12:06:44Z</time>
      </trkpt>
      <trkpt lat="42.57145" lon="1.95625">
        <ele>2357</ele>
        <time>2019-07-05T12:07:08Z</time>
      </trkpt>
      <trkpt lat="42.57147" lon="1.95633">
        <ele>2356</ele>
        <time>2019-07-05T12:07:15Z</time>
      </trkpt>
      <trkpt lat="42.57148" lon="1.95633">
        <ele>2354</ele>
        <time>2019-07-05T12:08:24Z</time>
      </trkpt>
      <trkpt lat="42.57147" lon="1.95627">
        <ele>2356</ele>
        <time>2019-07-05T12:08:47Z</time>
      </trkpt>
      <trkpt lat="42.57141" lon="1.95607">
        <ele>2357</ele>
        <time>2019-07-05T12:09:04Z</time>
      </trkpt>
      <trkpt lat="42.57143" lon="1.95598">
        <ele>2358</ele>
        <time>2019-07-05T12:09:11Z</time>
      </trkpt>
      <trkpt lat="42.57146" lon="1.95592">
        <ele>2358</ele>
        <time>2019-07-05T12:09:17Z</time>
      </trkpt>
      <trkpt lat="42.5715" lon="1.95579">
        <ele>2358</ele>
        <time>2019-07-05T12:09:30Z</time>
      </trkpt>
      <trkpt lat="42.57149" lon="1.95572">
        <ele>2359</ele>
        <time>2019-07-05T12:09:38Z</time>
      </trkpt>
      <trkpt lat="42.57148" lon="1.95561">
        <ele>2360</ele>
        <time>2019-07-05T12:09:53Z</time>
      </trkpt>
      <trkpt lat="42.57151" lon="1.9555">
        <ele>2360</ele>
        <time>2019-07-05T12:10:02Z</time>
      </trkpt>
      <trkpt lat="42.57153" lon="1.95541">
        <ele>2360</ele>
        <time>2019-07-05T12:10:22Z</time>
      </trkpt>
      <trkpt lat="42.57157" lon="1.95528">
        <ele>2361</ele>
        <time>2019-07-05T12:10:36Z</time>
      </trkpt>
      <trkpt lat="42.57163" lon="1.95523">
        <ele>2362</ele>
        <time>2019-07-05T12:10:43Z</time>
      </trkpt>
      <trkpt lat="42.5716" lon="1.95511">
        <ele>2362</ele>
        <time>2019-07-05T12:10:56Z</time>
      </trkpt>
      <trkpt lat="42.5716" lon="1.95503">
        <ele>2363</ele>
        <time>2019-07-05T12:11:04Z</time>
      </trkpt>
      <trkpt lat="42.57158" lon="1.95481">
        <ele>2363</ele>
        <time>2019-07-05T12:11:35Z</time>
      </trkpt>
      <trkpt lat="42.57157" lon="1.95473">
        <ele>2364</ele>
        <time>2019-07-05T12:11:52Z</time>
      </trkpt>
      <trkpt lat="42.57158" lon="1.95474">
        <ele>2364</ele>
        <time>2019-07-05T12:12:05Z</time>
      </trkpt>
      <trkpt lat="42.57161" lon="1.95466">
        <ele>2365</ele>
        <time>2019-07-05T12:13:25Z</time>
      </trkpt>
      <trkpt lat="42.57163" lon="1.95455">
        <ele>2365</ele>
        <time>2019-07-05T12:13:50Z</time>
      </trkpt>
      <trkpt lat="42.5716" lon="1.95443">
        <ele>2365</ele>
        <time>2019-07-05T12:14:00Z</time>
      </trkpt>
      <trkpt lat="42.57159" lon="1.95434">
        <ele>2366</ele>
        <time>2019-07-05T12:14:06Z</time>
      </trkpt>
      <trkpt lat="42.5716" lon="1.95428">
        <ele>2367</ele>
        <time>2019-07-05T12:14:18Z</time>
      </trkpt>
      <trkpt lat="42.57163" lon="1.95417">
        <ele>2367</ele>
        <time>2019-07-05T12:14:29Z</time>
      </trkpt>
      <trkpt lat="42.57164" lon="1.954">
        <ele>2367</ele>
        <time>2019-07-05T12:14:43Z</time>
      </trkpt>
      <trkpt lat="42.57163" lon="1.95392">
        <ele>2367</ele>
        <time>2019-07-05T12:14:49Z</time>
      </trkpt>
      <trkpt lat="42.57162" lon="1.95385">
        <ele>2367</ele>
        <time>2019-07-05T12:14:57Z</time>
      </trkpt>
      <trkpt lat="42.57163" lon="1.95375">
        <ele>2367</ele>
        <time>2019-07-05T12:15:08Z</time>
      </trkpt>
      <trkpt lat="42.5716" lon="1.95357">
        <ele>2368</ele>
        <time>2019-07-05T12:15:21Z</time>
      </trkpt>
      <trkpt lat="42.57163" lon="1.95339">
        <ele>2368</ele>
        <time>2019-07-05T12:15:40Z</time>
      </trkpt>
      <trkpt lat="42.57163" lon="1.9533">
        <ele>2368</ele>
        <time>2019-07-05T12:15:46Z</time>
      </trkpt>
      <trkpt lat="42.57156" lon="1.95323">
        <ele>2368</ele>
        <time>2019-07-05T12:15:51Z</time>
      </trkpt>
      <trkpt lat="42.57157" lon="1.95315">
        <ele>2368</ele>
        <time>2019-07-05T12:15:56Z</time>
      </trkpt>
      <trkpt lat="42.57159" lon="1.95298">
        <ele>2368</ele>
        <time>2019-07-05T12:16:07Z</time>
      </trkpt>
      <trkpt lat="42.57159" lon="1.9529">
        <ele>2368</ele>
        <time>2019-07-05T12:16:12Z</time>
      </trkpt>
      <trkpt lat="42.5716" lon="1.95281">
        <ele>2367</ele>
        <time>2019-07-05T12:16:17Z</time>
      </trkpt>
      <trkpt lat="42.57159" lon="1.95274">
        <ele>2367</ele>
        <time>2019-07-05T12:16:21Z</time>
      </trkpt>
      <trkpt lat="42.57161" lon="1.95255">
        <ele>2367</ele>
        <time>2019-07-05T12:16:35Z</time>
      </trkpt>
      <trkpt lat="42.57163" lon="1.95264">
        <ele>2366</ele>
        <time>2019-07-05T12:16:45Z</time>
      </trkpt>
      <trkpt lat="42.57166" lon="1.95263">
        <ele>2366</ele>
        <time>2019-07-05T12:18:10Z</time>
      </trkpt>
      <trkpt lat="42.57164" lon="1.95264">
        <ele>2367</ele>
        <time>2019-07-05T12:19:50Z</time>
      </trkpt>
      <trkpt lat="42.57169" lon="1.95285">
        <ele>2367</ele>
        <time>2019-07-05T12:20:09Z</time>
      </trkpt>
      <trkpt lat="42.57171" lon="1.95298">
        <ele>2365</ele>
        <time>2019-07-05T12:20:25Z</time>
      </trkpt>
      <trkpt lat="42.57172" lon="1.95304">
        <ele>2365</ele>
        <time>2019-07-05T12:20:29Z</time>
      </trkpt>
      <trkpt lat="42.57173" lon="1.9531">
        <ele>2365</ele>
        <time>2019-07-05T12:20:33Z</time>
      </trkpt>
      <trkpt lat="42.57174" lon="1.95318">
        <ele>2364</ele>
        <time>2019-07-05T12:20:38Z</time>
      </trkpt>
      <trkpt lat="42.57177" lon="1.95328">
        <ele>2364</ele>
        <time>2019-07-05T12:20:48Z</time>
      </trkpt>
      <trkpt lat="42.57182" lon="1.95347">
        <ele>2362</ele>
        <time>2019-07-05T12:21:15Z</time>
      </trkpt>
      <trkpt lat="42.57182" lon="1.95354">
        <ele>2362</ele>
        <time>2019-07-05T12:21:19Z</time>
      </trkpt>
      <trkpt lat="42.57184" lon="1.9536">
        <ele>2363</ele>
        <time>2019-07-05T12:21:23Z</time>
      </trkpt>
      <trkpt lat="42.57185" lon="1.95366">
        <ele>2363</ele>
        <time>2019-07-05T12:21:27Z</time>
      </trkpt>
      <trkpt lat="42.57188" lon="1.95377">
        <ele>2362</ele>
        <time>2019-07-05T12:21:45Z</time>
      </trkpt>
      <trkpt lat="42.57189" lon="1.95386">
        <ele>2361</ele>
        <time>2019-07-05T12:21:50Z</time>
      </trkpt>
      <trkpt lat="42.5719" lon="1.95392">
        <ele>2359</ele>
        <time>2019-07-05T12:21:54Z</time>
      </trkpt>
      <trkpt lat="42.5719" lon="1.95399">
        <ele>2359</ele>
        <time>2019-07-05T12:21:59Z</time>
      </trkpt>
      <trkpt lat="42.57195" lon="1.95406">
        <ele>2359</ele>
        <time>2019-07-05T12:22:06Z</time>
      </trkpt>
      <trkpt lat="42.57197" lon="1.95443">
        <ele>2352</ele>
        <time>2019-07-05T12:22:35Z</time>
      </trkpt>
      <trkpt lat="42.57199" lon="1.9545">
        <ele>2351</ele>
        <time>2019-07-05T12:22:40Z</time>
      </trkpt>
      <trkpt lat="42.57202" lon="1.95455">
        <ele>2350</ele>
        <time>2019-07-05T12:22:44Z</time>
      </trkpt>
      <trkpt lat="42.57208" lon="1.95456">
        <ele>2349</ele>
        <time>2019-07-05T12:22:51Z</time>
      </trkpt>
      <trkpt lat="42.57209" lon="1.95464">
        <ele>2348</ele>
        <time>2019-07-05T12:22:57Z</time>
      </trkpt>
      <trkpt lat="42.57212" lon="1.95472">
        <ele>2347</ele>
        <time>2019-07-05T12:23:07Z</time>
      </trkpt>
      <trkpt lat="42.57219" lon="1.95491">
        <ele>2345</ele>
        <time>2019-07-05T12:23:19Z</time>
      </trkpt>
      <trkpt lat="42.57225" lon="1.95499">
        <ele>2346</ele>
        <time>2019-07-05T12:23:28Z</time>
      </trkpt>
      <trkpt lat="42.5724" lon="1.95516">
        <ele>2346</ele>
        <time>2019-07-05T12:23:44Z</time>
      </trkpt>
      <trkpt lat="42.57248" lon="1.95525">
        <ele>2347</ele>
        <time>2019-07-05T12:23:53Z</time>
      </trkpt>
      <trkpt lat="42.57251" lon="1.9553">
        <ele>2347</ele>
        <time>2019-07-05T12:23:57Z</time>
      </trkpt>
      <trkpt lat="42.57262" lon="1.95548">
        <ele>2345</ele>
        <time>2019-07-05T12:24:15Z</time>
      </trkpt>
      <trkpt lat="42.5728" lon="1.95576">
        <ele>2342</ele>
        <time>2019-07-05T12:24:41Z</time>
      </trkpt>
      <trkpt lat="42.57283" lon="1.95583">
        <ele>2341</ele>
        <time>2019-07-05T12:24:46Z</time>
      </trkpt>
      <trkpt lat="42.57297" lon="1.95596">
        <ele>2340</ele>
        <time>2019-07-05T12:25:04Z</time>
      </trkpt>
      <trkpt lat="42.57305" lon="1.95596">
        <ele>2339</ele>
        <time>2019-07-05T12:25:15Z</time>
      </trkpt>
      <trkpt lat="42.57309" lon="1.95602">
        <ele>2339</ele>
        <time>2019-07-05T12:25:20Z</time>
      </trkpt>
      <trkpt lat="42.57314" lon="1.95604">
        <ele>2338</ele>
        <time>2019-07-05T12:25:25Z</time>
      </trkpt>
      <trkpt lat="42.57322" lon="1.95606">
        <ele>2338</ele>
        <time>2019-07-05T12:25:33Z</time>
      </trkpt>
      <trkpt lat="42.57327" lon="1.95609">
        <ele>2338</ele>
        <time>2019-07-05T12:25:37Z</time>
      </trkpt>
      <trkpt lat="42.57337" lon="1.95618">
        <ele>2338</ele>
        <time>2019-07-05T12:25:47Z</time>
      </trkpt>
      <trkpt lat="42.57342" lon="1.95625">
        <ele>2338</ele>
        <time>2019-07-05T12:25:53Z</time>
      </trkpt>
      <trkpt lat="42.57348" lon="1.95628">
        <ele>2338</ele>
        <time>2019-07-05T12:25:58Z</time>
      </trkpt>
      <trkpt lat="42.57354" lon="1.95626">
        <ele>2338</ele>
        <time>2019-07-05T12:26:04Z</time>
      </trkpt>
      <trkpt lat="42.57361" lon="1.95624">
        <ele>2338</ele>
        <time>2019-07-05T12:26:09Z</time>
      </trkpt>
      <trkpt lat="42.57367" lon="1.95626">
        <ele>2338</ele>
        <time>2019-07-05T12:26:14Z</time>
      </trkpt>
      <trkpt lat="42.57379" lon="1.95636">
        <ele>2339</ele>
        <time>2019-07-05T12:26:24Z</time>
      </trkpt>
      <trkpt lat="42.57391" lon="1.95646">
        <ele>2339</ele>
        <time>2019-07-05T12:26:35Z</time>
      </trkpt>
      <trkpt lat="42.57404" lon="1.95651">
        <ele>2339</ele>
        <time>2019-07-05T12:26:46Z</time>
      </trkpt>
      <trkpt lat="42.57407" lon="1.9566">
        <ele>2339</ele>
        <time>2019-07-05T12:26:51Z</time>
      </trkpt>
      <trkpt lat="42.57412" lon="1.95662">
        <ele>2340</ele>
        <time>2019-07-05T12:26:55Z</time>
      </trkpt>
      <trkpt lat="42.57419" lon="1.95668">
        <ele>2340</ele>
        <time>2019-07-05T12:27:03Z</time>
      </trkpt>
      <trkpt lat="42.57425" lon="1.9567">
        <ele>2340</ele>
        <time>2019-07-05T12:27:08Z</time>
      </trkpt>
      <trkpt lat="42.57437" lon="1.95673">
        <ele>2340</ele>
        <time>2019-07-05T12:27:17Z</time>
      </trkpt>
      <trkpt lat="42.57448" lon="1.95681">
        <ele>2339</ele>
        <time>2019-07-05T12:27:25Z</time>
      </trkpt>
      <trkpt lat="42.57451" lon="1.95684">
        <ele>2338</ele>
        <time>2019-07-05T12:27:29Z</time>
      </trkpt>
      <trkpt lat="42.57454" lon="1.9569">
        <ele>2339</ele>
        <time>2019-07-05T12:27:33Z</time>
      </trkpt>
      <trkpt lat="42.57459" lon="1.95694">
        <ele>2339</ele>
        <time>2019-07-05T12:27:37Z</time>
      </trkpt>
      <trkpt lat="42.57463" lon="1.957">
        <ele>2339</ele>
        <time>2019-07-05T12:27:41Z</time>
      </trkpt>
      <trkpt lat="42.57472" lon="1.95722">
        <ele>2337</ele>
        <time>2019-07-05T12:27:57Z</time>
      </trkpt>
      <trkpt lat="42.57478" lon="1.9573">
        <ele>2337</ele>
        <time>2019-07-05T12:28:17Z</time>
      </trkpt>
      <trkpt lat="42.57481" lon="1.95739">
        <ele>2337</ele>
        <time>2019-07-05T12:28:23Z</time>
      </trkpt>
      <trkpt lat="42.57485" lon="1.95745">
        <ele>2338</ele>
        <time>2019-07-05T12:28:28Z</time>
      </trkpt>
      <trkpt lat="42.57499" lon="1.95784">
        <ele>2336</ele>
        <time>2019-07-05T12:28:52Z</time>
      </trkpt>
      <trkpt lat="42.57504" lon="1.95789">
        <ele>2335</ele>
        <time>2019-07-05T12:28:57Z</time>
      </trkpt>
      <trkpt lat="42.5751" lon="1.95794">
        <ele>2334</ele>
        <time>2019-07-05T12:29:03Z</time>
      </trkpt>
      <trkpt lat="42.57515" lon="1.95817">
        <ele>2333</ele>
        <time>2019-07-05T12:29:16Z</time>
      </trkpt>
      <trkpt lat="42.57519" lon="1.95832">
        <ele>2334</ele>
        <time>2019-07-05T12:29:28Z</time>
      </trkpt>
      <trkpt lat="42.57522" lon="1.95837">
        <ele>2334</ele>
        <time>2019-07-05T12:29:47Z</time>
      </trkpt>
      <trkpt lat="42.57516" lon="1.95849">
        <ele>2334</ele>
        <time>2019-07-05T12:30:12Z</time>
      </trkpt>
      <trkpt lat="42.57515" lon="1.95864">
        <ele>2333</ele>
        <time>2019-07-05T12:30:28Z</time>
      </trkpt>
      <trkpt lat="42.57517" lon="1.95876">
        <ele>2331</ele>
        <time>2019-07-05T12:30:40Z</time>
      </trkpt>
      <trkpt lat="42.57526" lon="1.95894">
        <ele>2328</ele>
        <time>2019-07-05T12:30:55Z</time>
      </trkpt>
      <trkpt lat="42.57527" lon="1.95902">
        <ele>2327</ele>
        <time>2019-07-05T12:31:02Z</time>
      </trkpt>
      <trkpt lat="42.5753" lon="1.9591">
        <ele>2326</ele>
        <time>2019-07-05T12:31:13Z</time>
      </trkpt>
      <trkpt lat="42.57533" lon="1.95918">
        <ele>2326</ele>
        <time>2019-07-05T12:31:18Z</time>
      </trkpt>
      <trkpt lat="42.57543" lon="1.95969">
        <ele>2323</ele>
        <time>2019-07-05T12:31:49Z</time>
      </trkpt>
      <trkpt lat="42.57547" lon="1.95998">
        <ele>2322</ele>
        <time>2019-07-05T12:32:06Z</time>
      </trkpt>
      <trkpt lat="42.57548" lon="1.96005">
        <ele>2322</ele>
        <time>2019-07-05T12:32:10Z</time>
      </trkpt>
      <trkpt lat="42.57547" lon="1.96014">
        <ele>2322</ele>
        <time>2019-07-05T12:32:15Z</time>
      </trkpt>
      <trkpt lat="42.57547" lon="1.96022">
        <ele>2321</ele>
        <time>2019-07-05T12:32:20Z</time>
      </trkpt>
      <trkpt lat="42.57551" lon="1.96032">
        <ele>2319</ele>
        <time>2019-07-05T12:32:34Z</time>
      </trkpt>
      <trkpt lat="42.57554" lon="1.96039">
        <ele>2318</ele>
        <time>2019-07-05T12:32:41Z</time>
      </trkpt>
      <trkpt lat="42.57564" lon="1.96076">
        <ele>2318</ele>
        <time>2019-07-05T12:33:03Z</time>
      </trkpt>
      <trkpt lat="42.57565" lon="1.96084">
        <ele>2317</ele>
        <time>2019-07-05T12:33:09Z</time>
      </trkpt>
      <trkpt lat="42.57567" lon="1.961">
        <ele>2317</ele>
        <time>2019-07-05T12:33:18Z</time>
      </trkpt>
      <trkpt lat="42.57568" lon="1.96107">
        <ele>2318</ele>
        <time>2019-07-05T12:33:22Z</time>
      </trkpt>
      <trkpt lat="42.57568" lon="1.96114">
        <ele>2318</ele>
        <time>2019-07-05T12:33:26Z</time>
      </trkpt>
      <trkpt lat="42.5757" lon="1.96121">
        <ele>2317</ele>
        <time>2019-07-05T12:33:32Z</time>
      </trkpt>
      <trkpt lat="42.57568" lon="1.96122">
        <ele>2318</ele>
        <time>2019-07-05T12:33:50Z</time>
      </trkpt>
      <trkpt lat="42.57572" lon="1.96139">
        <ele>2317</ele>
        <time>2019-07-05T12:34:06Z</time>
      </trkpt>
      <trkpt lat="42.57576" lon="1.96146">
        <ele>2317</ele>
        <time>2019-07-05T12:34:10Z</time>
      </trkpt>
      <trkpt lat="42.5758" lon="1.96151">
        <ele>2316</ele>
        <time>2019-07-05T12:34:15Z</time>
      </trkpt>
      <trkpt lat="42.57587" lon="1.96175">
        <ele>2314</ele>
        <time>2019-07-05T12:34:29Z</time>
      </trkpt>
      <trkpt lat="42.57585" lon="1.96177">
        <ele>2314</ele>
        <time>2019-07-05T12:34:57Z</time>
      </trkpt>
      <trkpt lat="42.57584" lon="1.96163">
        <ele>2314</ele>
        <time>2019-07-05T12:35:18Z</time>
      </trkpt>
      <trkpt lat="42.57583" lon="1.96168">
        <ele>2314</ele>
        <time>2019-07-05T12:36:22Z</time>
      </trkpt>
      <trkpt lat="42.57588" lon="1.96174">
        <ele>2314</ele>
        <time>2019-07-05T12:36:38Z</time>
      </trkpt>
      <trkpt lat="42.57592" lon="1.96187">
        <ele>2314</ele>
        <time>2019-07-05T12:36:48Z</time>
      </trkpt>
      <trkpt lat="42.57602" lon="1.96209">
        <ele>2314</ele>
        <time>2019-07-05T12:37:04Z</time>
      </trkpt>
      <trkpt lat="42.57622" lon="1.96226">
        <ele>2314</ele>
        <time>2019-07-05T12:37:25Z</time>
      </trkpt>
      <trkpt lat="42.57629" lon="1.96241">
        <ele>2314</ele>
        <time>2019-07-05T12:37:35Z</time>
      </trkpt>
      <trkpt lat="42.57632" lon="1.96249">
        <ele>2314</ele>
        <time>2019-07-05T12:37:41Z</time>
      </trkpt>
      <trkpt lat="42.57636" lon="1.96255">
        <ele>2314</ele>
        <time>2019-07-05T12:37:48Z</time>
      </trkpt>
      <trkpt lat="42.57637" lon="1.96262">
        <ele>2314</ele>
        <time>2019-07-05T12:37:52Z</time>
      </trkpt>
      <trkpt lat="42.57642" lon="1.96282">
        <ele>2314</ele>
        <time>2019-07-05T12:38:04Z</time>
      </trkpt>
      <trkpt lat="42.57647" lon="1.9629">
        <ele>2314</ele>
        <time>2019-07-05T12:38:16Z</time>
      </trkpt>
      <trkpt lat="42.5765" lon="1.96295">
        <ele>2314</ele>
        <time>2019-07-05T12:38:20Z</time>
      </trkpt>
      <trkpt lat="42.57652" lon="1.96302">
        <ele>2314</ele>
        <time>2019-07-05T12:38:24Z</time>
      </trkpt>
      <trkpt lat="42.57649" lon="1.96315">
        <ele>2314</ele>
        <time>2019-07-05T12:38:32Z</time>
      </trkpt>
      <trkpt lat="42.5765" lon="1.96329">
        <ele>2313</ele>
        <time>2019-07-05T12:38:41Z</time>
      </trkpt>
      <trkpt lat="42.57651" lon="1.96335">
        <ele>2313</ele>
        <time>2019-07-05T12:38:44Z</time>
      </trkpt>
      <trkpt lat="42.57654" lon="1.9634">
        <ele>2313</ele>
        <time>2019-07-05T12:38:48Z</time>
      </trkpt>
      <trkpt lat="42.57656" lon="1.96347">
        <ele>2313</ele>
        <time>2019-07-05T12:38:52Z</time>
      </trkpt>
      <trkpt lat="42.57658" lon="1.96354">
        <ele>2313</ele>
        <time>2019-07-05T12:38:56Z</time>
      </trkpt>
      <trkpt lat="42.57657" lon="1.96361">
        <ele>2313</ele>
        <time>2019-07-05T12:39:00Z</time>
      </trkpt>
      <trkpt lat="42.5766" lon="1.96367">
        <ele>2312</ele>
        <time>2019-07-05T12:39:04Z</time>
      </trkpt>
      <trkpt lat="42.57662" lon="1.96374">
        <ele>2312</ele>
        <time>2019-07-05T12:39:08Z</time>
      </trkpt>
      <trkpt lat="42.57659" lon="1.96385">
        <ele>2312</ele>
        <time>2019-07-05T12:39:21Z</time>
      </trkpt>
      <trkpt lat="42.57656" lon="1.96391">
        <ele>2313</ele>
        <time>2019-07-05T12:39:31Z</time>
      </trkpt>
      <trkpt lat="42.57654" lon="1.96398">
        <ele>2313</ele>
        <time>2019-07-05T12:39:41Z</time>
      </trkpt>
      <trkpt lat="42.57658" lon="1.96398">
        <ele>2313</ele>
        <time>2019-07-05T12:39:56Z</time>
      </trkpt>
      <trkpt lat="42.57665" lon="1.96402">
        <ele>2313</ele>
        <time>2019-07-05T12:40:12Z</time>
      </trkpt>
      <trkpt lat="42.5767" lon="1.96394">
        <ele>2313</ele>
        <time>2019-07-05T12:40:28Z</time>
      </trkpt>
      <trkpt lat="42.57678" lon="1.96397">
        <ele>2314</ele>
        <time>2019-07-05T12:40:53Z</time>
      </trkpt>
      <trkpt lat="42.57683" lon="1.96397">
        <ele>2314</ele>
        <time>2019-07-05T12:40:58Z</time>
      </trkpt>
      <trkpt lat="42.57681" lon="1.964">
        <ele>2313</ele>
        <time>2019-07-05T12:41:49Z</time>
      </trkpt>
      <trkpt lat="42.57676" lon="1.96399">
        <ele>2313</ele>
        <time>2019-07-05T12:41:53Z</time>
      </trkpt>
      <trkpt lat="42.57671" lon="1.964">
        <ele>2312</ele>
        <time>2019-07-05T12:41:57Z</time>
      </trkpt>
      <trkpt lat="42.57669" lon="1.96394">
        <ele>2311</ele>
        <time>2019-07-05T12:42:06Z</time>
      </trkpt>
      <trkpt lat="42.57666" lon="1.964">
        <ele>2313</ele>
        <time>2019-07-05T12:42:36Z</time>
      </trkpt>
      <trkpt lat="42.57669" lon="1.96406">
        <ele>2313</ele>
        <time>2019-07-05T12:42:45Z</time>
      </trkpt>
      <trkpt lat="42.5767" lon="1.96418">
        <ele>2312</ele>
        <time>2019-07-05T12:42:54Z</time>
      </trkpt>
      <trkpt lat="42.57672" lon="1.96424">
        <ele>2313</ele>
        <time>2019-07-05T12:42:59Z</time>
      </trkpt>
      <trkpt lat="42.57668" lon="1.96438">
        <ele>2312</ele>
        <time>2019-07-05T12:43:07Z</time>
      </trkpt>
      <trkpt lat="42.57667" lon="1.96446">
        <ele>2312</ele>
        <time>2019-07-05T12:43:11Z</time>
      </trkpt>
      <trkpt lat="42.57668" lon="1.96453">
        <ele>2313</ele>
        <time>2019-07-05T12:43:18Z</time>
      </trkpt>
      <trkpt lat="42.57668" lon="1.96459">
        <ele>2313</ele>
        <time>2019-07-05T12:43:22Z</time>
      </trkpt>
      <trkpt lat="42.57667" lon="1.96466">
        <ele>2312</ele>
        <time>2019-07-05T12:43:26Z</time>
      </trkpt>
      <trkpt lat="42.57667" lon="1.96472">
        <ele>2312</ele>
        <time>2019-07-05T12:43:30Z</time>
      </trkpt>
      <trkpt lat="42.57663" lon="1.96485">
        <ele>2313</ele>
        <time>2019-07-05T12:43:38Z</time>
      </trkpt>
      <trkpt lat="42.57663" lon="1.96492">
        <ele>2313</ele>
        <time>2019-07-05T12:43:42Z</time>
      </trkpt>
      <trkpt lat="42.57661" lon="1.96497">
        <ele>2313</ele>
        <time>2019-07-05T12:43:46Z</time>
      </trkpt>
      <trkpt lat="42.57657" lon="1.9651">
        <ele>2313</ele>
        <time>2019-07-05T12:43:55Z</time>
      </trkpt>
      <trkpt lat="42.57652" lon="1.96515">
        <ele>2314</ele>
        <time>2019-07-05T12:44:16Z</time>
      </trkpt>
      <trkpt lat="42.5765" lon="1.96521">
        <ele>2314</ele>
        <time>2019-07-05T12:44:19Z</time>
      </trkpt>
      <trkpt lat="42.57646" lon="1.96534">
        <ele>2313</ele>
        <time>2019-07-05T12:44:28Z</time>
      </trkpt>
      <trkpt lat="42.57646" lon="1.96542">
        <ele>2313</ele>
        <time>2019-07-05T12:44:38Z</time>
      </trkpt>
      <trkpt lat="42.57645" lon="1.96549">
        <ele>2313</ele>
        <time>2019-07-05T12:44:48Z</time>
      </trkpt>
      <trkpt lat="42.5764" lon="1.96546">
        <ele>2313</ele>
        <time>2019-07-05T12:45:00Z</time>
      </trkpt>
      <trkpt lat="42.57636" lon="1.96545">
        <ele>2312</ele>
        <time>2019-07-05T12:45:17Z</time>
      </trkpt>
      <trkpt lat="42.57634" lon="1.9654">
        <ele>2311</ele>
        <time>2019-07-05T12:45:27Z</time>
      </trkpt>
      <trkpt lat="42.57627" lon="1.96537">
        <ele>2312</ele>
        <time>2019-07-05T12:45:37Z</time>
      </trkpt>
      <trkpt lat="42.57624" lon="1.96544">
        <ele>2312</ele>
        <time>2019-07-05T12:45:45Z</time>
      </trkpt>
      <trkpt lat="42.57622" lon="1.96549">
        <ele>2312</ele>
        <time>2019-07-05T12:46:09Z</time>
      </trkpt>
      <trkpt lat="42.57611" lon="1.96584">
        <ele>2313</ele>
        <time>2019-07-05T12:46:45Z</time>
      </trkpt>
      <trkpt lat="42.57609" lon="1.96592">
        <ele>2313</ele>
        <time>2019-07-05T12:46:53Z</time>
      </trkpt>
      <trkpt lat="42.57606" lon="1.96598">
        <ele>2314</ele>
        <time>2019-07-05T12:46:58Z</time>
      </trkpt>
      <trkpt lat="42.57605" lon="1.96609">
        <ele>2312</ele>
        <time>2019-07-05T12:47:26Z</time>
      </trkpt>
      <trkpt lat="42.57608" lon="1.96616">
        <ele>2311</ele>
        <time>2019-07-05T12:47:36Z</time>
      </trkpt>
      <trkpt lat="42.57614" lon="1.96619">
        <ele>2310</ele>
        <time>2019-07-05T12:47:47Z</time>
      </trkpt>
      <trkpt lat="42.57613" lon="1.9663">
        <ele>2309</ele>
        <time>2019-07-05T12:48:03Z</time>
      </trkpt>
      <trkpt lat="42.57616" lon="1.96635">
        <ele>2310</ele>
        <time>2019-07-05T12:48:08Z</time>
      </trkpt>
      <trkpt lat="42.57616" lon="1.96642">
        <ele>2310</ele>
        <time>2019-07-05T12:48:13Z</time>
      </trkpt>
      <trkpt lat="42.57616" lon="1.96649">
        <ele>2310</ele>
        <time>2019-07-05T12:48:18Z</time>
      </trkpt>
      <trkpt lat="42.57621" lon="1.9668">
        <ele>2312</ele>
        <time>2019-07-05T12:48:41Z</time>
      </trkpt>
      <trkpt lat="42.5762" lon="1.96686">
        <ele>2312</ele>
        <time>2019-07-05T12:48:48Z</time>
      </trkpt>
      <trkpt lat="42.57615" lon="1.96711">
        <ele>2316</ele>
        <time>2019-07-05T12:49:18Z</time>
      </trkpt>
      <trkpt lat="42.57611" lon="1.96721">
        <ele>2316</ele>
        <time>2019-07-05T12:49:29Z</time>
      </trkpt>
      <trkpt lat="42.57608" lon="1.96733">
        <ele>2315</ele>
        <time>2019-07-05T12:49:42Z</time>
      </trkpt>
      <trkpt lat="42.57606" lon="1.96737">
        <ele>2315</ele>
        <time>2019-07-05T12:49:46Z</time>
      </trkpt>
      <trkpt lat="42.57603" lon="1.96741">
        <ele>2315</ele>
        <time>2019-07-05T12:49:53Z</time>
      </trkpt>
      <trkpt lat="42.57602" lon="1.96747">
        <ele>2314</ele>
        <time>2019-07-05T12:50:03Z</time>
      </trkpt>
      <trkpt lat="42.57605" lon="1.96751">
        <ele>2313</ele>
        <time>2019-07-05T12:50:09Z</time>
      </trkpt>
      <trkpt lat="42.57603" lon="1.96759">
        <ele>2311</ele>
        <time>2019-07-05T12:50:19Z</time>
      </trkpt>
      <trkpt lat="42.57599" lon="1.96759">
        <ele>2309</ele>
        <time>2019-07-05T12:50:29Z</time>
      </trkpt>
      <trkpt lat="42.57592" lon="1.96773">
        <ele>2306</ele>
        <time>2019-07-05T12:50:44Z</time>
      </trkpt>
      <trkpt lat="42.57591" lon="1.96786">
        <ele>2306</ele>
        <time>2019-07-05T12:50:52Z</time>
      </trkpt>
      <trkpt lat="42.5759" lon="1.96792">
        <ele>2307</ele>
        <time>2019-07-05T12:50:57Z</time>
      </trkpt>
      <trkpt lat="42.57587" lon="1.96801">
        <ele>2308</ele>
        <time>2019-07-05T12:51:05Z</time>
      </trkpt>
      <trkpt lat="42.57584" lon="1.96816">
        <ele>2308</ele>
        <time>2019-07-05T12:51:15Z</time>
      </trkpt>
      <trkpt lat="42.57581" lon="1.96822">
        <ele>2308</ele>
        <time>2019-07-05T12:51:24Z</time>
      </trkpt>
      <trkpt lat="42.57582" lon="1.96829">
        <ele>2308</ele>
        <time>2019-07-05T12:51:28Z</time>
      </trkpt>
      <trkpt lat="42.57579" lon="1.96836">
        <ele>2308</ele>
        <time>2019-07-05T12:51:35Z</time>
      </trkpt>
      <trkpt lat="42.57576" lon="1.96856">
        <ele>2307</ele>
        <time>2019-07-05T12:51:56Z</time>
      </trkpt>
      <trkpt lat="42.57572" lon="1.96864">
        <ele>2307</ele>
        <time>2019-07-05T12:52:06Z</time>
      </trkpt>
      <trkpt lat="42.57568" lon="1.96862">
        <ele>2306</ele>
        <time>2019-07-05T12:52:11Z</time>
      </trkpt>
      <trkpt lat="42.5757" lon="1.9687">
        <ele>2306</ele>
        <time>2019-07-05T12:52:31Z</time>
      </trkpt>
      <trkpt lat="42.57568" lon="1.96877">
        <ele>2305</ele>
        <time>2019-07-05T12:52:41Z</time>
      </trkpt>
      <trkpt lat="42.57563" lon="1.9688">
        <ele>2303</ele>
        <time>2019-07-05T12:52:52Z</time>
      </trkpt>
      <trkpt lat="42.57554" lon="1.969">
        <ele>2300</ele>
        <time>2019-07-05T12:53:10Z</time>
      </trkpt>
      <trkpt lat="42.57555" lon="1.96907">
        <ele>2300</ele>
        <time>2019-07-05T12:53:14Z</time>
      </trkpt>
      <trkpt lat="42.57553" lon="1.96922">
        <ele>2298</ele>
        <time>2019-07-05T12:53:26Z</time>
      </trkpt>
      <trkpt lat="42.57559" lon="1.96938">
        <ele>2295</ele>
        <time>2019-07-05T12:53:41Z</time>
      </trkpt>
      <trkpt lat="42.57559" lon="1.96947">
        <ele>2295</ele>
        <time>2019-07-05T12:53:51Z</time>
      </trkpt>
      <trkpt lat="42.57559" lon="1.96962">
        <ele>2293</ele>
        <time>2019-07-05T12:54:11Z</time>
      </trkpt>
      <trkpt lat="42.57552" lon="1.9696">
        <ele>2292</ele>
        <time>2019-07-05T12:54:22Z</time>
      </trkpt>
      <trkpt lat="42.57547" lon="1.9696">
        <ele>2292</ele>
        <time>2019-07-05T12:54:29Z</time>
      </trkpt>
      <trkpt lat="42.57543" lon="1.96966">
        <ele>2290</ele>
        <time>2019-07-05T12:54:44Z</time>
      </trkpt>
      <trkpt lat="42.57542" lon="1.96973">
        <ele>2289</ele>
        <time>2019-07-05T12:54:54Z</time>
      </trkpt>
      <trkpt lat="42.57538" lon="1.96982">
        <ele>2287</ele>
        <time>2019-07-05T12:55:04Z</time>
      </trkpt>
      <trkpt lat="42.57536" lon="1.96992">
        <ele>2285</ele>
        <time>2019-07-05T12:55:15Z</time>
      </trkpt>
      <trkpt lat="42.57535" lon="1.96999">
        <ele>2285</ele>
        <time>2019-07-05T12:55:27Z</time>
      </trkpt>
      <trkpt lat="42.57531" lon="1.97005">
        <ele>2283</ele>
        <time>2019-07-05T12:55:41Z</time>
      </trkpt>
      <trkpt lat="42.57526" lon="1.9701">
        <ele>2281</ele>
        <time>2019-07-05T12:56:06Z</time>
      </trkpt>
      <trkpt lat="42.57526" lon="1.9702">
        <ele>2278</ele>
        <time>2019-07-05T12:56:21Z</time>
      </trkpt>
      <trkpt lat="42.57524" lon="1.97027">
        <ele>2277</ele>
        <time>2019-07-05T12:56:27Z</time>
      </trkpt>
      <trkpt lat="42.57526" lon="1.97032">
        <ele>2276</ele>
        <time>2019-07-05T12:56:33Z</time>
      </trkpt>
      <trkpt lat="42.57525" lon="1.9704">
        <ele>2274</ele>
        <time>2019-07-05T12:56:43Z</time>
      </trkpt>
      <trkpt lat="42.57516" lon="1.97055">
        <ele>2272</ele>
        <time>2019-07-05T12:57:02Z</time>
      </trkpt>
      <trkpt lat="42.5751" lon="1.97058">
        <ele>2272</ele>
        <time>2019-07-05T12:57:11Z</time>
      </trkpt>
      <trkpt lat="42.57509" lon="1.97064">
        <ele>2271</ele>
        <time>2019-07-05T12:57:16Z</time>
      </trkpt>
      <trkpt lat="42.575" lon="1.97094">
        <ele>2266</ele>
        <time>2019-07-05T12:57:48Z</time>
      </trkpt>
      <trkpt lat="42.57495" lon="1.97119">
        <ele>2261</ele>
        <time>2019-07-05T12:58:21Z</time>
      </trkpt>
      <trkpt lat="42.57491" lon="1.97133">
        <ele>2260</ele>
        <time>2019-07-05T12:58:36Z</time>
      </trkpt>
      <trkpt lat="42.57489" lon="1.97137">
        <ele>2260</ele>
        <time>2019-07-05T12:58:48Z</time>
      </trkpt>
      <trkpt lat="42.57485" lon="1.97148">
        <ele>2257</ele>
        <time>2019-07-05T12:58:58Z</time>
      </trkpt>
      <trkpt lat="42.57485" lon="1.97154">
        <ele>2256</ele>
        <time>2019-07-05T12:59:03Z</time>
      </trkpt>
      <trkpt lat="42.57479" lon="1.97166">
        <ele>2255</ele>
        <time>2019-07-05T12:59:16Z</time>
      </trkpt>
      <trkpt lat="42.57479" lon="1.97177">
        <ele>2253</ele>
        <time>2019-07-05T12:59:26Z</time>
      </trkpt>
      <trkpt lat="42.57476" lon="1.97184">
        <ele>2252</ele>
        <time>2019-07-05T12:59:36Z</time>
      </trkpt>
      <trkpt lat="42.57472" lon="1.97192">
        <ele>2251</ele>
        <time>2019-07-05T12:59:51Z</time>
      </trkpt>
      <trkpt lat="42.57467" lon="1.97197">
        <ele>2250</ele>
        <time>2019-07-05T13:00:11Z</time>
      </trkpt>
      <trkpt lat="42.57461" lon="1.97201">
        <ele>2248</ele>
        <time>2019-07-05T13:00:21Z</time>
      </trkpt>
      <trkpt lat="42.57457" lon="1.97204">
        <ele>2247</ele>
        <time>2019-07-05T13:00:27Z</time>
      </trkpt>
      <trkpt lat="42.57452" lon="1.97213">
        <ele>2245</ele>
        <time>2019-07-05T13:00:36Z</time>
      </trkpt>
      <trkpt lat="42.57452" lon="1.9722">
        <ele>2245</ele>
        <time>2019-07-05T13:00:40Z</time>
      </trkpt>
      <trkpt lat="42.5745" lon="1.97234">
        <ele>2244</ele>
        <time>2019-07-05T13:00:51Z</time>
      </trkpt>
      <trkpt lat="42.57451" lon="1.97244">
        <ele>2244</ele>
        <time>2019-07-05T13:00:59Z</time>
      </trkpt>
      <trkpt lat="42.5746" lon="1.9726">
        <ele>2244</ele>
        <time>2019-07-05T13:01:12Z</time>
      </trkpt>
      <trkpt lat="42.57457" lon="1.97255">
        <ele>2244</ele>
        <time>2019-07-05T13:01:26Z</time>
      </trkpt>
      <trkpt lat="42.57451" lon="1.97245">
        <ele>2243</ele>
        <time>2019-07-05T13:01:33Z</time>
      </trkpt>
      <trkpt lat="42.57447" lon="1.97241">
        <ele>2243</ele>
        <time>2019-07-05T13:01:37Z</time>
      </trkpt>
      <trkpt lat="42.57442" lon="1.97244">
        <ele>2243</ele>
        <time>2019-07-05T13:02:29Z</time>
      </trkpt>
      <trkpt lat="42.57437" lon="1.97249">
        <ele>2243</ele>
        <time>2019-07-05T13:02:45Z</time>
      </trkpt>
      <trkpt lat="42.57433" lon="1.97242">
        <ele>2242</ele>
        <time>2019-07-05T13:02:55Z</time>
      </trkpt>
      <trkpt lat="42.57429" lon="1.97239">
        <ele>2242</ele>
        <time>2019-07-05T13:03:00Z</time>
      </trkpt>
      <trkpt lat="42.57425" lon="1.97242">
        <ele>2240</ele>
        <time>2019-07-05T13:03:12Z</time>
      </trkpt>
      <trkpt lat="42.57418" lon="1.97246">
        <ele>2240</ele>
        <time>2019-07-05T13:03:23Z</time>
      </trkpt>
      <trkpt lat="42.57419" lon="1.97252">
        <ele>2239</ele>
        <time>2019-07-05T13:04:09Z</time>
      </trkpt>
      <trkpt lat="42.57417" lon="1.97257">
        <ele>2239</ele>
        <time>2019-07-05T13:04:15Z</time>
      </trkpt>
      <trkpt lat="42.57413" lon="1.97262">
        <ele>2239</ele>
        <time>2019-07-05T13:04:25Z</time>
      </trkpt>
      <trkpt lat="42.5741" lon="1.97273">
        <ele>2239</ele>
        <time>2019-07-05T13:04:49Z</time>
      </trkpt>
      <trkpt lat="42.57407" lon="1.97278">
        <ele>2239</ele>
        <time>2019-07-05T13:04:51Z</time>
      </trkpt>
      <trkpt lat="42.57403" lon="1.97283">
        <ele>2239</ele>
        <time>2019-07-05T13:04:57Z</time>
      </trkpt>
      <trkpt lat="42.57396" lon="1.97292">
        <ele>2240</ele>
        <time>2019-07-05T13:05:04Z</time>
      </trkpt>
      <trkpt lat="42.57394" lon="1.97298">
        <ele>2240</ele>
        <time>2019-07-05T13:05:08Z</time>
      </trkpt>
      <trkpt lat="42.57392" lon="1.97304">
        <ele>2240</ele>
        <time>2019-07-05T13:05:12Z</time>
      </trkpt>
      <trkpt lat="42.5739" lon="1.97321">
        <ele>2241</ele>
        <time>2019-07-05T13:05:21Z</time>
      </trkpt>
      <trkpt lat="42.57387" lon="1.97325">
        <ele>2241</ele>
        <time>2019-07-05T13:05:25Z</time>
      </trkpt>
      <trkpt lat="42.57387" lon="1.97325">
        <ele>2242</ele>
        <time>2019-07-05T13:05:52Z</time>
      </trkpt>
      <trkpt lat="42.5739" lon="1.97331">
        <ele>2242</ele>
        <time>2019-07-05T13:05:56Z</time>
      </trkpt>
      <trkpt lat="42.5739" lon="1.97338">
        <ele>2242</ele>
        <time>2019-07-05T13:06:08Z</time>
      </trkpt>
      <trkpt lat="42.57391" lon="1.97352">
        <ele>2245</ele>
        <time>2019-07-05T13:06:18Z</time>
      </trkpt>
      <trkpt lat="42.5739" lon="1.97359">
        <ele>2245</ele>
        <time>2019-07-05T13:06:22Z</time>
      </trkpt>
      <trkpt lat="42.57387" lon="1.97373">
        <ele>2246</ele>
        <time>2019-07-05T13:06:30Z</time>
      </trkpt>
      <trkpt lat="42.57385" lon="1.97378">
        <ele>2246</ele>
        <time>2019-07-05T13:06:34Z</time>
      </trkpt>
      <trkpt lat="42.57384" lon="1.97384">
        <ele>2246</ele>
        <time>2019-07-05T13:06:38Z</time>
      </trkpt>
      <trkpt lat="42.57381" lon="1.97388">
        <ele>2246</ele>
        <time>2019-07-05T13:06:42Z</time>
      </trkpt>
      <trkpt lat="42.5738" lon="1.97394">
        <ele>2246</ele>
        <time>2019-07-05T13:06:46Z</time>
      </trkpt>
      <trkpt lat="42.57375" lon="1.97406">
        <ele>2245</ele>
        <time>2019-07-05T13:06:56Z</time>
      </trkpt>
      <trkpt lat="42.57371" lon="1.97421">
        <ele>2244</ele>
        <time>2019-07-05T13:07:07Z</time>
      </trkpt>
      <trkpt lat="42.57371" lon="1.97427">
        <ele>2244</ele>
        <time>2019-07-05T13:07:10Z</time>
      </trkpt>
      <trkpt lat="42.5737" lon="1.97432">
        <ele>2244</ele>
        <time>2019-07-05T13:07:14Z</time>
      </trkpt>
      <trkpt lat="42.57365" lon="1.97443">
        <ele>2243</ele>
        <time>2019-07-05T13:07:22Z</time>
      </trkpt>
      <trkpt lat="42.57363" lon="1.9745">
        <ele>2244</ele>
        <time>2019-07-05T13:07:26Z</time>
      </trkpt>
      <trkpt lat="42.57359" lon="1.97456">
        <ele>2244</ele>
        <time>2019-07-05T13:07:44Z</time>
      </trkpt>
      <trkpt lat="42.57357" lon="1.97462">
        <ele>2244</ele>
        <time>2019-07-05T13:07:48Z</time>
      </trkpt>
      <trkpt lat="42.57353" lon="1.97467">
        <ele>2243</ele>
        <time>2019-07-05T13:07:54Z</time>
      </trkpt>
      <trkpt lat="42.57347" lon="1.97475">
        <ele>2243</ele>
        <time>2019-07-05T13:08:02Z</time>
      </trkpt>
      <trkpt lat="42.57344" lon="1.97481">
        <ele>2243</ele>
        <time>2019-07-05T13:08:06Z</time>
      </trkpt>
      <trkpt lat="42.57342" lon="1.97486">
        <ele>2243</ele>
        <time>2019-07-05T13:08:09Z</time>
      </trkpt>
      <trkpt lat="42.57339" lon="1.97489">
        <ele>2243</ele>
        <time>2019-07-05T13:08:13Z</time>
      </trkpt>
      <trkpt lat="42.57336" lon="1.97494">
        <ele>2243</ele>
        <time>2019-07-05T13:08:16Z</time>
      </trkpt>
      <trkpt lat="42.57322" lon="1.97515">
        <ele>2241</ele>
        <time>2019-07-05T13:08:34Z</time>
      </trkpt>
      <trkpt lat="42.57319" lon="1.97519">
        <ele>2241</ele>
        <time>2019-07-05T13:08:38Z</time>
      </trkpt>
      <trkpt lat="42.57316" lon="1.97524">
        <ele>2240</ele>
        <time>2019-07-05T13:08:42Z</time>
      </trkpt>
      <trkpt lat="42.57312" lon="1.97527">
        <ele>2239</ele>
        <time>2019-07-05T13:08:49Z</time>
      </trkpt>
      <trkpt lat="42.57313" lon="1.97538">
        <ele>2237</ele>
        <time>2019-07-05T13:09:00Z</time>
      </trkpt>
      <trkpt lat="42.57308" lon="1.97548">
        <ele>2236</ele>
        <time>2019-07-05T13:09:08Z</time>
      </trkpt>
      <trkpt lat="42.57307" lon="1.97554">
        <ele>2235</ele>
        <time>2019-07-05T13:09:13Z</time>
      </trkpt>
      <trkpt lat="42.57302" lon="1.97564">
        <ele>2234</ele>
        <time>2019-07-05T13:09:21Z</time>
      </trkpt>
      <trkpt lat="42.57298" lon="1.9757">
        <ele>2233</ele>
        <time>2019-07-05T13:09:28Z</time>
      </trkpt>
      <trkpt lat="42.57294" lon="1.97577">
        <ele>2233</ele>
        <time>2019-07-05T13:09:34Z</time>
      </trkpt>
      <trkpt lat="42.57289" lon="1.97582">
        <ele>2232</ele>
        <time>2019-07-05T13:09:42Z</time>
      </trkpt>
      <trkpt lat="42.57278" lon="1.97602">
        <ele>2230</ele>
        <time>2019-07-05T13:10:06Z</time>
      </trkpt>
      <trkpt lat="42.57275" lon="1.97613">
        <ele>2230</ele>
        <time>2019-07-05T13:10:23Z</time>
      </trkpt>
      <trkpt lat="42.57274" lon="1.97621">
        <ele>2230</ele>
        <time>2019-07-05T13:10:30Z</time>
      </trkpt>
      <trkpt lat="42.57268" lon="1.97631">
        <ele>2228</ele>
        <time>2019-07-05T13:10:39Z</time>
      </trkpt>
      <trkpt lat="42.57266" lon="1.97643">
        <ele>2227</ele>
        <time>2019-07-05T13:10:47Z</time>
      </trkpt>
      <trkpt lat="42.57266" lon="1.97649">
        <ele>2227</ele>
        <time>2019-07-05T13:10:50Z</time>
      </trkpt>
      <trkpt lat="42.57267" lon="1.97654">
        <ele>2227</ele>
        <time>2019-07-05T13:10:54Z</time>
      </trkpt>
      <trkpt lat="42.57266" lon="1.97662">
        <ele>2226</ele>
        <time>2019-07-05T13:11:01Z</time>
      </trkpt>
      <trkpt lat="42.57264" lon="1.97668">
        <ele>2225</ele>
        <time>2019-07-05T13:11:08Z</time>
      </trkpt>
      <trkpt lat="42.5726" lon="1.97673">
        <ele>2225</ele>
        <time>2019-07-05T13:11:14Z</time>
      </trkpt>
      <trkpt lat="42.57255" lon="1.97675">
        <ele>2224</ele>
        <time>2019-07-05T13:11:19Z</time>
      </trkpt>
      <trkpt lat="42.5725" lon="1.97678">
        <ele>2224</ele>
        <time>2019-07-05T13:11:26Z</time>
      </trkpt>
      <trkpt lat="42.57242" lon="1.97688">
        <ele>2224</ele>
        <time>2019-07-05T13:11:35Z</time>
      </trkpt>
      <trkpt lat="42.57237" lon="1.97698">
        <ele>2224</ele>
        <time>2019-07-05T13:11:43Z</time>
      </trkpt>
      <trkpt lat="42.57235" lon="1.97704">
        <ele>2224</ele>
        <time>2019-07-05T13:11:50Z</time>
      </trkpt>
      <trkpt lat="42.57234" lon="1.97722">
        <ele>2222</ele>
        <time>2019-07-05T13:12:03Z</time>
      </trkpt>
      <trkpt lat="42.57231" lon="1.97725">
        <ele>2221</ele>
        <time>2019-07-05T13:12:08Z</time>
      </trkpt>
      <trkpt lat="42.57226" lon="1.97725">
        <ele>2220</ele>
        <time>2019-07-05T13:12:13Z</time>
      </trkpt>
      <trkpt lat="42.57223" lon="1.97738">
        <ele>2219</ele>
        <time>2019-07-05T13:12:20Z</time>
      </trkpt>
      <trkpt lat="42.57217" lon="1.97747">
        <ele>2218</ele>
        <time>2019-07-05T13:12:28Z</time>
      </trkpt>
      <trkpt lat="42.5721" lon="1.97756">
        <ele>2217</ele>
        <time>2019-07-05T13:12:37Z</time>
      </trkpt>
      <trkpt lat="42.57204" lon="1.9776">
        <ele>2216</ele>
        <time>2019-07-05T13:12:44Z</time>
      </trkpt>
      <trkpt lat="42.572" lon="1.97765">
        <ele>2216</ele>
        <time>2019-07-05T13:12:48Z</time>
      </trkpt>
      <trkpt lat="42.57193" lon="1.97767">
        <ele>2217</ele>
        <time>2019-07-05T13:12:57Z</time>
      </trkpt>
      <trkpt lat="42.57189" lon="1.97773">
        <ele>2216</ele>
        <time>2019-07-05T13:13:01Z</time>
      </trkpt>
      <trkpt lat="42.57187" lon="1.97778">
        <ele>2216</ele>
        <time>2019-07-05T13:13:05Z</time>
      </trkpt>
      <trkpt lat="42.57183" lon="1.97784">
        <ele>2215</ele>
        <time>2019-07-05T13:13:13Z</time>
      </trkpt>
      <trkpt lat="42.57179" lon="1.97788">
        <ele>2215</ele>
        <time>2019-07-05T13:13:17Z</time>
      </trkpt>
      <trkpt lat="42.57174" lon="1.97801">
        <ele>2214</ele>
        <time>2019-07-05T13:13:26Z</time>
      </trkpt>
      <trkpt lat="42.57168" lon="1.97804">
        <ele>2212</ele>
        <time>2019-07-05T13:13:33Z</time>
      </trkpt>
      <trkpt lat="42.57165" lon="1.97809">
        <ele>2212</ele>
        <time>2019-07-05T13:13:38Z</time>
      </trkpt>
      <trkpt lat="42.57162" lon="1.97816">
        <ele>2211</ele>
        <time>2019-07-05T13:13:46Z</time>
      </trkpt>
      <trkpt lat="42.57157" lon="1.97822">
        <ele>2210</ele>
        <time>2019-07-05T13:13:54Z</time>
      </trkpt>
      <trkpt lat="42.57148" lon="1.97837">
        <ele>2208</ele>
        <time>2019-07-05T13:14:10Z</time>
      </trkpt>
      <trkpt lat="42.57143" lon="1.97835">
        <ele>2207</ele>
        <time>2019-07-05T13:14:23Z</time>
      </trkpt>
      <trkpt lat="42.5714" lon="1.97844">
        <ele>2207</ele>
        <time>2019-07-05T13:14:33Z</time>
      </trkpt>
      <trkpt lat="42.57133" lon="1.97855">
        <ele>2205</ele>
        <time>2019-07-05T13:14:49Z</time>
      </trkpt>
      <trkpt lat="42.57136" lon="1.97863">
        <ele>2203</ele>
        <time>2019-07-05T13:14:59Z</time>
      </trkpt>
      <trkpt lat="42.57132" lon="1.97871">
        <ele>2201</ele>
        <time>2019-07-05T13:15:09Z</time>
      </trkpt>
      <trkpt lat="42.57127" lon="1.97873">
        <ele>2200</ele>
        <time>2019-07-05T13:15:14Z</time>
      </trkpt>
      <trkpt lat="42.57116" lon="1.97876">
        <ele>2198</ele>
        <time>2019-07-05T13:15:29Z</time>
      </trkpt>
      <trkpt lat="42.57112" lon="1.9788">
        <ele>2197</ele>
        <time>2019-07-05T13:15:33Z</time>
      </trkpt>
      <trkpt lat="42.57107" lon="1.97883">
        <ele>2197</ele>
        <time>2019-07-05T13:15:45Z</time>
      </trkpt>
      <trkpt lat="42.57106" lon="1.9789">
        <ele>2195</ele>
        <time>2019-07-05T13:16:00Z</time>
      </trkpt>
      <trkpt lat="42.571" lon="1.97891">
        <ele>2194</ele>
        <time>2019-07-05T13:16:05Z</time>
      </trkpt>
      <trkpt lat="42.57097" lon="1.97887">
        <ele>2193</ele>
        <time>2019-07-05T13:16:10Z</time>
      </trkpt>
      <trkpt lat="42.57092" lon="1.97891">
        <ele>2193</ele>
        <time>2019-07-05T13:16:15Z</time>
      </trkpt>
      <trkpt lat="42.57088" lon="1.97891">
        <ele>2192</ele>
        <time>2019-07-05T13:16:20Z</time>
      </trkpt>
      <trkpt lat="42.57082" lon="1.97894">
        <ele>2191</ele>
        <time>2019-07-05T13:16:28Z</time>
      </trkpt>
      <trkpt lat="42.57076" lon="1.97897">
        <ele>2189</ele>
        <time>2019-07-05T13:16:40Z</time>
      </trkpt>
      <trkpt lat="42.57072" lon="1.97896">
        <ele>2188</ele>
        <time>2019-07-05T13:16:45Z</time>
      </trkpt>
      <trkpt lat="42.57069" lon="1.979">
        <ele>2188</ele>
        <time>2019-07-05T13:16:50Z</time>
      </trkpt>
      <trkpt lat="42.57064" lon="1.97903">
        <ele>2188</ele>
        <time>2019-07-05T13:16:54Z</time>
      </trkpt>
      <trkpt lat="42.5705" lon="1.97918">
        <ele>2185</ele>
        <time>2019-07-05T13:17:09Z</time>
      </trkpt>
      <trkpt lat="42.57038" lon="1.97929">
        <ele>2183</ele>
        <time>2019-07-05T13:17:21Z</time>
      </trkpt>
      <trkpt lat="42.57034" lon="1.97935">
        <ele>2182</ele>
        <time>2019-07-05T13:17:25Z</time>
      </trkpt>
      <trkpt lat="42.57028" lon="1.97939">
        <ele>2182</ele>
        <time>2019-07-05T13:17:33Z</time>
      </trkpt>
      <trkpt lat="42.57025" lon="1.97944">
        <ele>2182</ele>
        <time>2019-07-05T13:17:37Z</time>
      </trkpt>
      <trkpt lat="42.57025" lon="1.97952">
        <ele>2181</ele>
        <time>2019-07-05T13:17:41Z</time>
      </trkpt>
      <trkpt lat="42.57022" lon="1.97959">
        <ele>2182</ele>
        <time>2019-07-05T13:17:50Z</time>
      </trkpt>
      <trkpt lat="42.57018" lon="1.97957">
        <ele>2182</ele>
        <time>2019-07-05T13:17:55Z</time>
      </trkpt>
      <trkpt lat="42.57012" lon="1.97958">
        <ele>2182</ele>
        <time>2019-07-05T13:18:00Z</time>
      </trkpt>
      <trkpt lat="42.57007" lon="1.97956">
        <ele>2182</ele>
        <time>2019-07-05T13:18:07Z</time>
      </trkpt>
      <trkpt lat="42.57004" lon="1.97952">
        <ele>2181</ele>
        <time>2019-07-05T13:18:11Z</time>
      </trkpt>
      <trkpt lat="42.57" lon="1.97949">
        <ele>2181</ele>
        <time>2019-07-05T13:18:16Z</time>
      </trkpt>
      <trkpt lat="42.56997" lon="1.97946">
        <ele>2181</ele>
        <time>2019-07-05T13:18:20Z</time>
      </trkpt>
      <trkpt lat="42.56991" lon="1.97941">
        <ele>2182</ele>
        <time>2019-07-05T13:18:26Z</time>
      </trkpt>
      <trkpt lat="42.56987" lon="1.97932">
        <ele>2181</ele>
        <time>2019-07-05T13:18:33Z</time>
      </trkpt>
      <trkpt lat="42.56983" lon="1.9793">
        <ele>2182</ele>
        <time>2019-07-05T13:18:41Z</time>
      </trkpt>
      <trkpt lat="42.56973" lon="1.97936">
        <ele>2182</ele>
        <time>2019-07-05T13:18:51Z</time>
      </trkpt>
      <trkpt lat="42.56971" lon="1.97942">
        <ele>2182</ele>
        <time>2019-07-05T13:18:55Z</time>
      </trkpt>
      <trkpt lat="42.56967" lon="1.97946">
        <ele>2182</ele>
        <time>2019-07-05T13:19:00Z</time>
      </trkpt>
      <trkpt lat="42.56965" lon="1.97952">
        <ele>2182</ele>
        <time>2019-07-05T13:19:04Z</time>
      </trkpt>
      <trkpt lat="42.56962" lon="1.97968">
        <ele>2181</ele>
        <time>2019-07-05T13:19:13Z</time>
      </trkpt>
      <trkpt lat="42.56958" lon="1.97975">
        <ele>2181</ele>
        <time>2019-07-05T13:19:27Z</time>
      </trkpt>
      <trkpt lat="42.56955" lon="1.97981">
        <ele>2181</ele>
        <time>2019-07-05T13:19:32Z</time>
      </trkpt>
      <trkpt lat="42.5695" lon="1.97985">
        <ele>2181</ele>
        <time>2019-07-05T13:19:44Z</time>
      </trkpt>
      <trkpt lat="42.56944" lon="1.97989">
        <ele>2181</ele>
        <time>2019-07-05T13:19:50Z</time>
      </trkpt>
      <trkpt lat="42.56939" lon="1.97994">
        <ele>2181</ele>
        <time>2019-07-05T13:19:56Z</time>
      </trkpt>
      <trkpt lat="42.56937" lon="1.98002">
        <ele>2182</ele>
        <time>2019-07-05T13:20:02Z</time>
      </trkpt>
      <trkpt lat="42.56934" lon="1.98009">
        <ele>2182</ele>
        <time>2019-07-05T13:20:07Z</time>
      </trkpt>
      <trkpt lat="42.5693" lon="1.98013">
        <ele>2182</ele>
        <time>2019-07-05T13:20:11Z</time>
      </trkpt>
      <trkpt lat="42.56928" lon="1.98021">
        <ele>2182</ele>
        <time>2019-07-05T13:20:15Z</time>
      </trkpt>
      <trkpt lat="42.56923" lon="1.98026">
        <ele>2182</ele>
        <time>2019-07-05T13:20:19Z</time>
      </trkpt>
      <trkpt lat="42.56916" lon="1.98036">
        <ele>2180</ele>
        <time>2019-07-05T13:20:27Z</time>
      </trkpt>
      <trkpt lat="42.56911" lon="1.98038">
        <ele>2180</ele>
        <time>2019-07-05T13:20:31Z</time>
      </trkpt>
      <trkpt lat="42.56907" lon="1.98042">
        <ele>2180</ele>
        <time>2019-07-05T13:20:35Z</time>
      </trkpt>
      <trkpt lat="42.56903" lon="1.98047">
        <ele>2180</ele>
        <time>2019-07-05T13:20:39Z</time>
      </trkpt>
      <trkpt lat="42.56898" lon="1.98052">
        <ele>2179</ele>
        <time>2019-07-05T13:20:44Z</time>
      </trkpt>
      <trkpt lat="42.5689" lon="1.98063">
        <ele>2179</ele>
        <time>2019-07-05T13:20:53Z</time>
      </trkpt>
      <trkpt lat="42.56886" lon="1.98065">
        <ele>2179</ele>
        <time>2019-07-05T13:20:57Z</time>
      </trkpt>
      <trkpt lat="42.5688" lon="1.98073">
        <ele>2179</ele>
        <time>2019-07-05T13:21:07Z</time>
      </trkpt>
      <trkpt lat="42.56864" lon="1.98077">
        <ele>2179</ele>
        <time>2019-07-05T13:21:23Z</time>
      </trkpt>
      <trkpt lat="42.5686" lon="1.98079">
        <ele>2179</ele>
        <time>2019-07-05T13:21:27Z</time>
      </trkpt>
      <trkpt lat="42.56839" lon="1.9808">
        <ele>2178</ele>
        <time>2019-07-05T13:21:45Z</time>
      </trkpt>
      <trkpt lat="42.56834" lon="1.98084">
        <ele>2178</ele>
        <time>2019-07-05T13:21:49Z</time>
      </trkpt>
      <trkpt lat="42.56823" lon="1.98103">
        <ele>2177</ele>
        <time>2019-07-05T13:22:07Z</time>
      </trkpt>
      <trkpt lat="42.56819" lon="1.9811">
        <ele>2178</ele>
        <time>2019-07-05T13:22:12Z</time>
      </trkpt>
      <trkpt lat="42.56817" lon="1.98109">
        <ele>2177</ele>
        <time>2019-07-05T13:22:25Z</time>
      </trkpt>
      <trkpt lat="42.56817" lon="1.98117">
        <ele>2177</ele>
        <time>2019-07-05T13:24:06Z</time>
      </trkpt>
      <trkpt lat="42.56814" lon="1.98123">
        <ele>2176</ele>
        <time>2019-07-05T13:24:10Z</time>
      </trkpt>
      <trkpt lat="42.5681" lon="1.98128">
        <ele>2176</ele>
        <time>2019-07-05T13:24:15Z</time>
      </trkpt>
      <trkpt lat="42.56807" lon="1.98135">
        <ele>2175</ele>
        <time>2019-07-05T13:24:18Z</time>
      </trkpt>
      <trkpt lat="42.56798" lon="1.98137">
        <ele>2174</ele>
        <time>2019-07-05T13:24:27Z</time>
      </trkpt>
      <trkpt lat="42.56792" lon="1.98139">
        <ele>2174</ele>
        <time>2019-07-05T13:24:31Z</time>
      </trkpt>
      <trkpt lat="42.56784" lon="1.98146">
        <ele>2174</ele>
        <time>2019-07-05T13:24:37Z</time>
      </trkpt>
      <trkpt lat="42.56777" lon="1.98157">
        <ele>2173</ele>
        <time>2019-07-05T13:24:45Z</time>
      </trkpt>
      <trkpt lat="42.56772" lon="1.98166">
        <ele>2174</ele>
        <time>2019-07-05T13:24:55Z</time>
      </trkpt>
      <trkpt lat="42.56764" lon="1.98178">
        <ele>2174</ele>
        <time>2019-07-05T13:25:08Z</time>
      </trkpt>
      <trkpt lat="42.56758" lon="1.9818">
        <ele>2173</ele>
        <time>2019-07-05T13:25:13Z</time>
      </trkpt>
      <trkpt lat="42.56755" lon="1.98186">
        <ele>2173</ele>
        <time>2019-07-05T13:25:18Z</time>
      </trkpt>
      <trkpt lat="42.56752" lon="1.98194">
        <ele>2173</ele>
        <time>2019-07-05T13:25:23Z</time>
      </trkpt>
      <trkpt lat="42.5675" lon="1.98212">
        <ele>2173</ele>
        <time>2019-07-05T13:25:33Z</time>
      </trkpt>
      <trkpt lat="42.5675" lon="1.9822">
        <ele>2173</ele>
        <time>2019-07-05T13:25:37Z</time>
      </trkpt>
      <trkpt lat="42.56748" lon="1.98227">
        <ele>2172</ele>
        <time>2019-07-05T13:25:44Z</time>
      </trkpt>
      <trkpt lat="42.56732" lon="1.98231">
        <ele>2170</ele>
        <time>2019-07-05T13:25:59Z</time>
      </trkpt>
      <trkpt lat="42.56727" lon="1.98233">
        <ele>2169</ele>
        <time>2019-07-05T13:26:04Z</time>
      </trkpt>
      <trkpt lat="42.56722" lon="1.98235">
        <ele>2169</ele>
        <time>2019-07-05T13:26:08Z</time>
      </trkpt>
      <trkpt lat="42.56713" lon="1.98236">
        <ele>2168</ele>
        <time>2019-07-05T13:26:18Z</time>
      </trkpt>
      <trkpt lat="42.56708" lon="1.98238">
        <ele>2168</ele>
        <time>2019-07-05T13:26:26Z</time>
      </trkpt>
      <trkpt lat="42.56705" lon="1.98244">
        <ele>2167</ele>
        <time>2019-07-05T13:26:36Z</time>
      </trkpt>
      <trkpt lat="42.567" lon="1.98249">
        <ele>2166</ele>
        <time>2019-07-05T13:26:43Z</time>
      </trkpt>
      <trkpt lat="42.56695" lon="1.98248">
        <ele>2165</ele>
        <time>2019-07-05T13:26:47Z</time>
      </trkpt>
      <trkpt lat="42.56692" lon="1.98243">
        <ele>2164</ele>
        <time>2019-07-05T13:26:50Z</time>
      </trkpt>
      <trkpt lat="42.56687" lon="1.98251">
        <ele>2163</ele>
        <time>2019-07-05T13:27:03Z</time>
      </trkpt>
      <trkpt lat="42.56681" lon="1.98253">
        <ele>2161</ele>
        <time>2019-07-05T13:27:10Z</time>
      </trkpt>
      <trkpt lat="42.56674" lon="1.98261">
        <ele>2159</ele>
        <time>2019-07-05T13:27:22Z</time>
      </trkpt>
      <trkpt lat="42.56668" lon="1.98266">
        <ele>2158</ele>
        <time>2019-07-05T13:27:31Z</time>
      </trkpt>
      <trkpt lat="42.56663" lon="1.98268">
        <ele>2156</ele>
        <time>2019-07-05T13:27:46Z</time>
      </trkpt>
      <trkpt lat="42.56658" lon="1.98268">
        <ele>2155</ele>
        <time>2019-07-05T13:27:51Z</time>
      </trkpt>
      <trkpt lat="42.56655" lon="1.98263">
        <ele>2154</ele>
        <time>2019-07-05T13:27:55Z</time>
      </trkpt>
      <trkpt lat="42.5665" lon="1.98263">
        <ele>2155</ele>
        <time>2019-07-05T13:28:02Z</time>
      </trkpt>
      <trkpt lat="42.56646" lon="1.98263">
        <ele>2154</ele>
        <time>2019-07-05T13:28:12Z</time>
      </trkpt>
      <trkpt lat="42.56642" lon="1.98267">
        <ele>2153</ele>
        <time>2019-07-05T13:28:18Z</time>
      </trkpt>
      <trkpt lat="42.56632" lon="1.9827">
        <ele>2152</ele>
        <time>2019-07-05T13:28:27Z</time>
      </trkpt>
      <trkpt lat="42.56614" lon="1.98269">
        <ele>2151</ele>
        <time>2019-07-05T13:28:44Z</time>
      </trkpt>
      <trkpt lat="42.56609" lon="1.98269">
        <ele>2151</ele>
        <time>2019-07-05T13:28:48Z</time>
      </trkpt>
      <trkpt lat="42.56605" lon="1.98271">
        <ele>2151</ele>
        <time>2019-07-05T13:28:52Z</time>
      </trkpt>
      <trkpt lat="42.56596" lon="1.98273">
        <ele>2149</ele>
        <time>2019-07-05T13:29:03Z</time>
      </trkpt>
      <trkpt lat="42.56587" lon="1.98274">
        <ele>2149</ele>
        <time>2019-07-05T13:29:13Z</time>
      </trkpt>
      <trkpt lat="42.56584" lon="1.98279">
        <ele>2149</ele>
        <time>2019-07-05T13:29:17Z</time>
      </trkpt>
      <trkpt lat="42.56576" lon="1.98287">
        <ele>2149</ele>
        <time>2019-07-05T13:29:25Z</time>
      </trkpt>
      <trkpt lat="42.56574" lon="1.98292">
        <ele>2149</ele>
        <time>2019-07-05T13:29:28Z</time>
      </trkpt>
      <trkpt lat="42.5657" lon="1.98296">
        <ele>2148</ele>
        <time>2019-07-05T13:29:32Z</time>
      </trkpt>
      <trkpt lat="42.56567" lon="1.98301">
        <ele>2148</ele>
        <time>2019-07-05T13:29:36Z</time>
      </trkpt>
      <trkpt lat="42.56564" lon="1.98303">
        <ele>2148</ele>
        <time>2019-07-05T13:29:51Z</time>
      </trkpt>
      <trkpt lat="42.56559" lon="1.98311">
        <ele>2148</ele>
        <time>2019-07-05T13:30:02Z</time>
      </trkpt>
      <trkpt lat="42.56554" lon="1.98311">
        <ele>2148</ele>
        <time>2019-07-05T13:30:07Z</time>
      </trkpt>
      <trkpt lat="42.5655" lon="1.98318">
        <ele>2149</ele>
        <time>2019-07-05T13:30:15Z</time>
      </trkpt>
      <trkpt lat="42.56543" lon="1.98329">
        <ele>2148</ele>
        <time>2019-07-05T13:30:23Z</time>
      </trkpt>
      <trkpt lat="42.56538" lon="1.98334">
        <ele>2148</ele>
        <time>2019-07-05T13:30:29Z</time>
      </trkpt>
      <trkpt lat="42.56534" lon="1.98345">
        <ele>2148</ele>
        <time>2019-07-05T13:30:36Z</time>
      </trkpt>
      <trkpt lat="42.56525" lon="1.98361">
        <ele>2148</ele>
        <time>2019-07-05T13:30:55Z</time>
      </trkpt>
      <trkpt lat="42.56525" lon="1.98368">
        <ele>2148</ele>
        <time>2019-07-05T13:31:00Z</time>
      </trkpt>
      <trkpt lat="42.56521" lon="1.98373">
        <ele>2147</ele>
        <time>2019-07-05T13:31:04Z</time>
      </trkpt>
      <trkpt lat="42.56517" lon="1.98376">
        <ele>2148</ele>
        <time>2019-07-05T13:31:08Z</time>
      </trkpt>
      <trkpt lat="42.56514" lon="1.98379">
        <ele>2148</ele>
        <time>2019-07-05T13:31:12Z</time>
      </trkpt>
      <trkpt lat="42.56511" lon="1.98384">
        <ele>2148</ele>
        <time>2019-07-05T13:31:17Z</time>
      </trkpt>
      <trkpt lat="42.56507" lon="1.98388">
        <ele>2148</ele>
        <time>2019-07-05T13:31:22Z</time>
      </trkpt>
      <trkpt lat="42.56502" lon="1.98394">
        <ele>2148</ele>
        <time>2019-07-05T13:31:27Z</time>
      </trkpt>
      <trkpt lat="42.565" lon="1.984">
        <ele>2148</ele>
        <time>2019-07-05T13:31:32Z</time>
      </trkpt>
      <trkpt lat="42.56498" lon="1.98407">
        <ele>2148</ele>
        <time>2019-07-05T13:31:36Z</time>
      </trkpt>
      <trkpt lat="42.56488" lon="1.98418">
        <ele>2148</ele>
        <time>2019-07-05T13:31:45Z</time>
      </trkpt>
      <trkpt lat="42.56484" lon="1.98424">
        <ele>2148</ele>
        <time>2019-07-05T13:31:50Z</time>
      </trkpt>
      <trkpt lat="42.56482" lon="1.98433">
        <ele>2149</ele>
        <time>2019-07-05T13:31:55Z</time>
      </trkpt>
      <trkpt lat="42.56481" lon="1.9844">
        <ele>2149</ele>
        <time>2019-07-05T13:31:58Z</time>
      </trkpt>
      <trkpt lat="42.56482" lon="1.98447">
        <ele>2149</ele>
        <time>2019-07-05T13:32:01Z</time>
      </trkpt>
      <trkpt lat="42.56481" lon="1.98454">
        <ele>2149</ele>
        <time>2019-07-05T13:32:05Z</time>
      </trkpt>
      <trkpt lat="42.56478" lon="1.98461">
        <ele>2149</ele>
        <time>2019-07-05T13:32:08Z</time>
      </trkpt>
      <trkpt lat="42.56479" lon="1.98468">
        <ele>2149</ele>
        <time>2019-07-05T13:32:12Z</time>
      </trkpt>
      <trkpt lat="42.56476" lon="1.98475">
        <ele>2150</ele>
        <time>2019-07-05T13:32:16Z</time>
      </trkpt>
      <trkpt lat="42.56477" lon="1.98475">
        <ele>2149</ele>
        <time>2019-07-05T13:32:32Z</time>
      </trkpt>
      <trkpt lat="42.56472" lon="1.9848">
        <ele>2149</ele>
        <time>2019-07-05T13:32:47Z</time>
      </trkpt>
      <trkpt lat="42.56468" lon="1.98485">
        <ele>2149</ele>
        <time>2019-07-05T13:32:52Z</time>
      </trkpt>
      <trkpt lat="42.56465" lon="1.98499">
        <ele>2149</ele>
        <time>2019-07-05T13:33:00Z</time>
      </trkpt>
      <trkpt lat="42.56461" lon="1.98505">
        <ele>2149</ele>
        <time>2019-07-05T13:33:04Z</time>
      </trkpt>
      <trkpt lat="42.56458" lon="1.98508">
        <ele>2149</ele>
        <time>2019-07-05T13:33:09Z</time>
      </trkpt>
      <trkpt lat="42.56446" lon="1.98515">
        <ele>2150</ele>
        <time>2019-07-05T13:33:21Z</time>
      </trkpt>
      <trkpt lat="42.56441" lon="1.98519">
        <ele>2149</ele>
        <time>2019-07-05T13:33:25Z</time>
      </trkpt>
      <trkpt lat="42.56436" lon="1.98519">
        <ele>2149</ele>
        <time>2019-07-05T13:33:30Z</time>
      </trkpt>
      <trkpt lat="42.56437" lon="1.98529">
        <ele>2149</ele>
        <time>2019-07-05T13:33:53Z</time>
      </trkpt>
      <trkpt lat="42.56436" lon="1.98538">
        <ele>2148</ele>
        <time>2019-07-05T13:34:04Z</time>
      </trkpt>
      <trkpt lat="42.56437" lon="1.98538">
        <ele>2148</ele>
        <time>2019-07-05T13:34:44Z</time>
      </trkpt>
      <trkpt lat="42.56438" lon="1.98554">
        <ele>2146</ele>
        <time>2019-07-05T13:35:10Z</time>
      </trkpt>
      <trkpt lat="42.56434" lon="1.98561">
        <ele>2144</ele>
        <time>2019-07-05T13:35:16Z</time>
      </trkpt>
      <trkpt lat="42.56432" lon="1.98567">
        <ele>2144</ele>
        <time>2019-07-05T13:35:20Z</time>
      </trkpt>
      <trkpt lat="42.56428" lon="1.98571">
        <ele>2144</ele>
        <time>2019-07-05T13:35:24Z</time>
      </trkpt>
      <trkpt lat="42.56425" lon="1.98575">
        <ele>2143</ele>
        <time>2019-07-05T13:35:28Z</time>
      </trkpt>
      <trkpt lat="42.56406" lon="1.98588">
        <ele>2142</ele>
        <time>2019-07-05T13:35:49Z</time>
      </trkpt>
      <trkpt lat="42.56402" lon="1.9859">
        <ele>2142</ele>
        <time>2019-07-05T13:35:53Z</time>
      </trkpt>
      <trkpt lat="42.56391" lon="1.98594">
        <ele>2142</ele>
        <time>2019-07-05T13:36:04Z</time>
      </trkpt>
      <trkpt lat="42.56387" lon="1.98598">
        <ele>2142</ele>
        <time>2019-07-05T13:36:09Z</time>
      </trkpt>
      <trkpt lat="42.56382" lon="1.98599">
        <ele>2141</ele>
        <time>2019-07-05T13:36:13Z</time>
      </trkpt>
      <trkpt lat="42.56378" lon="1.98603">
        <ele>2141</ele>
        <time>2019-07-05T13:36:18Z</time>
      </trkpt>
      <trkpt lat="42.56374" lon="1.98608">
        <ele>2141</ele>
        <time>2019-07-05T13:36:22Z</time>
      </trkpt>
      <trkpt lat="42.56371" lon="1.9862">
        <ele>2139</ele>
        <time>2019-07-05T13:36:34Z</time>
      </trkpt>
      <trkpt lat="42.56365" lon="1.98624">
        <ele>2137</ele>
        <time>2019-07-05T13:36:45Z</time>
      </trkpt>
      <trkpt lat="42.56356" lon="1.98631">
        <ele>2135</ele>
        <time>2019-07-05T13:36:56Z</time>
      </trkpt>
      <trkpt lat="42.56352" lon="1.98635">
        <ele>2135</ele>
        <time>2019-07-05T13:37:00Z</time>
      </trkpt>
      <trkpt lat="42.56348" lon="1.98636">
        <ele>2134</ele>
        <time>2019-07-05T13:37:04Z</time>
      </trkpt>
      <trkpt lat="42.56344" lon="1.98637">
        <ele>2134</ele>
        <time>2019-07-05T13:37:09Z</time>
      </trkpt>
      <trkpt lat="42.56339" lon="1.98648">
        <ele>2133</ele>
        <time>2019-07-05T13:37:18Z</time>
      </trkpt>
      <trkpt lat="42.56337" lon="1.9866">
        <ele>2132</ele>
        <time>2019-07-05T13:37:28Z</time>
      </trkpt>
      <trkpt lat="42.56341" lon="1.98665">
        <ele>2131</ele>
        <time>2019-07-05T13:37:35Z</time>
      </trkpt>
      <trkpt lat="42.56337" lon="1.9867">
        <ele>2130</ele>
        <time>2019-07-05T13:37:42Z</time>
      </trkpt>
      <trkpt lat="42.56336" lon="1.98678">
        <ele>2129</ele>
        <time>2019-07-05T13:37:52Z</time>
      </trkpt>
      <trkpt lat="42.5633" lon="1.98678">
        <ele>2128</ele>
        <time>2019-07-05T13:37:59Z</time>
      </trkpt>
      <trkpt lat="42.56327" lon="1.98682">
        <ele>2127</ele>
        <time>2019-07-05T13:38:04Z</time>
      </trkpt>
      <trkpt lat="42.56329" lon="1.98687">
        <ele>2126</ele>
        <time>2019-07-05T13:38:14Z</time>
      </trkpt>
      <trkpt lat="42.56323" lon="1.98693">
        <ele>2125</ele>
        <time>2019-07-05T13:38:24Z</time>
      </trkpt>
      <trkpt lat="42.56322" lon="1.98701">
        <ele>2124</ele>
        <time>2019-07-05T13:38:30Z</time>
      </trkpt>
      <trkpt lat="42.56316" lon="1.98704">
        <ele>2122</ele>
        <time>2019-07-05T13:38:42Z</time>
      </trkpt>
      <trkpt lat="42.56313" lon="1.98714">
        <ele>2122</ele>
        <time>2019-07-05T13:38:51Z</time>
      </trkpt>
      <trkpt lat="42.56306" lon="1.98719">
        <ele>2121</ele>
        <time>2019-07-05T13:39:00Z</time>
      </trkpt>
      <trkpt lat="42.56301" lon="1.98721">
        <ele>2121</ele>
        <time>2019-07-05T13:39:05Z</time>
      </trkpt>
      <trkpt lat="42.56285" lon="1.98721">
        <ele>2120</ele>
        <time>2019-07-05T13:39:20Z</time>
      </trkpt>
      <trkpt lat="42.56278" lon="1.98724">
        <ele>2120</ele>
        <time>2019-07-05T13:39:26Z</time>
      </trkpt>
      <trkpt lat="42.5627" lon="1.98735">
        <ele>2119</ele>
        <time>2019-07-05T13:39:35Z</time>
      </trkpt>
      <trkpt lat="42.56269" lon="1.98741">
        <ele>2118</ele>
        <time>2019-07-05T13:39:40Z</time>
      </trkpt>
      <trkpt lat="42.56263" lon="1.98745">
        <ele>2117</ele>
        <time>2019-07-05T13:39:52Z</time>
      </trkpt>
      <trkpt lat="42.56262" lon="1.98755">
        <ele>2116</ele>
        <time>2019-07-05T13:40:02Z</time>
      </trkpt>
      <trkpt lat="42.56263" lon="1.98762">
        <ele>2115</ele>
        <time>2019-07-05T13:40:07Z</time>
      </trkpt>
      <trkpt lat="42.56261" lon="1.98769">
        <ele>2113</ele>
        <time>2019-07-05T13:40:19Z</time>
      </trkpt>
      <trkpt lat="42.56256" lon="1.98772">
        <ele>2113</ele>
        <time>2019-07-05T13:40:25Z</time>
      </trkpt>
      <trkpt lat="42.56259" lon="1.98778">
        <ele>2112</ele>
        <time>2019-07-05T13:40:30Z</time>
      </trkpt>
      <trkpt lat="42.56255" lon="1.9878">
        <ele>2111</ele>
        <time>2019-07-05T13:40:38Z</time>
      </trkpt>
      <trkpt lat="42.56254" lon="1.98787">
        <ele>2109</ele>
        <time>2019-07-05T13:40:48Z</time>
      </trkpt>
      <trkpt lat="42.5625" lon="1.98797">
        <ele>2108</ele>
        <time>2019-07-05T13:40:58Z</time>
      </trkpt>
      <trkpt lat="42.56246" lon="1.98801">
        <ele>2108</ele>
        <time>2019-07-05T13:41:02Z</time>
      </trkpt>
      <trkpt lat="42.56242" lon="1.98802">
        <ele>2107</ele>
        <time>2019-07-05T13:41:07Z</time>
      </trkpt>
      <trkpt lat="42.56235" lon="1.98799">
        <ele>2108</ele>
        <time>2019-07-05T13:41:13Z</time>
      </trkpt>
      <trkpt lat="42.5623" lon="1.98801">
        <ele>2108</ele>
        <time>2019-07-05T13:41:17Z</time>
      </trkpt>
      <trkpt lat="42.56227" lon="1.98806">
        <ele>2108</ele>
        <time>2019-07-05T13:41:21Z</time>
      </trkpt>
      <trkpt lat="42.56222" lon="1.98808">
        <ele>2107</ele>
        <time>2019-07-05T13:41:25Z</time>
      </trkpt>
      <trkpt lat="42.56217" lon="1.9881">
        <ele>2108</ele>
        <time>2019-07-05T13:41:29Z</time>
      </trkpt>
      <trkpt lat="42.56213" lon="1.98813">
        <ele>2108</ele>
        <time>2019-07-05T13:41:33Z</time>
      </trkpt>
      <trkpt lat="42.5621" lon="1.98817">
        <ele>2107</ele>
        <time>2019-07-05T13:41:36Z</time>
      </trkpt>
      <trkpt lat="42.56205" lon="1.98819">
        <ele>2107</ele>
        <time>2019-07-05T13:41:43Z</time>
      </trkpt>
      <trkpt lat="42.56201" lon="1.98822">
        <ele>2107</ele>
        <time>2019-07-05T13:41:48Z</time>
      </trkpt>
      <trkpt lat="42.56197" lon="1.9883">
        <ele>2106</ele>
        <time>2019-07-05T13:41:57Z</time>
      </trkpt>
      <trkpt lat="42.56195" lon="1.98841">
        <ele>2106</ele>
        <time>2019-07-05T13:42:08Z</time>
      </trkpt>
      <trkpt lat="42.56194" lon="1.98847">
        <ele>2106</ele>
        <time>2019-07-05T13:42:18Z</time>
      </trkpt>
      <trkpt lat="42.56189" lon="1.98847">
        <ele>2104</ele>
        <time>2019-07-05T13:42:28Z</time>
      </trkpt>
      <trkpt lat="42.56185" lon="1.98852">
        <ele>2103</ele>
        <time>2019-07-05T13:42:38Z</time>
      </trkpt>
      <trkpt lat="42.56179" lon="1.98854">
        <ele>2102</ele>
        <time>2019-07-05T13:42:48Z</time>
      </trkpt>
      <trkpt lat="42.56176" lon="1.98864">
        <ele>2102</ele>
        <time>2019-07-05T13:42:58Z</time>
      </trkpt>
      <trkpt lat="42.56169" lon="1.98872">
        <ele>2101</ele>
        <time>2019-07-05T13:43:09Z</time>
      </trkpt>
      <trkpt lat="42.56163" lon="1.98876">
        <ele>2099</ele>
        <time>2019-07-05T13:43:19Z</time>
      </trkpt>
      <trkpt lat="42.56155" lon="1.98885">
        <ele>2098</ele>
        <time>2019-07-05T13:43:31Z</time>
      </trkpt>
      <trkpt lat="42.5615" lon="1.98906">
        <ele>2095</ele>
        <time>2019-07-05T13:43:52Z</time>
      </trkpt>
      <trkpt lat="42.56144" lon="1.98912">
        <ele>2095</ele>
        <time>2019-07-05T13:44:00Z</time>
      </trkpt>
      <trkpt lat="42.56134" lon="1.98915">
        <ele>2095</ele>
        <time>2019-07-05T13:44:09Z</time>
      </trkpt>
      <trkpt lat="42.56129" lon="1.9892">
        <ele>2095</ele>
        <time>2019-07-05T13:44:14Z</time>
      </trkpt>
      <trkpt lat="42.56127" lon="1.98926">
        <ele>2094</ele>
        <time>2019-07-05T13:44:20Z</time>
      </trkpt>
      <trkpt lat="42.5612" lon="1.98931">
        <ele>2095</ele>
        <time>2019-07-05T13:44:27Z</time>
      </trkpt>
      <trkpt lat="42.56114" lon="1.98943">
        <ele>2094</ele>
        <time>2019-07-05T13:44:35Z</time>
      </trkpt>
      <trkpt lat="42.56114" lon="1.98951">
        <ele>2093</ele>
        <time>2019-07-05T13:44:40Z</time>
      </trkpt>
      <trkpt lat="42.56113" lon="1.98965">
        <ele>2091</ele>
        <time>2019-07-05T13:44:51Z</time>
      </trkpt>
      <trkpt lat="42.56103" lon="1.98962">
        <ele>2091</ele>
        <time>2019-07-05T13:45:01Z</time>
      </trkpt>
      <trkpt lat="42.56097" lon="1.98971">
        <ele>2090</ele>
        <time>2019-07-05T13:45:09Z</time>
      </trkpt>
      <trkpt lat="42.56099" lon="1.98979">
        <ele>2089</ele>
        <time>2019-07-05T13:45:13Z</time>
      </trkpt>
      <trkpt lat="42.56099" lon="1.98986">
        <ele>2090</ele>
        <time>2019-07-05T13:45:16Z</time>
      </trkpt>
      <trkpt lat="42.56095" lon="1.98986">
        <ele>2091</ele>
        <time>2019-07-05T13:45:33Z</time>
      </trkpt>
      <trkpt lat="42.56091" lon="1.98991">
        <ele>2089</ele>
        <time>2019-07-05T13:45:54Z</time>
      </trkpt>
      <trkpt lat="42.56088" lon="1.99">
        <ele>2089</ele>
        <time>2019-07-05T13:46:02Z</time>
      </trkpt>
      <trkpt lat="42.56087" lon="1.9901">
        <ele>2089</ele>
        <time>2019-07-05T13:46:10Z</time>
      </trkpt>
      <trkpt lat="42.56084" lon="1.99016">
        <ele>2089</ele>
        <time>2019-07-05T13:46:14Z</time>
      </trkpt>
      <trkpt lat="42.56074" lon="1.99024">
        <ele>2088</ele>
        <time>2019-07-05T13:46:26Z</time>
      </trkpt>
      <trkpt lat="42.56067" lon="1.99029">
        <ele>2088</ele>
        <time>2019-07-05T13:46:33Z</time>
      </trkpt>
      <trkpt lat="42.56062" lon="1.99031">
        <ele>2088</ele>
        <time>2019-07-05T13:46:39Z</time>
      </trkpt>
      <trkpt lat="42.56053" lon="1.99038">
        <ele>2087</ele>
        <time>2019-07-05T13:46:48Z</time>
      </trkpt>
      <trkpt lat="42.5605" lon="1.99047">
        <ele>2087</ele>
        <time>2019-07-05T13:46:53Z</time>
      </trkpt>
      <trkpt lat="42.56042" lon="1.99061">
        <ele>2086</ele>
        <time>2019-07-05T13:47:02Z</time>
      </trkpt>
      <trkpt lat="42.56033" lon="1.99066">
        <ele>2086</ele>
        <time>2019-07-05T13:47:12Z</time>
      </trkpt>
      <trkpt lat="42.56024" lon="1.99073">
        <ele>2086</ele>
        <time>2019-07-05T13:47:25Z</time>
      </trkpt>
      <trkpt lat="42.56022" lon="1.99079">
        <ele>2085</ele>
        <time>2019-07-05T13:47:30Z</time>
      </trkpt>
      <trkpt lat="42.56023" lon="1.99086">
        <ele>2085</ele>
        <time>2019-07-05T13:47:35Z</time>
      </trkpt>
      <trkpt lat="42.56023" lon="1.9909">
        <ele>2087</ele>
        <time>2019-07-05T13:48:00Z</time>
      </trkpt>
      <trkpt lat="42.56019" lon="1.99108">
        <ele>2085</ele>
        <time>2019-07-05T13:48:25Z</time>
      </trkpt>
      <trkpt lat="42.56018" lon="1.99116">
        <ele>2083</ele>
        <time>2019-07-05T13:48:31Z</time>
      </trkpt>
      <trkpt lat="42.5602" lon="1.99127">
        <ele>2081</ele>
        <time>2019-07-05T13:48:39Z</time>
      </trkpt>
      <trkpt lat="42.56018" lon="1.99134">
        <ele>2080</ele>
        <time>2019-07-05T13:48:45Z</time>
      </trkpt>
      <trkpt lat="42.56013" lon="1.99142">
        <ele>2078</ele>
        <time>2019-07-05T13:48:55Z</time>
      </trkpt>
      <trkpt lat="42.56014" lon="1.9915">
        <ele>2078</ele>
        <time>2019-07-05T13:49:00Z</time>
      </trkpt>
      <trkpt lat="42.56015" lon="1.99158">
        <ele>2077</ele>
        <time>2019-07-05T13:49:05Z</time>
      </trkpt>
      <trkpt lat="42.56008" lon="1.99166">
        <ele>2076</ele>
        <time>2019-07-05T13:49:17Z</time>
      </trkpt>
      <trkpt lat="42.56008" lon="1.99175">
        <ele>2075</ele>
        <time>2019-07-05T13:49:23Z</time>
      </trkpt>
      <trkpt lat="42.56005" lon="1.99198">
        <ele>2074</ele>
        <time>2019-07-05T13:49:40Z</time>
      </trkpt>
      <trkpt lat="42.56007" lon="1.99206">
        <ele>2074</ele>
        <time>2019-07-05T13:49:46Z</time>
      </trkpt>
      <trkpt lat="42.56007" lon="1.99216">
        <ele>2074</ele>
        <time>2019-07-05T13:49:52Z</time>
      </trkpt>
      <trkpt lat="42.56003" lon="1.99225">
        <ele>2074</ele>
        <time>2019-07-05T13:49:57Z</time>
      </trkpt>
      <trkpt lat="42.55996" lon="1.99237">
        <ele>2073</ele>
        <time>2019-07-05T13:50:07Z</time>
      </trkpt>
      <trkpt lat="42.55993" lon="1.99245">
        <ele>2074</ele>
        <time>2019-07-05T13:50:13Z</time>
      </trkpt>
      <trkpt lat="42.55993" lon="1.99252">
        <ele>2074</ele>
        <time>2019-07-05T13:50:18Z</time>
      </trkpt>
      <trkpt lat="42.55996" lon="1.99259">
        <ele>2074</ele>
        <time>2019-07-05T13:50:21Z</time>
      </trkpt>
      <trkpt lat="42.55996" lon="1.99265">
        <ele>2075</ele>
        <time>2019-07-05T13:50:25Z</time>
      </trkpt>
      <trkpt lat="42.55998" lon="1.99275">
        <ele>2074</ele>
        <time>2019-07-05T13:50:32Z</time>
      </trkpt>
      <trkpt lat="42.55996" lon="1.99282">
        <ele>2073</ele>
        <time>2019-07-05T13:50:40Z</time>
      </trkpt>
      <trkpt lat="42.55999" lon="1.9929">
        <ele>2073</ele>
        <time>2019-07-05T13:50:50Z</time>
      </trkpt>
      <trkpt lat="42.56001" lon="1.99298">
        <ele>2074</ele>
        <time>2019-07-05T13:50:57Z</time>
      </trkpt>
      <trkpt lat="42.56003" lon="1.99305">
        <ele>2074</ele>
        <time>2019-07-05T13:51:01Z</time>
      </trkpt>
      <trkpt lat="42.56003" lon="1.99313">
        <ele>2073</ele>
        <time>2019-07-05T13:51:05Z</time>
      </trkpt>
      <trkpt lat="42.56005" lon="1.99337">
        <ele>2072</ele>
        <time>2019-07-05T13:51:33Z</time>
      </trkpt>
      <trkpt lat="42.56007" lon="1.99344">
        <ele>2071</ele>
        <time>2019-07-05T13:51:38Z</time>
      </trkpt>
      <trkpt lat="42.56006" lon="1.99353">
        <ele>2072</ele>
        <time>2019-07-05T13:51:43Z</time>
      </trkpt>
      <trkpt lat="42.56009" lon="1.99361">
        <ele>2072</ele>
        <time>2019-07-05T13:51:51Z</time>
      </trkpt>
      <trkpt lat="42.56009" lon="1.99367">
        <ele>2072</ele>
        <time>2019-07-05T13:51:55Z</time>
      </trkpt>
      <trkpt lat="42.56014" lon="1.99374">
        <ele>2073</ele>
        <time>2019-07-05T13:52:03Z</time>
      </trkpt>
      <trkpt lat="42.56011" lon="1.99378">
        <ele>2073</ele>
        <time>2019-07-05T13:52:14Z</time>
      </trkpt>
      <trkpt lat="42.56011" lon="1.99389">
        <ele>2070</ele>
        <time>2019-07-05T13:52:45Z</time>
      </trkpt>
      <trkpt lat="42.5601" lon="1.99398">
        <ele>2068</ele>
        <time>2019-07-05T13:53:05Z</time>
      </trkpt>
      <trkpt lat="42.56014" lon="1.99403">
        <ele>2067</ele>
        <time>2019-07-05T13:53:20Z</time>
      </trkpt>
      <trkpt lat="42.56013" lon="1.9941">
        <ele>2066</ele>
        <time>2019-07-05T13:53:36Z</time>
      </trkpt>
      <trkpt lat="42.56017" lon="1.99415">
        <ele>2064</ele>
        <time>2019-07-05T13:53:51Z</time>
      </trkpt>
      <trkpt lat="42.56025" lon="1.9942">
        <ele>2062</ele>
        <time>2019-07-05T13:54:24Z</time>
      </trkpt>
      <trkpt lat="42.56027" lon="1.99428">
        <ele>2062</ele>
        <time>2019-07-05T13:54:34Z</time>
      </trkpt>
      <trkpt lat="42.56033" lon="1.99439">
        <ele>2060</ele>
        <time>2019-07-05T13:54:53Z</time>
      </trkpt>
      <trkpt lat="42.56035" lon="1.99446">
        <ele>2059</ele>
        <time>2019-07-05T13:55:05Z</time>
      </trkpt>
      <trkpt lat="42.56031" lon="1.9945">
        <ele>2057</ele>
        <time>2019-07-05T13:55:26Z</time>
      </trkpt>
      <trkpt lat="42.56028" lon="1.99456">
        <ele>2055</ele>
        <time>2019-07-05T13:55:36Z</time>
      </trkpt>
      <trkpt lat="42.56029" lon="1.99463">
        <ele>2054</ele>
        <time>2019-07-05T13:55:42Z</time>
      </trkpt>
      <trkpt lat="42.56025" lon="1.99474">
        <ele>2052</ele>
        <time>2019-07-05T13:55:54Z</time>
      </trkpt>
      <trkpt lat="42.56027" lon="1.99481">
        <ele>2051</ele>
        <time>2019-07-05T13:55:59Z</time>
      </trkpt>
      <trkpt lat="42.5603" lon="1.99489">
        <ele>2050</ele>
        <time>2019-07-05T13:56:06Z</time>
      </trkpt>
      <trkpt lat="42.5603" lon="1.99499">
        <ele>2050</ele>
        <time>2019-07-05T13:56:14Z</time>
      </trkpt>
      <trkpt lat="42.56025" lon="1.99506">
        <ele>2049</ele>
        <time>2019-07-05T13:56:22Z</time>
      </trkpt>
      <trkpt lat="42.56016" lon="1.99518">
        <ele>2047</ele>
        <time>2019-07-05T13:56:37Z</time>
      </trkpt>
      <trkpt lat="42.5601" lon="1.9955">
        <ele>2043</ele>
        <time>2019-07-05T13:57:01Z</time>
      </trkpt>
      <trkpt lat="42.56009" lon="1.99565">
        <ele>2042</ele>
        <time>2019-07-05T13:57:08Z</time>
      </trkpt>
      <trkpt lat="42.56007" lon="1.99571">
        <ele>2042</ele>
        <time>2019-07-05T13:57:13Z</time>
      </trkpt>
      <trkpt lat="42.56003" lon="1.99578">
        <ele>2041</ele>
        <time>2019-07-05T13:57:21Z</time>
      </trkpt>
      <trkpt lat="42.56001" lon="1.99597">
        <ele>2040</ele>
        <time>2019-07-05T13:57:34Z</time>
      </trkpt>
      <trkpt lat="42.56001" lon="1.99605">
        <ele>2039</ele>
        <time>2019-07-05T13:57:40Z</time>
      </trkpt>
      <trkpt lat="42.55997" lon="1.99611">
        <ele>2038</ele>
        <time>2019-07-05T13:57:48Z</time>
      </trkpt>
      <trkpt lat="42.55995" lon="1.99618">
        <ele>2037</ele>
        <time>2019-07-05T13:57:53Z</time>
      </trkpt>
      <trkpt lat="42.55996" lon="1.99624">
        <ele>2037</ele>
        <time>2019-07-05T13:57:57Z</time>
      </trkpt>
      <trkpt lat="42.55998" lon="1.9963">
        <ele>2035</ele>
        <time>2019-07-05T13:58:04Z</time>
      </trkpt>
      <trkpt lat="42.55998" lon="1.99639">
        <ele>2035</ele>
        <time>2019-07-05T13:58:45Z</time>
      </trkpt>
      <trkpt lat="42.55992" lon="1.99637">
        <ele>2034</ele>
        <time>2019-07-05T13:59:00Z</time>
      </trkpt>
      <trkpt lat="42.55989" lon="1.99641">
        <ele>2034</ele>
        <time>2019-07-05T13:59:05Z</time>
      </trkpt>
      <trkpt lat="42.55986" lon="1.99647">
        <ele>2033</ele>
        <time>2019-07-05T13:59:13Z</time>
      </trkpt>
      <trkpt lat="42.55988" lon="1.99647">
        <ele>2033</ele>
        <time>2019-07-05T13:59:24Z</time>
      </trkpt>
      <trkpt lat="42.55991" lon="1.9964">
        <ele>2033</ele>
        <time>2019-07-05T13:59:27Z</time>
      </trkpt>
      <trkpt lat="42.55994" lon="1.99635">
        <ele>2033</ele>
        <time>2019-07-05T13:59:32Z</time>
      </trkpt>
      <trkpt lat="42.55999" lon="1.99632">
        <ele>2033</ele>
        <time>2019-07-05T13:59:39Z</time>
      </trkpt>
      <trkpt lat="42.56003" lon="1.99634">
        <ele>2034</ele>
        <time>2019-07-05T13:59:44Z</time>
      </trkpt>
      <trkpt lat="42.56001" lon="1.99634">
        <ele>2034</ele>
        <time>2019-07-05T13:59:56Z</time>
      </trkpt>
      <trkpt lat="42.56012" lon="1.99643">
        <ele>2035</ele>
        <time>2019-07-05T14:00:11Z</time>
      </trkpt>
      <trkpt lat="42.56015" lon="1.99649">
        <ele>2036</ele>
        <time>2019-07-05T14:00:16Z</time>
      </trkpt>
      <trkpt lat="42.56018" lon="1.99656">
        <ele>2036</ele>
        <time>2019-07-05T14:00:23Z</time>
      </trkpt>
      <trkpt lat="42.56022" lon="1.9966">
        <ele>2036</ele>
        <time>2019-07-05T14:00:28Z</time>
      </trkpt>
      <trkpt lat="42.56026" lon="1.99667">
        <ele>2037</ele>
        <time>2019-07-05T14:00:35Z</time>
      </trkpt>
      <trkpt lat="42.56032" lon="1.99677">
        <ele>2037</ele>
        <time>2019-07-05T14:00:46Z</time>
      </trkpt>
      <trkpt lat="42.5603" lon="1.99679">
        <ele>2036</ele>
        <time>2019-07-05T14:02:11Z</time>
      </trkpt>
      <trkpt lat="42.56032" lon="1.99684">
        <ele>2035</ele>
        <time>2019-07-05T14:03:46Z</time>
      </trkpt>
      <trkpt lat="42.56031" lon="1.99683">
        <ele>2034</ele>
        <time>2019-07-05T14:13:19Z</time>
      </trkpt>
      <trkpt lat="42.56031" lon="1.99678">
        <ele>2035</ele>
        <time>2019-07-05T14:22:14Z</time>
      </trkpt>
      <trkpt lat="42.56027" lon="1.99667">
        <ele>2034</ele>
        <time>2019-07-05T14:22:23Z</time>
      </trkpt>
      <trkpt lat="42.56024" lon="1.99664">
        <ele>2034</ele>
        <time>2019-07-05T14:22:26Z</time>
      </trkpt>
      <trkpt lat="42.56018" lon="1.99657">
        <ele>2033</ele>
        <time>2019-07-05T14:22:33Z</time>
      </trkpt>
      <trkpt lat="42.56015" lon="1.99652">
        <ele>2034</ele>
        <time>2019-07-05T14:22:37Z</time>
      </trkpt>
      <trkpt lat="42.56012" lon="1.99649">
        <ele>2034</ele>
        <time>2019-07-05T14:22:41Z</time>
      </trkpt>
      <trkpt lat="42.56004" lon="1.99638">
        <ele>2033</ele>
        <time>2019-07-05T14:22:54Z</time>
      </trkpt>
      <trkpt lat="42.56001" lon="1.99635">
        <ele>2032</ele>
        <time>2019-07-05T14:22:58Z</time>
      </trkpt>
      <trkpt lat="42.55993" lon="1.99633">
        <ele>2032</ele>
        <time>2019-07-05T14:23:07Z</time>
      </trkpt>
      <trkpt lat="42.55989" lon="1.99637">
        <ele>2031</ele>
        <time>2019-07-05T14:23:12Z</time>
      </trkpt>
      <trkpt lat="42.55987" lon="1.99641">
        <ele>2031</ele>
        <time>2019-07-05T14:23:16Z</time>
      </trkpt>
      <trkpt lat="42.55984" lon="1.99646">
        <ele>2031</ele>
        <time>2019-07-05T14:23:20Z</time>
      </trkpt>
      <trkpt lat="42.5598" lon="1.99657">
        <ele>2030</ele>
        <time>2019-07-05T14:23:29Z</time>
      </trkpt>
      <trkpt lat="42.55977" lon="1.99661">
        <ele>2030</ele>
        <time>2019-07-05T14:23:33Z</time>
      </trkpt>
      <trkpt lat="42.55976" lon="1.99666">
        <ele>2030</ele>
        <time>2019-07-05T14:23:37Z</time>
      </trkpt>
      <trkpt lat="42.55975" lon="1.99671">
        <ele>2030</ele>
        <time>2019-07-05T14:23:40Z</time>
      </trkpt>
      <trkpt lat="42.55973" lon="1.99675">
        <ele>2030</ele>
        <time>2019-07-05T14:23:44Z</time>
      </trkpt>
      <trkpt lat="42.55973" lon="1.99681">
        <ele>2030</ele>
        <time>2019-07-05T14:23:47Z</time>
      </trkpt>
      <trkpt lat="42.55972" lon="1.99691">
        <ele>2030</ele>
        <time>2019-07-05T14:23:53Z</time>
      </trkpt>
      <trkpt lat="42.55977" lon="1.99701">
        <ele>2029</ele>
        <time>2019-07-05T14:24:01Z</time>
      </trkpt>
      <trkpt lat="42.55979" lon="1.99705">
        <ele>2029</ele>
        <time>2019-07-05T14:24:05Z</time>
      </trkpt>
      <trkpt lat="42.55983" lon="1.99713">
        <ele>2029</ele>
        <time>2019-07-05T14:24:13Z</time>
      </trkpt>
      <trkpt lat="42.55983" lon="1.99719">
        <ele>2029</ele>
        <time>2019-07-05T14:24:17Z</time>
      </trkpt>
      <trkpt lat="42.55984" lon="1.99724">
        <ele>2030</ele>
        <time>2019-07-05T14:24:21Z</time>
      </trkpt>
      <trkpt lat="42.55988" lon="1.99746">
        <ele>2028</ele>
        <time>2019-07-05T14:24:36Z</time>
      </trkpt>
      <trkpt lat="42.55987" lon="1.99752">
        <ele>2028</ele>
        <time>2019-07-05T14:24:40Z</time>
      </trkpt>
      <trkpt lat="42.55991" lon="1.99766">
        <ele>2026</ele>
        <time>2019-07-05T14:24:54Z</time>
      </trkpt>
      <trkpt lat="42.55991" lon="1.99771">
        <ele>2025</ele>
        <time>2019-07-05T14:24:58Z</time>
      </trkpt>
      <trkpt lat="42.55988" lon="1.99781">
        <ele>2024</ele>
        <time>2019-07-05T14:25:09Z</time>
      </trkpt>
      <trkpt lat="42.55988" lon="1.99786">
        <ele>2024</ele>
        <time>2019-07-05T14:25:13Z</time>
      </trkpt>
      <trkpt lat="42.55985" lon="1.99794">
        <ele>2023</ele>
        <time>2019-07-05T14:25:20Z</time>
      </trkpt>
      <trkpt lat="42.55985" lon="1.99799">
        <ele>2022</ele>
        <time>2019-07-05T14:25:23Z</time>
      </trkpt>
      <trkpt lat="42.55983" lon="1.99807">
        <ele>2022</ele>
        <time>2019-07-05T14:25:30Z</time>
      </trkpt>
      <trkpt lat="42.55984" lon="1.99812">
        <ele>2022</ele>
        <time>2019-07-05T14:25:35Z</time>
      </trkpt>
      <trkpt lat="42.55983" lon="1.9982">
        <ele>2022</ele>
        <time>2019-07-05T14:25:44Z</time>
      </trkpt>
      <trkpt lat="42.55983" lon="1.99837">
        <ele>2021</ele>
        <time>2019-07-05T14:25:56Z</time>
      </trkpt>
      <trkpt lat="42.55982" lon="1.99842">
        <ele>2021</ele>
        <time>2019-07-05T14:25:59Z</time>
      </trkpt>
      <trkpt lat="42.5598" lon="1.99846">
        <ele>2021</ele>
        <time>2019-07-05T14:26:03Z</time>
      </trkpt>
      <trkpt lat="42.5598" lon="1.99851">
        <ele>2022</ele>
        <time>2019-07-05T14:26:07Z</time>
      </trkpt>
      <trkpt lat="42.55981" lon="1.99857">
        <ele>2021</ele>
        <time>2019-07-05T14:26:11Z</time>
      </trkpt>
      <trkpt lat="42.55977" lon="1.99862">
        <ele>2022</ele>
        <time>2019-07-05T14:26:18Z</time>
      </trkpt>
      <trkpt lat="42.55974" lon="1.99864">
        <ele>2022</ele>
        <time>2019-07-05T14:26:21Z</time>
      </trkpt>
      <trkpt lat="42.55972" lon="1.99869">
        <ele>2022</ele>
        <time>2019-07-05T14:26:25Z</time>
      </trkpt>
      <trkpt lat="42.55971" lon="1.99874">
        <ele>2022</ele>
        <time>2019-07-05T14:26:28Z</time>
      </trkpt>
      <trkpt lat="42.55972" lon="1.99879">
        <ele>2022</ele>
        <time>2019-07-05T14:26:31Z</time>
      </trkpt>
      <trkpt lat="42.55976" lon="1.99895">
        <ele>2020</ele>
        <time>2019-07-05T14:26:42Z</time>
      </trkpt>
      <trkpt lat="42.55978" lon="1.999">
        <ele>2020</ele>
        <time>2019-07-05T14:26:45Z</time>
      </trkpt>
      <trkpt lat="42.55979" lon="1.99905">
        <ele>2020</ele>
        <time>2019-07-05T14:26:48Z</time>
      </trkpt>
      <trkpt lat="42.55979" lon="1.99915">
        <ele>2019</ele>
        <time>2019-07-05T14:26:55Z</time>
      </trkpt>
      <trkpt lat="42.5598" lon="1.99921">
        <ele>2020</ele>
        <time>2019-07-05T14:26:59Z</time>
      </trkpt>
      <trkpt lat="42.55982" lon="1.99932">
        <ele>2019</ele>
        <time>2019-07-05T14:27:05Z</time>
      </trkpt>
      <trkpt lat="42.55988" lon="1.99972">
        <ele>2020</ele>
        <time>2019-07-05T14:27:29Z</time>
      </trkpt>
      <trkpt lat="42.55989" lon="1.99977">
        <ele>2021</ele>
        <time>2019-07-05T14:27:32Z</time>
      </trkpt>
      <trkpt lat="42.5599" lon="1.99982">
        <ele>2021</ele>
        <time>2019-07-05T14:27:35Z</time>
      </trkpt>
      <trkpt lat="42.55993" lon="1.99999">
        <ele>2020</ele>
        <time>2019-07-05T14:27:44Z</time>
      </trkpt>
      <trkpt lat="42.55994" lon="2.00004">
        <ele>2020</ele>
        <time>2019-07-05T14:27:47Z</time>
      </trkpt>
      <trkpt lat="42.55995" lon="2.00009">
        <ele>2020</ele>
        <time>2019-07-05T14:27:50Z</time>
      </trkpt>
      <trkpt lat="42.55996" lon="2.00015">
        <ele>2020</ele>
        <time>2019-07-05T14:27:53Z</time>
      </trkpt>
      <trkpt lat="42.55998" lon="2.00026">
        <ele>2020</ele>
        <time>2019-07-05T14:27:59Z</time>
      </trkpt>
      <trkpt lat="42.55999" lon="2.00031">
        <ele>2020</ele>
        <time>2019-07-05T14:28:02Z</time>
      </trkpt>
      <trkpt lat="42.56" lon="2.00036">
        <ele>2020</ele>
        <time>2019-07-05T14:28:05Z</time>
      </trkpt>
      <trkpt lat="42.56001" lon="2.00042">
        <ele>2020</ele>
        <time>2019-07-05T14:28:08Z</time>
      </trkpt>
      <trkpt lat="42.56002" lon="2.00052">
        <ele>2020</ele>
        <time>2019-07-05T14:28:14Z</time>
      </trkpt>
      <trkpt lat="42.56004" lon="2.00057">
        <ele>2020</ele>
        <time>2019-07-05T14:28:17Z</time>
      </trkpt>
      <trkpt lat="42.56004" lon="2.00064">
        <ele>2020</ele>
        <time>2019-07-05T14:28:21Z</time>
      </trkpt>
      <trkpt lat="42.56005" lon="2.00069">
        <ele>2020</ele>
        <time>2019-07-05T14:28:24Z</time>
      </trkpt>
      <trkpt lat="42.56005" lon="2.00075">
        <ele>2020</ele>
        <time>2019-07-05T14:28:27Z</time>
      </trkpt>
      <trkpt lat="42.56007" lon="2.0008">
        <ele>2020</ele>
        <time>2019-07-05T14:28:30Z</time>
      </trkpt>
      <trkpt lat="42.56008" lon="2.00086">
        <ele>2022</ele>
        <time>2019-07-05T14:28:33Z</time>
      </trkpt>
      <trkpt lat="42.56009" lon="2.00091">
        <ele>2022</ele>
        <time>2019-07-05T14:28:36Z</time>
      </trkpt>
      <trkpt lat="42.56009" lon="2.00096">
        <ele>2020</ele>
        <time>2019-07-05T14:28:39Z</time>
      </trkpt>
      <trkpt lat="42.56011" lon="2.00108">
        <ele>2019</ele>
        <time>2019-07-05T14:28:45Z</time>
      </trkpt>
      <trkpt lat="42.56012" lon="2.00113">
        <ele>2019</ele>
        <time>2019-07-05T14:28:48Z</time>
      </trkpt>
      <trkpt lat="42.56013" lon="2.00118">
        <ele>2019</ele>
        <time>2019-07-05T14:28:51Z</time>
      </trkpt>
      <trkpt lat="42.56014" lon="2.00124">
        <ele>2019</ele>
        <time>2019-07-05T14:28:54Z</time>
      </trkpt>
      <trkpt lat="42.56014" lon="2.00129">
        <ele>2019</ele>
        <time>2019-07-05T14:28:57Z</time>
      </trkpt>
      <trkpt lat="42.56016" lon="2.00134">
        <ele>2019</ele>
        <time>2019-07-05T14:29:00Z</time>
      </trkpt>
      <trkpt lat="42.56018" lon="2.00145">
        <ele>2019</ele>
        <time>2019-07-05T14:29:07Z</time>
      </trkpt>
      <trkpt lat="42.56019" lon="2.00151">
        <ele>2018</ele>
        <time>2019-07-05T14:29:10Z</time>
      </trkpt>
      <trkpt lat="42.5602" lon="2.00156">
        <ele>2018</ele>
        <time>2019-07-05T14:29:13Z</time>
      </trkpt>
      <trkpt lat="42.56021" lon="2.00169">
        <ele>2018</ele>
        <time>2019-07-05T14:29:21Z</time>
      </trkpt>
      <trkpt lat="42.56023" lon="2.00174">
        <ele>2018</ele>
        <time>2019-07-05T14:29:24Z</time>
      </trkpt>
      <trkpt lat="42.56024" lon="2.00179">
        <ele>2018</ele>
        <time>2019-07-05T14:29:27Z</time>
      </trkpt>
      <trkpt lat="42.56026" lon="2.0019">
        <ele>2018</ele>
        <time>2019-07-05T14:29:33Z</time>
      </trkpt>
      <trkpt lat="42.56028" lon="2.00205">
        <ele>2017</ele>
        <time>2019-07-05T14:29:42Z</time>
      </trkpt>
      <trkpt lat="42.5603" lon="2.00216">
        <ele>2017</ele>
        <time>2019-07-05T14:29:48Z</time>
      </trkpt>
      <trkpt lat="42.56031" lon="2.00227">
        <ele>2017</ele>
        <time>2019-07-05T14:29:54Z</time>
      </trkpt>
      <trkpt lat="42.56034" lon="2.00246">
        <ele>2017</ele>
        <time>2019-07-05T14:30:06Z</time>
      </trkpt>
      <trkpt lat="42.56036" lon="2.00251">
        <ele>2017</ele>
        <time>2019-07-05T14:30:09Z</time>
      </trkpt>
      <trkpt lat="42.56036" lon="2.00256">
        <ele>2017</ele>
        <time>2019-07-05T14:30:11Z</time>
      </trkpt>
      <trkpt lat="42.56041" lon="2.00282">
        <ele>2016</ele>
        <time>2019-07-05T14:30:26Z</time>
      </trkpt>
      <trkpt lat="42.56042" lon="2.00292">
        <ele>2015</ele>
        <time>2019-07-05T14:30:33Z</time>
      </trkpt>
      <trkpt lat="42.56043" lon="2.00297">
        <ele>2015</ele>
        <time>2019-07-05T14:30:36Z</time>
      </trkpt>
      <trkpt lat="42.56045" lon="2.00303">
        <ele>2016</ele>
        <time>2019-07-05T14:30:39Z</time>
      </trkpt>
      <trkpt lat="42.56045" lon="2.00307">
        <ele>2016</ele>
        <time>2019-07-05T14:30:42Z</time>
      </trkpt>
      <trkpt lat="42.56046" lon="2.00312">
        <ele>2016</ele>
        <time>2019-07-05T14:30:45Z</time>
      </trkpt>
      <trkpt lat="42.56047" lon="2.00317">
        <ele>2016</ele>
        <time>2019-07-05T14:30:48Z</time>
      </trkpt>
      <trkpt lat="42.56049" lon="2.00322">
        <ele>2015</ele>
        <time>2019-07-05T14:30:51Z</time>
      </trkpt>
      <trkpt lat="42.56049" lon="2.00328">
        <ele>2014</ele>
        <time>2019-07-05T14:30:54Z</time>
      </trkpt>
      <trkpt lat="42.56045" lon="2.00332">
        <ele>2014</ele>
        <time>2019-07-05T14:30:58Z</time>
      </trkpt>
      <trkpt lat="42.56042" lon="2.00336">
        <ele>2013</ele>
        <time>2019-07-05T14:31:01Z</time>
      </trkpt>
      <trkpt lat="42.56033" lon="2.00335">
        <ele>2013</ele>
        <time>2019-07-05T14:31:07Z</time>
      </trkpt>
      <trkpt lat="42.56029" lon="2.00337">
        <ele>2013</ele>
        <time>2019-07-05T14:31:10Z</time>
      </trkpt>
      <trkpt lat="42.56025" lon="2.00336">
        <ele>2013</ele>
        <time>2019-07-05T14:31:14Z</time>
      </trkpt>
      <trkpt lat="42.56021" lon="2.00336">
        <ele>2013</ele>
        <time>2019-07-05T14:31:17Z</time>
      </trkpt>
      <trkpt lat="42.56018" lon="2.00338">
        <ele>2012</ele>
        <time>2019-07-05T14:31:20Z</time>
      </trkpt>
      <trkpt lat="42.56015" lon="2.00342">
        <ele>2013</ele>
        <time>2019-07-05T14:31:24Z</time>
      </trkpt>
      <trkpt lat="42.56014" lon="2.0035">
        <ele>2013</ele>
        <time>2019-07-05T14:31:32Z</time>
      </trkpt>
      <trkpt lat="42.5601" lon="2.00361">
        <ele>2013</ele>
        <time>2019-07-05T14:31:40Z</time>
      </trkpt>
      <trkpt lat="42.55995" lon="2.00377">
        <ele>2013</ele>
        <time>2019-07-05T14:31:54Z</time>
      </trkpt>
      <trkpt lat="42.55991" lon="2.00378">
        <ele>2012</ele>
        <time>2019-07-05T14:31:58Z</time>
      </trkpt>
      <trkpt lat="42.55981" lon="2.00377">
        <ele>2011</ele>
        <time>2019-07-05T14:32:06Z</time>
      </trkpt>
      <trkpt lat="42.55971" lon="2.00375">
        <ele>2012</ele>
        <time>2019-07-05T14:32:16Z</time>
      </trkpt>
      <trkpt lat="42.55967" lon="2.00372">
        <ele>2011</ele>
        <time>2019-07-05T14:32:19Z</time>
      </trkpt>
      <trkpt lat="42.55953" lon="2.00358">
        <ele>2011</ele>
        <time>2019-07-05T14:32:34Z</time>
      </trkpt>
      <trkpt lat="42.55949" lon="2.00349">
        <ele>2010</ele>
        <time>2019-07-05T14:32:41Z</time>
      </trkpt>
      <trkpt lat="42.55946" lon="2.00344">
        <ele>2010</ele>
        <time>2019-07-05T14:32:45Z</time>
      </trkpt>
      <trkpt lat="42.5594" lon="2.00337">
        <ele>2010</ele>
        <time>2019-07-05T14:32:52Z</time>
      </trkpt>
      <trkpt lat="42.55937" lon="2.00335">
        <ele>2009</ele>
        <time>2019-07-05T14:32:55Z</time>
      </trkpt>
      <trkpt lat="42.5593" lon="2.00326">
        <ele>2009</ele>
        <time>2019-07-05T14:33:13Z</time>
      </trkpt>
      <trkpt lat="42.55929" lon="2.00321">
        <ele>2010</ele>
        <time>2019-07-05T14:33:16Z</time>
      </trkpt>
      <trkpt lat="42.55927" lon="2.00315">
        <ele>2009</ele>
        <time>2019-07-05T14:33:20Z</time>
      </trkpt>
      <trkpt lat="42.55926" lon="2.00305">
        <ele>2009</ele>
        <time>2019-07-05T14:33:26Z</time>
      </trkpt>
      <trkpt lat="42.55922" lon="2.00299">
        <ele>2009</ele>
        <time>2019-07-05T14:33:33Z</time>
      </trkpt>
      <trkpt lat="42.55918" lon="2.00303">
        <ele>2009</ele>
        <time>2019-07-05T14:33:54Z</time>
      </trkpt>
      <trkpt lat="42.55922" lon="2.00307">
        <ele>2008</ele>
        <time>2019-07-05T14:34:04Z</time>
      </trkpt>
      <trkpt lat="42.55924" lon="2.00316">
        <ele>2008</ele>
        <time>2019-07-05T14:34:19Z</time>
      </trkpt>
      <trkpt lat="42.55926" lon="2.00323">
        <ele>2008</ele>
        <time>2019-07-05T14:34:30Z</time>
      </trkpt>
      <trkpt lat="42.55921" lon="2.00325">
        <ele>2008</ele>
        <time>2019-07-05T14:34:50Z</time>
      </trkpt>
    </trkseg>
  </trk>
</gpx>